Temp     Hi    Low   Out    Dew  Wind  Wind   Wind    Hi    Hi   Wind   Heat    THW   THSW                Rain  Solar   Solar Hi Solar   UV    UV    Hi     Heat    Cool    In     In    In     In           Wind  Wind    ISS   Arc.
  Date    Time     Out   Temp   Temp   Hum    Pt. Speed   Dir    Run Speed   Dir  Chill  Index  Index  Index   Bar    Rain  Rate   Rad.  Energy    Rad.  Index  Dose   UV     D-D     D-D    Temp   Hum    Dew   Heat     ET   Samp   Tx   Recept  Int.
---------------------------------------------------------------------------------------------------------------------------------------------------------------------------------------------------------------------------------------------------------
 8/08/22   0.15   28.6   28.6   28.2    69   22.4   4.8   NNE   1.21  17.7   NNW   28.6   31.8   31.8   30.8   568.7  0.00   0.0     0     0.00      0     0.0  0.00   0.0   0.000   0.107   31.5    60   22.8   35.9    0.00   349    1    100.0   15 
 8/08/22   0.30   28.4   28.7   28.4    70   22.4   1.6   NNE   0.40  11.3   NNE   28.4   31.6   31.6   30.6   568.7  0.00   0.0     0     0.00      0     0.0  0.00   0.0   0.000   0.105   31.5    60   22.8   35.9    0.00   351    1    100.0   15 
 8/08/22   0.45   28.4   28.4   28.3    70   22.4   0.0    NE   0.00   6.4   NNE   28.4   31.4   31.4   30.4   568.7  0.00   0.0     0     0.00      0     0.0  0.00   0.0   0.000   0.105   31.5    61   23.1   36.1    0.00   349    1    100.0   15 
 8/08/22   1.00   28.1   28.4   28.0    70   22.1   0.0   ---   0.00   0.0   ---   28.1   30.8   30.8   29.8   568.7  0.00   0.0     0     0.00      0     0.0  0.00   0.0   0.000   0.101   31.5    60   22.8   35.9    0.05   350    1    100.0   15 
 8/08/22   1.15   26.9   28.1   26.9    67   20.2   0.0   ---   0.00   0.0   ---   26.9   28.3   28.3   27.2   568.7  0.00   0.0     0     0.00      0     0.0  0.00   0.0   0.000   0.089   31.4    58   22.1   35.2    0.00   350    1    100.0   15 
 8/08/22   1.30   27.6   27.6   26.8    69   21.4   0.0    NE   0.00   8.0    NE   27.6   29.6   29.6   28.6   568.7  0.00   0.0     0     0.00      0     0.0  0.00   0.0   0.000   0.096   31.3    57   21.7   34.7    0.00   350    1    100.0   15 
 8/08/22   1.45   28.1   28.2   27.6    67   21.4   1.6   NNE   0.40  14.5   NNE   28.1   30.4   30.4   29.4   568.7  0.00   0.0     0     0.00      0     0.0  0.00   0.0   0.000   0.102   31.2    58   21.9   34.7    0.00   349    1    100.0   15 
 8/08/22   2.00   27.3   28.1   27.2    68   20.9   0.0   ---   0.00   0.0   ---   27.3   29.0   29.0   27.9   568.7  0.00   0.0     0     0.00      0     0.0  0.00   0.0   0.000   0.093   31.2    58   21.9   34.7    0.03   347    1    100.0   15 
 8/08/22   2.15   27.6   27.8   27.2    68   21.2   0.0   NNE   0.00   6.4   NNE   27.6   29.6   29.6   28.6   568.7  0.00   0.0     0     0.00      0     0.0  0.00   0.0   0.000   0.097   31.0    58   21.8   34.4    0.00   350    1    100.0   15 
 8/08/22   2.30   27.1   27.6   26.9    70   21.1   0.0     N   0.00   1.6     N   27.1   28.8   28.8   27.8   568.7  0.00   0.0     0     0.00      0     0.0  0.00   0.0   0.000   0.091   30.9    57   21.4   34.1    0.00   351    1    100.0   15 
 8/08/22   2.45   27.1   27.4   27.1    69   20.9   0.0    NW   0.00   4.8    NW   27.1   28.8   28.8   27.7   568.7  0.00   0.0     0     0.00      0     0.0  0.00   0.0   0.000   0.091   30.8    58   21.6   34.1    0.00   351    1    100.0   15 
 8/08/22   3.00   27.2   27.2   26.9    71   21.5   0.0   ---   0.00   0.0   ---   27.2   29.1   29.1   28.1   568.7  0.00   0.0     0     0.00      0     0.0  0.00   0.0   0.000   0.092   30.7    58   21.5   33.9    0.03   351    1    100.0   15 
 8/08/22   3.15   26.9   27.6   26.9    70   21.0   0.0   ---   0.00   0.0   ---   26.9   28.6   28.6   27.5   568.7  0.00   0.0     0     0.00      0     0.0  0.00   0.0   0.000   0.090   30.6    59   21.6   34.0    0.00   351    1    100.0   15 
 8/08/22   3.30   26.4   26.9   26.4    71   20.7   0.0   ---   0.00   0.0   ---   26.4   27.9   27.9   26.8   568.7  0.00   0.0     0     0.00      0     0.0  0.00   0.0   0.000   0.084   30.4    59   21.5   33.8    0.00   351    1    100.0   15 
 8/08/22   3.45   26.1   26.4   26.0    68   19.7   0.0   ---   0.00   0.0   ---   26.1   27.2   27.2   26.0   568.7  0.00   0.0     0     0.00      0     0.0  0.00   0.0   0.000   0.080   30.4    59   21.5   33.8    0.00   350    1    100.0   15 
 8/08/22   4.00   25.9   26.1   25.8    70   20.0   0.0   ---   0.00   0.0   ---   25.9   27.2   27.2   26.1   568.7  0.00   0.0     0     0.00      0     0.0  0.00   0.0   0.000   0.079   30.6    58   21.4   33.8    0.03   350    1    100.0   15 
 8/08/22   4.15   26.2   26.2   25.7    73   21.0   0.0   ---   0.00   0.0   ---   26.2   27.8   27.8   26.7   568.7  0.00   0.0     0     0.00      0     0.0  0.00   0.0   0.000   0.082   30.6    58   21.4   33.8    0.00   349    1    100.0   15 
 8/08/22   4.30   25.9   26.3   25.9    73   20.7   0.0   ---   0.00   0.0   ---   25.9   27.4   27.4   26.3   568.7  0.00   0.0     0     0.00      0     0.0  0.00   0.0   0.000   0.079   30.3    59   21.4   33.6    0.00   352    1    100.0   15 
 8/08/22   4.45   26.2   26.3   25.9    73   21.0   0.0   ---   0.00   0.0   ---   26.2   27.8   27.8   26.7   568.7  0.00   0.0     0     0.00      0     0.0  0.00   0.0   0.000   0.082   30.3    60   21.7   33.8    0.00   351    1    100.0   15 
 8/08/22   5.00   26.2   26.3   26.1    74   21.2   0.0   NNW   0.00   1.6   NNW   26.2   27.8   27.8   26.7   568.7  0.00   0.0     0     0.00      0     0.0  0.00   0.0   0.000   0.082   30.3    60   21.7   33.8    0.03   351    1    100.0   15 
 8/08/22   5.15   26.4   26.4   26.1    74   21.4   0.0   NNW   0.00   6.4   NNW   26.4   28.2   28.2   27.2   568.7  0.00   0.0     0     0.00      0     0.0  0.00   0.0   0.000   0.084   30.4    61   22.1   34.2    0.00   350    1    100.0   15 
 8/08/22   5.30   26.5   26.6   26.4    75   21.7   0.0     N   0.00   4.8   NNE   26.5   28.4   28.4   27.4   568.7  0.00   0.0     0     0.00      0     0.0  0.00   0.0   0.000   0.085   30.4    62   22.3   34.4    0.00   350    1    100.0   15 
 8/08/22   5.45   26.6   26.6   26.5    75   21.8   0.0   ---   0.00   0.0   ---   26.6   28.5   28.5   27.5   568.7  0.00   0.0     0     0.00      0     0.0  0.00   0.0   0.000   0.086   30.4    62   22.3   34.4    0.00   352    1    100.0   15 
 8/08/22   6.00   26.4   26.6   26.4    74   21.4   0.0   NNE   0.00   1.6   NNE   26.4   28.2   28.2   27.2   568.7  0.00   0.0     0     0.00      0     0.0  0.00   0.0   0.000   0.084   30.4    63   22.6   34.7    0.03   351    1    100.0   15 
 8/08/22   6.15   26.2   26.4   26.2    74   21.2   0.0   ---   0.00   0.0   ---   26.2   27.9   27.9   26.8   568.7  0.00   0.0     0     0.00      0     0.0  0.00   0.0   0.000   0.082   30.4    63   22.6   34.7    0.00   347    1    100.0   15 
 8/08/22   6.30   26.2   26.3   26.2    74   21.2   0.0   NNE   0.00   3.2   NNE   26.2   27.8   27.8   26.8   568.7  0.00   0.0     5     0.11      9     0.0  0.00   0.0   0.000   0.082   30.3    62   22.2   34.2    0.00   351    1    100.0   15 
 8/08/22   6.45   26.1   26.2   26.1    74   21.1   0.0     N   0.00   4.8     N   26.1   27.7   27.7   26.8   568.7  0.00   0.0    14     0.30     18     0.0  0.00   0.0   0.000   0.081   30.2    62   22.1   33.9    0.00   352    1    100.0   15 
 8/08/22   7.00   26.3   26.3   26.1    73   21.1   0.0   NNW   0.00   4.8     W   26.3   27.9   27.9   27.8   568.7  0.00   0.0    21     0.45     25     0.0  0.00   0.0   0.000   0.083   30.1    62   22.0   33.7    0.03   348    1    100.0   15 
 8/08/22   7.15   26.4   26.4   26.3    69   20.3   1.6     N   0.40   9.7   NNW   26.4   27.8   27.8   27.8   568.7  0.00   0.0    30     0.65     40     0.0  0.00   0.0   0.000   0.084   30.1    61   21.8   33.5    0.00   350    1    100.0   15 
 8/08/22   7.30   26.5   26.5   26.3    65   19.4   1.6     N   0.40  14.5     N   26.5   27.6   27.6   27.8   568.7  0.00   0.0    42     0.90     44     0.0  0.00   0.0   0.000   0.085   30.0    59   21.1   32.8    0.00   351    1    100.0   15 
 8/08/22   7.45   26.8   26.8   26.5    64   19.4   0.0   NNW   0.00   8.0   NNW   26.8   27.9   27.9   28.7   568.7  0.00   0.0    65     1.40    160     0.0  0.00   0.0   0.000   0.089   30.0    58   20.8   32.7    0.00   351    1    100.0   15 
 8/08/22   8.00   27.6   27.6   26.8    62   19.7   0.0   NNE   0.00   9.7     N   27.6   28.9   28.9   32.2   568.7  0.00   0.0   188     4.04    206     0.0  0.00   0.0   0.000   0.097   30.1    57   20.7   32.7    0.05   349    1    100.0   15 
 8/08/22   8.15   28.2   28.2   27.6    59   19.4   1.6    NE   0.40   9.7    NE   28.2   29.6   29.6   33.4   568.7  0.00   0.0   232     4.99    251     0.0  0.00   0.0   0.000   0.103   30.2    57   20.8   32.9    0.00   351    1    100.0   15 
 8/08/22   8.30   28.9   28.9   28.2    58   19.8   0.0     N   0.00   8.0     N   28.9   30.7   30.7   35.1   568.7  0.00   0.0   274     5.89    316     0.0  0.00   0.0   0.000   0.110   30.3    56   20.6   32.9    0.00   350    1    100.0   15 
 8/08/22   8.45   29.2   29.2   28.9    56   19.5   1.6    NW   0.40   9.7   NNW   29.2   30.8   30.8   35.5   568.7  0.00   0.0   313     6.73    325     0.0  0.00   0.0   0.000   0.113   30.4    56   20.7   33.2    0.00   352    1    100.0   15 
 8/08/22   9.00   29.8   29.8   29.2    55   19.8   4.8   NNE   1.21  14.5   NNW   29.8   31.7   31.7   36.7   568.7  0.00   0.0   355     7.63    380     0.0  0.00   0.0   0.000   0.119   30.7    55   20.6   33.4    0.20   350    1    100.0   15 
 8/08/22   9.15   29.8   29.8   29.8    55   19.8   8.0     N   2.01  19.3   NNE   29.8   31.7   31.7   36.9   568.7  0.00   0.0   392     8.43    406     0.0  0.00   0.0   0.000   0.119   30.8    54   20.4   33.3    0.00   351    1    100.0   15 
 8/08/22   9.30   30.2   30.2   29.7    53   19.5   6.4     N   1.61  16.1     N   30.2   32.1   32.1   37.4   568.7  0.00   0.0   430     9.25    455     0.1  0.01   0.5   0.000   0.123   30.9    53   20.2   33.3    0.00   351    1    100.0   15 
 8/08/22   9.45   30.2   30.2   30.0    51   18.9   4.8     N   1.21  14.5     N   30.2   31.7   31.7   37.3   568.7  0.00   0.0   473    10.17    492     0.6  0.06   0.7   0.000   0.123   31.0    52   20.0   33.2    0.00   350    1    100.0   15 
 8/08/22  10.00   30.6   30.6   30.2    50   19.0   4.8     N   1.21  16.1     N   30.6   32.3   32.3   38.1   568.7  0.00   0.0   513    11.03    531     0.8  0.09   1.0   0.000   0.128   31.2    51   19.8   33.3    0.36   352    1    100.0   15 
 8/08/22  10.15   31.0   31.0   30.6    48   18.7   3.2     N   0.80  14.5     N   31.0   32.5   32.5   38.3   568.7  0.00   0.0   537    11.55    563     1.1  0.12   1.2   0.000   0.132   31.3    51   19.9   33.6    0.00   351    1    100.0   15 
 8/08/22  10.30   31.4   31.4   31.0    47   18.7   4.8   NNE   1.21  19.3   NNE   31.4   33.1   33.1   39.1   568.7  0.00   0.0   593    12.75    613     1.4  0.15   1.6   0.000   0.136   31.4    50   19.7   33.6    0.00   351    1    100.0   15 
 8/08/22  10.45   31.8   31.8   31.4    48   19.5   1.6   ESE   0.40  12.9    NE   31.8   34.1   34.1   40.2   568.7  0.00   0.0   602    12.94    654     1.7  0.18   1.8   0.000   0.141   31.5    51   20.1   34.1    0.00   351    1    100.0   15 
 8/08/22  11.00   32.3   32.3   31.8    48   19.9   0.0   SSW   0.00   9.7   SSW   32.3   34.8   34.8   41.2   568.7  0.00   0.0   667    14.34    701     2.0  0.21   2.2   0.000   0.145   31.5    51   20.1   34.1    0.43   351    1    100.0   15 
 8/08/22  11.15   31.8   32.3   31.8    51   20.4   6.4   SSE   1.61  19.3    SE   31.8   34.7   34.7   41.2   568.7  0.00   0.0   675    14.51    707     2.2  0.24   2.3   0.000   0.141   31.7    52   20.7   34.7    0.00   351    1    100.0   15 
 8/08/22  11.30   32.1   32.1   31.8    48   19.7   4.8    SE   1.21  19.3   ESE   32.1   34.4   34.4   40.9   568.7  0.00   0.0   713    15.33    724     2.6  0.28   2.7   0.000   0.143   31.8    51   20.4   34.7    0.00   351    1    100.0   15 
 8/08/22  11.45   32.3   32.5   32.1    45   18.8   8.0     N   2.01  20.9   NNW   32.3   34.2   34.2   40.7   568.7  0.00   0.0   742    15.96    763     2.7  0.29   3.0   0.000   0.145   31.9    50   20.2   34.7    0.00   350    1    100.0   15 
 8/08/22  12.00   32.3   32.6   32.1    45   18.9   8.0     N   2.01  20.9     N   32.3   34.3   34.3   40.8   568.7  0.00   0.0   760    16.34    772     3.1  0.33   3.3   0.000   0.146   32.1    48   19.7   34.4    0.56   351    1    100.0   15 
 8/08/22  12.15   31.7   32.4   31.7    48   19.3  12.9     N   3.22  25.7   NNE   31.7   33.9   33.9   40.2   568.7  0.00   0.0   779    16.75    805     3.3  0.35   3.4   0.000   0.139   32.2    48   19.8   34.6    0.00   349    1    100.0   15 
 8/08/22  12.30   30.9   31.7   30.9    55   20.8  14.5     N   3.62  29.0   NNE   30.7   33.7   33.5   39.6   568.7  0.00   0.0   844    18.15    868     3.6  0.39   3.6   0.000   0.131   32.2    51   20.7   35.2    0.00   351    1    100.0   15 
 8/08/22  12.45   30.6   31.0   30.6    54   20.2  14.5   NNE   3.62  27.4    NE   30.4   33.1   32.9   39.0   568.7  0.00   0.0   821    17.65    835     3.6  0.39   3.8   0.000   0.128   32.3    51   20.9   35.6    0.00   351    1    100.0   15 
 8/08/22  13.00   31.1   31.2   30.6    50   19.5  12.9     N   3.22  25.7   NNE   31.1   33.0   32.9   39.3   568.7  0.00   0.0   811    17.44    816     3.8  0.41   3.9   0.000   0.133   32.3    50   20.6   35.3    0.66   350    1    100.0   15 
 8/08/22  13.15   31.2   31.2   30.8    48   18.9  16.1   NNE   4.02  25.7    NE   30.9   32.7   32.5   38.3   568.7  0.00   0.0   815    17.52    817     3.9  0.42   3.9   0.000   0.134   32.3    48   19.9   34.9    0.00   352    1    100.0   15 
 8/08/22  13.30   31.0   31.4   31.0    47   18.4  16.1     N   4.02  27.4   NNE   30.8   32.3   32.1   37.9   568.7  0.00   0.0   816    17.55    819     3.9  0.42   3.9   0.000   0.132   32.3    47   19.6   34.7    0.00   351    1    100.0   15 
 8/08/22  13.45   31.4   31.4   30.8    42   17.0  17.7   NNE   4.43  29.0   NNE   31.2   32.2   31.9   37.4   568.7  0.00   0.0   818    17.59    823     3.9  0.42   3.9   0.000   0.137   32.2    47   19.4   34.4    0.00   349    1    100.0   15 
 8/08/22  14.00   31.7   32.2   31.5    40   16.4  12.9     N   3.22  24.1   NNE   31.7   32.2   32.2   38.0   568.7  0.00   0.0   674    14.49    828     3.3  0.35   3.9   0.000   0.139   32.2    45   18.7   34.0    0.66   349    1    100.0   15 
 8/08/22  14.15   31.1   31.7   31.1    46   18.1  14.5   NNE   3.62  27.4     N   30.9   32.2   32.0   37.9   568.7  0.00   0.0   827    17.78    838     2.6  0.28   3.7   0.000   0.133   32.2    46   19.1   34.2    0.00   352    1    100.0   15 
 8/08/22  14.30   31.7   31.7   31.1    43   17.6  16.1   NNE   4.02  30.6   NNE   31.6   32.9   32.8   38.5   568.7  0.00   0.0   811    17.44    819     3.5  0.38   3.6   0.000   0.139   32.2    47   19.4   34.4    0.00   348    1    100.0   15 
 8/08/22  14.45   32.3   32.3   31.7    40   17.0  11.3   NNE   2.82  25.7   NNE   32.3   33.0   33.0   39.3   568.7  0.00   0.0   794    17.07    796     3.3  0.35   3.3   0.000   0.145   32.3    45   18.9   34.3    0.00   351    1    100.0   15 
 8/08/22  15.00   32.4   32.4   31.9    40   17.1  14.5   NNE   3.62  25.7     N   32.4   33.2   33.2   39.0   568.7  0.00   0.0   781    16.79    791     3.1  0.33   3.2   0.000   0.146   32.3    45   18.9   34.3    0.69   350    1    100.0   15 
 8/08/22  15.15   33.2   33.2   32.4    36   16.1  12.9     N   3.22  25.7   NNW   33.2   33.6   33.6   39.6   568.7  0.00   0.0   781    16.79    793     2.9  0.31   3.0   0.000   0.155   32.4    45   19.0   34.4    0.00   352    1    100.0   15 
 8/08/22  15.30   33.6   33.6   33.0    35   16.0  12.9    NW   3.22  27.4   NNW   33.6   34.0   34.0   39.7   568.7  0.00   0.0   785    16.88    812     2.7  0.29   2.8   0.000   0.159   32.6    44   18.7   34.4    0.00   350    1    100.0   15 
 8/08/22  15.45   33.4   33.6   33.2    35   15.8  16.1     N   4.02  29.0   NNW   33.4   33.7   33.7   39.0   568.7  0.00   0.0   761    16.36    809     2.5  0.27   2.7   0.000   0.157   32.6    43   18.4   34.2    0.00   351    1    100.0   15 
 8/08/22  16.00   33.1   33.3   32.9    36   16.0  17.7    NW   4.43  35.4   WNW   33.1   33.5   33.5   38.7   568.7  0.00   0.0   681    14.64    703     2.0  0.21   2.2   0.000   0.153   32.7    42   18.1   34.1    0.69   351    1    100.0   15 
 8/08/22  16.15   33.3   33.4   32.9    36   16.2  17.7   NNW   4.43  32.2    NW   33.3   33.8   33.8   39.0   568.7  0.00   0.0   646    13.89    663     1.7  0.18   1.8   0.000   0.156   32.8    42   18.2   34.3    0.00   351    1    100.0   15 
 8/08/22  16.30   32.9   33.4   32.9    36   15.9  17.7   NNW   4.43  33.8   NNW   32.9   33.3   33.3   38.5   568.7  0.00   0.0   611    13.14    628     1.4  0.15   1.5   0.000   0.152   32.8    42   18.2   34.3    0.00   350    1    100.0   15 
 8/08/22  16.45   32.7   33.4   32.7    36   15.6  17.7   NNW   4.43  35.4   NNW   32.7   32.9   32.9   38.1   568.7  0.00   0.0   576    12.39    594     1.2  0.13   1.3   0.000   0.149   32.9    42   18.3   34.5    0.00   349    1    100.0   15 
 8/08/22  17.00   32.6   32.8   32.5    38   16.4  17.7   NNW   4.43  30.6    NW   32.6   33.1   33.1   38.2   568.7  0.00   0.0   539    11.59    557     1.0  0.11   1.1   0.000   0.148   32.9    42   18.3   34.5    0.61   351    1    100.0   15 
 8/08/22  17.15   32.1   32.6   32.0    40   16.8  19.3   NNW   4.83  32.2    NW   31.9   32.8   32.6   37.4   568.7  0.00   0.0   498    10.71    515     0.8  0.09   0.9   0.000   0.144   32.9    42   18.3   34.5    0.00   349    1    100.0   15 
 8/08/22  17.30   32.2   32.3   32.0    40   16.9  16.1   NNW   4.02  33.8    NW   32.2   32.8   32.8   37.9   568.7  0.00   0.0   452     9.72    475     0.6  0.06   0.7   0.000   0.144   33.1    43   18.8   35.1    0.00   352    1    100.0   15 
 8/08/22  17.45   32.1   32.3   32.0    39   16.4  17.7   NNW   4.43  35.4   NNW   31.9   32.6   32.4   37.1   568.7  0.00   0.0   416     8.95    432     0.0  0.00   0.0   0.000   0.143   33.1    43   18.8   35.1    0.00   351    1    100.0   15 
 8/08/22  18.00   32.2   32.2   31.8    39   16.5  16.1     N   4.02  33.8    NW   32.2   32.7   32.7   37.3   568.7  0.00   0.0   372     8.00    394     0.0  0.00   0.0   0.000   0.144   33.1    42   18.4   34.8    0.48   349    1    100.0   15 
 8/08/22  18.15   31.8   32.2   31.8    40   16.5  17.7     N   4.43  35.4     N   31.6   32.3   32.2   36.4   568.7  0.00   0.0   330     7.10    350     0.0  0.00   0.0   0.000   0.140   32.9    41   17.9   34.3    0.00   350    1    100.0   15 
 8/08/22  18.30   31.4   31.8   31.4    41   16.6  17.7     N   4.43  32.2     N   31.2   32.0   31.7   35.6   568.7  0.00   0.0   286     6.15    308     0.0  0.00   0.0   0.000   0.137   32.7    42   18.1   34.1    0.00   351    1    100.0   15 
 8/08/22  18.45   31.1   31.4   31.1    46   18.1  17.7   NNE   4.43  32.2     N   30.8   32.2   31.9   35.5   568.7  0.00   0.0   246     5.29    264     0.0  0.00   0.0   0.000   0.133   32.6    44   18.7   34.4    0.00   350    1    100.0   15 
 8/08/22  19.00   30.7   31.2   30.7    48   18.4  14.5   NNE   3.62  29.0   NNE   30.4   32.1   31.8   34.9   568.7  0.00   0.0   186     4.00    227     0.0  0.00   0.0   0.000   0.128   32.4    45   19.0   34.4    0.36   351    1    100.0   15 
 8/08/22  19.15   30.3   30.7   30.3    49   18.4  14.5   NNE   3.62  27.4     N   30.1   31.7   31.5   33.9   568.7  0.00   0.0   151     3.25    181     0.0  0.00   0.0   0.000   0.125   32.4    46   19.3   34.7    0.00   351    1    100.0   15 
 8/08/22  19.30   30.3   30.3   30.2    47   17.7  16.1   NNE   4.02  27.4     N   29.9   31.3   30.9   32.4   568.7  0.00   0.0   107     2.30    128     0.0  0.00   0.0   0.000   0.124   32.3    45   18.9   34.3    0.00   352    1    100.0   15 
 8/08/22  19.45   30.1   30.3   30.1    46   17.2  12.9   NNE   3.22  30.6     N   29.9   30.8   30.7   30.0   568.7  0.00   0.0    39     0.84     88     0.0  0.00   0.0   0.000   0.122   32.2    45   18.7   34.0    0.00   350    1    100.0   15 
 8/08/22  20.00   29.7   30.1   29.7    52   18.8  14.5     N   3.62  25.7   NNE   29.3   31.1   30.7   29.9   568.7  0.00   0.0    27     0.58     30     0.0  0.00   0.0   0.000   0.118   32.1    45   18.6   33.8    0.20   351    1    100.0   15 
 8/08/22  20.15   29.1   29.7   29.1    63   21.3  17.7   NNE   4.43  33.8    NE   28.3   31.7   31.0   30.3   568.7  0.00   0.0    17     0.37     25     0.0  0.00   0.0   0.000   0.112   32.1    51   20.6   35.1    0.00   350    1    100.0   15 
 8/08/22  20.30   28.9   29.1   28.9    65   21.6  12.9     N   3.22  27.4     N   28.7   31.8   31.6   30.7   568.7  0.00   0.0     2     0.04      5     0.0  0.00   0.0   0.000   0.110   31.9    53   21.2   35.3    0.00   350    1    100.0   15 
 8/08/22  20.45   28.7   28.9   28.7    67   21.9   8.0    NE   2.01  20.9   NNE   28.7   31.6   31.6   30.6   568.7  0.00   0.0     0     0.00      0     0.0  0.00   0.0   0.000   0.108   31.8    55   21.7   35.6    0.00   350    1    100.0   15 
 8/08/22  21.00   28.6   28.7   28.6    67   21.8   6.4     N   1.61  16.1     N   28.6   31.4   31.4   30.4   568.7  0.00   0.0     0     0.00      0     0.0  0.00   0.0   0.000   0.106   31.8    57   22.3   36.0    0.08   350    1    100.0   15 
 8/08/22  21.15   28.4   28.6   28.4    66   21.5   4.8   NNW   1.21   9.7   NNW   28.4   30.9   30.9   29.9   568.7  0.00   0.0     0     0.00      0     0.0  0.00   0.0   0.000   0.105   31.8    57   22.3   36.0    0.00   350    1    100.0   15 
 8/08/22  21.30   28.2   28.4   28.2    65   21.0   0.0   NNW   0.00   4.8   NNW   28.2   30.3   30.3   29.3   568.7  0.00   0.0     0     0.00      0     0.0  0.00   0.0   0.000   0.103   31.8    55   21.7   35.6    0.00   350    1    100.0   15 
 8/08/22  21.45   27.9   28.2   27.9    67   21.2   0.0     N   0.00   6.4     N   27.9   30.0   30.0   29.0   568.7  0.00   0.0     0     0.00      0     0.0  0.00   0.0   0.000   0.100   31.8    56   22.0   35.8    0.00   351    1    100.0   15 
 8/08/22  22.00   27.4   27.9   27.4    67   20.7   0.0   ESE   0.00   6.4   ESE   27.4   29.1   29.1   28.1   568.7  0.00   0.0     0     0.00      0     0.0  0.00   0.0   0.000   0.094   31.8    56   22.0   35.8    0.05   350    1    100.0   15 
 8/08/22  22.15   27.0   27.4   26.9    68   20.6   0.0   ESE   0.00   1.6   ESE   27.0   28.6   28.6   27.5   568.7  0.00   0.0     0     0.00      0     0.0  0.00   0.0   0.000   0.090   31.6    56   21.8   35.3    0.00   351    1    100.0   15 
 8/08/22  22.30   26.9   26.9   26.8    68   20.5   0.0   ---   0.00   0.0   ---   26.9   28.4   28.4   27.3   568.7  0.00   0.0     0     0.00      0     0.0  0.00   0.0   0.000   0.089   31.6    55   21.5   35.1    0.00   350    1    100.0   15 
 8/08/22  22.45   26.8   26.9   26.8    65   19.7   0.0   ---   0.00   0.0   ---   26.8   28.1   28.1   26.9   568.7  0.00   0.0     0     0.00      0     0.0  0.00   0.0   0.000   0.089   31.6    54   21.2   34.9    0.00   351    1    100.0   15 
 8/08/22  23.00   26.3   26.8   26.3    67   19.7   0.0   ---   0.00   0.0   ---   26.3   27.5   27.5   26.4   568.7  0.00   0.0     0     0.00      0     0.0  0.00   0.0   0.000   0.083   31.6    53   20.9   34.7    0.03   349    1    100.0   15 
 8/08/22  23.15   25.7   26.3   25.7    67   19.1   0.0   ---   0.00   0.0   ---   25.7   26.7   26.7   25.5   568.7  0.00   0.0     0     0.00      0     0.0  0.00   0.0   0.000   0.077   31.6    53   20.9   34.7    0.00   350    1    100.0   15 
 8/08/22  23.30   25.5   25.7   25.4    68   19.2   0.0   ---   0.00   0.0   ---   25.5   26.5   26.5   25.3   568.7  0.00   0.0     0     0.00      0     0.0  0.00   0.0   0.000   0.075   31.5    52   20.5   34.3    0.00   351    1    100.0   15 
 8/08/22  23.45   25.8   25.8   25.4    69   19.7   0.0   ---   0.00   0.0   ---   25.8   26.9   26.9   25.8   568.7  0.00   0.0     0     0.00      0     0.0  0.00   0.0   0.000   0.078   31.2    53   20.5   33.7    0.00   351    1    100.0   15 
 9/08/22  00.00   25.2   25.9   25.2    68   18.8   0.0   ---   0.00   0.0   ---   25.2   26.1   26.1   24.9   568.7  0.00   0.0     0     0.00      0     0.0  0.00   0.0   0.000   0.071   31.0    53   20.3   33.4    0.03   350    1    100.0   15 
 9/08/22   0.15   24.6   25.1   24.6    70   18.8   0.0   ---   0.00   0.0   ---   24.6   25.6   25.6   24.4   568.7  0.00   0.0     0     0.00      0     0.0  0.00   0.0   0.000   0.065   31.2    53   20.5   33.7    0.00   348    1    100.0   15 
 9/08/22   0.30   24.7   24.8   24.6    69   18.6   0.0   ---   0.00   0.0   ---   24.7   25.7   25.7   24.5   568.7  0.00   0.0     0     0.00      0     0.0  0.00   0.0   0.000   0.067   30.9    53   20.2   33.3    0.00   350    1    100.0   15 
 9/08/22   0.45   24.4   24.8   24.4    70   18.6   0.0   ---   0.00   0.0   ---   24.4   25.4   25.4   24.3   568.7  0.00   0.0     0     0.00      0     0.0  0.00   0.0   0.000   0.064   30.9    53   20.2   33.3    0.00   350    1    100.0   15 
 9/08/22   1.00   24.2   24.4   24.2    67   17.7   0.0   ---   0.00   0.0   ---   24.2   25.0   25.0   23.8   568.7  0.00   0.0     0     0.00      0     0.0  0.00   0.0   0.000   0.061   30.8    52   19.8   32.9    0.03   349    1    100.0   15 
 9/08/22   1.15   24.2   24.2   24.2    67   17.7   0.0   ---   0.00   0.0   ---   24.2   25.0   25.0   23.8   568.7  0.00   0.0     0     0.00      0     0.0  0.00   0.0   0.000   0.061   30.4    51   19.2   32.3    0.00   351    1    100.0   15 
 9/08/22   1.30   23.8   24.3   23.8    70   18.0   0.0   ---   0.00   0.0   ---   23.8   24.7   24.7   23.5   568.7  0.00   0.0     0     0.00      0     0.0  0.00   0.0   0.000   0.057   30.4    52   19.5   32.4    0.00   351    1    100.0   15 
 9/08/22   1.45   24.9   24.9   23.8    71   19.3   0.0   ---   0.00   0.0   ---   24.9   26.1   26.1   24.9   568.7  0.00   0.0     0     0.00      0     0.0  0.00   0.0   0.000   0.069   30.4    52   19.5   32.4    0.00   351    1    100.0   15 
 9/08/22   2.00   25.8   25.8   24.9    70   19.9   0.0   ---   0.00   0.0   ---   25.8   27.1   27.1   25.9   568.7  0.00   0.0     0     0.00      0     0.0  0.00   0.0   0.000   0.078   30.4    53   19.8   32.6    0.03   350    1    100.0   15 
 9/08/22   2.15   26.0   26.0   25.8    71   20.3   0.0   ---   0.00   0.0   ---   26.0   27.3   27.3   26.2   568.7  0.00   0.0     0     0.00      0     0.0  0.00   0.0   0.000   0.080   30.4    54   20.1   32.8    0.00   349    1    100.0   15 
 9/08/22   2.30   26.1   26.2   25.9    71   20.4   0.0   ---   0.00   0.0   ---   26.1   27.4   27.4   26.3   568.7  0.00   0.0     0     0.00      0     0.0  0.00   0.0   0.000   0.081   30.4    55   20.4   33.0    0.00   350    1    100.0   15 
 9/08/22   2.45   26.0   26.2   26.0    71   20.3   0.0   ---   0.00   0.0   ---   26.0   27.3   27.3   26.2   568.7  0.00   0.0     0     0.00      0     0.0  0.00   0.0   0.000   0.080   30.6    56   20.8   33.4    0.00   349    1    100.0   15 
 9/08/22   3.00   25.4   26.0   25.4    72   20.0   0.0   ---   0.00   0.0   ---   25.4   26.7   26.7   25.6   568.7  0.00   0.0     0     0.00      0     0.0  0.00   0.0   0.000   0.074   30.6    57   21.1   33.6    0.03   351    1    100.0   15 
 9/08/22   3.15   24.9   25.4   24.8    73   19.7   0.0   ---   0.00   0.0   ---   24.9   26.1   26.1   25.0   568.7  0.00   0.0     0     0.00      0     0.0  0.00   0.0   0.000   0.068   30.4    56   20.7   33.2    0.00   351    1    100.0   15 
 9/08/22   3.30   25.2   25.3   24.9    74   20.2   0.0   ---   0.00   0.0   ---   25.2   26.5   26.5   25.4   568.7  0.00   0.0     0     0.00      0     0.0  0.00   0.0   0.000   0.071   30.4    57   21.0   33.4    0.00   351    1    100.0   15 
 9/08/22   3.45   24.6   25.2   24.6    75   19.8   0.0   ---   0.00   0.0   ---   24.6   25.9   25.9   24.8   568.7  0.00   0.0     0     0.00      0     0.0  0.00   0.0   0.000   0.065   30.4    57   21.0   33.4    0.00   350    1    100.0   15 
 9/08/22   4.00   24.3   24.6   24.3    75   19.6   0.0   ---   0.00   0.0   ---   24.3   25.6   25.6   24.4   568.7  0.00   0.0     0     0.00      0     0.0  0.00   0.0   0.000   0.062   30.3    57   20.9   33.2    0.03   350    1    100.0   15 
 9/08/22   4.15   24.2   24.3   24.2    76   19.7   0.0   ---   0.00   0.0   ---   24.2   25.4   25.4   24.3   568.7  0.00   0.0     0     0.00      0     0.0  0.00   0.0   0.000   0.061   30.2    57   20.8   32.9    0.00   351    1    100.0   15 
 9/08/22   4.30   24.1   24.2   23.9    75   19.3   0.0   ---   0.00   0.0   ---   24.1   25.3   25.3   24.1   568.7  0.00   0.0     0     0.00      0     0.0  0.00   0.0   0.000   0.060   30.1    57   20.7   32.7    0.00   352    1    100.0   15 
 9/08/22   4.45   24.1   24.1   23.9    77   19.8   0.0   ---   0.00   0.0   ---   24.1   25.4   25.4   24.3   568.7  0.00   0.0     0     0.00      0     0.0  0.00   0.0   0.000   0.060   30.1    58   20.9   32.9    0.00   351    1    100.0   15 
 9/08/22   5.00   24.7   24.7   24.1    77   20.4   0.0   ---   0.00   0.0   ---   24.7   26.1   26.1   25.0   568.7  0.00   0.0     0     0.00      0     0.0  0.00   0.0   0.000   0.066   30.1    58   20.9   32.9    0.03   350    1    100.0   15 
 9/08/22   5.15   25.0   25.0   24.7    78   20.9   0.0   ---   0.00   0.0   ---   25.0   26.6   26.6   25.5   568.7  0.00   0.0     0     0.00      0     0.0  0.00   0.0   0.000   0.069   30.0    59   21.1   32.8    0.00   350    1    100.0   15 
 9/08/22   5.30   25.1   25.2   24.9    78   21.0   0.0   ---   0.00   0.0   ---   25.1   26.7   26.7   25.7   568.7  0.00   0.0     0     0.00      0     0.0  0.00   0.0   0.000   0.071   30.0    60   21.4   33.1    0.00   352    1    100.0   15 
 9/08/22   5.45   25.0   25.1   24.9    78   20.9   0.0   ---   0.00   0.0   ---   25.0   26.6   26.6   25.5   568.7  0.00   0.0     0     0.00      0     0.0  0.00   0.0   0.000   0.069   30.0    60   21.4   33.1    0.00   351    1    100.0   15 
 9/08/22   6.00   24.8   25.1   24.8    78   20.7   0.0   ---   0.00   0.0   ---   24.8   26.3   26.3   25.3   568.7  0.00   0.0     0     0.00      0     0.0  0.00   0.0   0.000   0.067   30.0    61   21.7   33.3    0.03   351    1    100.0   15 
 9/08/22   6.15   23.6   24.8   23.6    76   19.1   0.0   ---   0.00   0.0   ---   23.6   24.7   24.7   23.5   568.7  0.00   0.0     0     0.00      0     0.0  0.00   0.0   0.000   0.054   29.9    61   21.6   33.1    0.00   350    1    100.0   15 
 9/08/22   6.30   23.7   23.8   23.5    77   19.4   0.0   ---   0.00   0.0   ---   23.7   24.8   24.8   23.7   568.7  0.00   0.0     2     0.04      5     0.0  0.00   0.0   0.000   0.056   29.8    59   20.9   32.4    0.00   348    1    100.0   15 
 9/08/22   6.45   23.0   23.7   23.0    79   19.2   0.0   ---   0.00   0.0   ---   23.0   24.0   24.0   22.9   568.7  0.00   0.0     9     0.19     11     0.0  0.00   0.0   0.000   0.049   29.6    60   21.0   32.1    0.00   352    1    100.0   15 
 9/08/22   7.00   22.4   23.0   22.4    78   18.4   0.0   ---   0.00   0.0   ---   22.4   23.2   23.2   22.8   568.7  0.00   0.0    13     0.28     16     0.0  0.00   0.0   0.000   0.043   29.4    59   20.6   31.7    0.00   350    1    100.0   15 
 9/08/22   7.15   22.4   22.4   22.3    77   18.2   0.0   ---   0.00   0.0   ---   22.4   23.1   23.1   22.8   568.7  0.00   0.0    20     0.43     23     0.0  0.00   0.0   0.000   0.042   29.3    59   20.5   31.6    0.00   350    1    100.0   15 
 9/08/22   7.30   22.8   22.8   22.3    76   18.3   0.0   ---   0.00   0.0   ---   22.8   23.7   23.7   23.6   568.7  0.00   0.0    30     0.65     37     0.0  0.00   0.0   0.000   0.046   29.3    58   20.2   31.4    0.00   351    1    100.0   15 
 9/08/22   7.45   23.5   23.5   22.8    76   19.0   0.0   ---   0.00   0.0   ---   23.5   24.6   24.6   24.8   568.7  0.00   0.0    41     0.88     47     0.0  0.00   0.0   0.000   0.054   29.3    58   20.2   31.4    0.00   351    1    100.0   15 
 9/08/22   8.00   25.0   25.0   23.6    73   19.8   0.0   ---   0.00   0.0   ---   25.0   26.3   26.3   26.7   568.7  0.00   0.0    53     1.14     63     0.0  0.00   0.0   0.000   0.069   29.3    58   20.2   31.4    0.03   350    1    100.0   15 
 9/08/22   8.15   25.8   25.8   25.0    70   19.9   0.0    NE   0.00   8.0    NE   25.8   26.9   26.9   27.9   568.7  0.00   0.0    80     1.72    156     0.0  0.00   0.0   0.000   0.078   29.3    59   20.5   31.6    0.00   351    1    100.0   15 
 9/08/22   8.30   26.3   26.3   25.8    68   20.0   3.2    NE   0.80   9.7    NE   26.3   27.6   27.6   29.2   568.7  0.00   0.0   117     2.52    297     0.0  0.00   0.0   0.000   0.083   29.4    59   20.6   31.7    0.00   349    1    100.0   15 
 9/08/22   8.45   26.8   26.9   26.3    70   20.9   4.8   NNE   1.21  17.7   NNE   26.8   28.4   28.4   30.3   568.7  0.00   0.0   136     2.92    288     0.0  0.00   0.0   0.000   0.089   29.6    61   21.2   32.3    0.00   350    1    100.0   15 
 9/08/22   9.00   27.3   27.3   26.8    65   20.1   3.2   NNE   0.80  14.5   NNE   27.3   28.7   28.7   31.3   568.7  0.00   0.0   190     4.09    302     0.0  0.00   0.0   0.000   0.093   29.7    60   21.1   32.3    0.10   349    1    100.0   15 
 9/08/22   9.15   28.4   28.4   27.3    58   19.3   4.8     N   1.21  19.3     N   28.4   29.8   29.8   35.2   568.7  0.00   0.0   416     8.95    476     0.0  0.00   0.0   0.000   0.105   29.9    58   20.7   32.4    0.00   351    1    100.0   15 
 9/08/22   9.30   28.6   28.7   28.4    55   18.7  11.3   NNE   2.82  22.5   NNE   28.6   29.9   29.9   35.4   568.7  0.00   0.0   458     9.85    513     0.0  0.00   0.0   0.000   0.107   30.0    56   20.3   32.3    0.00   350    1    100.0   15 
 9/08/22   9.45   29.3   29.3   28.7    49   17.5  14.5   NNE   3.62  27.4   NNE   28.9   30.2   29.8   35.1   568.7  0.00   0.0   511    10.99    534     0.1  0.01   0.5   0.000   0.114   30.2    52   19.3   32.0    0.00   350    1    100.0   15 
 9/08/22  10.00   29.3   29.3   29.2    48   17.2  11.3   NNE   2.82  27.4   NNE   29.3   30.2   30.2   36.0   568.7  0.00   0.0   548    11.78    564     0.6  0.06   0.8   0.000   0.115   30.3    50   18.7   31.8    0.41   350    1    100.0   15 
 9/08/22  10.15   29.1   29.4   29.1    50   17.6  16.1     N   4.02  32.2    NE   28.5   30.1   29.5   34.7   568.7  0.00   0.0   570    12.26    603     0.9  0.10   1.0   0.000   0.112   30.4    50   18.8   32.1    0.00   348    1    100.0   15 
 9/08/22  10.30   28.7   29.1   28.7    55   18.8  17.7   NNE   4.43  29.0   NNE   27.9   30.1   29.3   34.5   568.7  0.00   0.0   617    13.27    647     1.1  0.12   1.3   0.000   0.108   30.6    51   19.3   32.4    0.00   349    1    100.0   15 
 9/08/22  10.45   28.9   29.0   28.8    53   18.3  14.5   NNE   3.62  25.7    NE   28.5   30.2   29.8   35.4   568.7  0.00   0.0   645    13.87    673     1.0  0.11   1.5   0.000   0.110   30.7    50   19.1   32.4    0.00   351    1    100.0   15 
 9/08/22  11.00   28.9   29.1   28.8    53   18.3  14.5   NNE   3.62  25.7   NNE   28.5   30.2   29.8   35.6   568.7  0.00   0.0   687    14.77    715     1.8  0.19   2.0   0.000   0.110   30.8    50   19.2   32.6    0.53   349    1    100.0   15 
 9/08/22  11.15   28.8   29.2   28.8    53   18.2  14.5     N   3.62  25.7     N   28.4   29.9   29.6   34.1   568.7  0.00   0.0   487    10.47    721     1.3  0.14   2.0   0.000   0.109   30.9    50   19.3   32.7    0.00   347    1    100.0   15 
 9/08/22  11.30   29.2   29.2   28.8    52   18.3  12.9     N   3.22  22.5   NNE   29.1   30.4   30.3   36.3   568.7  0.00   0.0   697    14.99    756     2.2  0.24   2.6   0.000   0.113   30.9    49   18.9   32.6    0.00   348    1    100.0   15 
 9/08/22  11.45   29.6   29.6   29.2    52   18.7  12.9   NNE   3.22  24.1   NNW   29.5   30.9   30.8   37.0   568.7  0.00   0.0   769    16.54    784     2.5  0.27   2.8   0.000   0.117   31.0    49   19.0   32.7    0.00   349    1    100.0   15 
 9/08/22  12.00   30.1   30.2   29.6    50   18.5  12.9     N   3.22  25.7   NNE   29.9   31.3   31.2   37.4   568.7  0.00   0.0   785    16.88    793     2.8  0.30   3.1   0.000   0.122   31.2    49   19.2   32.9    0.56   349    1    100.0   15 
 9/08/22  12.15   30.2   30.5   30.0    51   18.9  11.3     N   2.82  24.1     N   30.2   31.7   31.7   38.2   568.7  0.00   0.0   802    17.25    816     3.2  0.34   3.4   0.000   0.123   31.4    49   19.4   33.4    0.00   351    1    100.0   15 
 9/08/22  12.30   30.8   30.8   30.0    49   18.8  11.3   NNE   2.82  27.4   NNE   30.8   32.4   32.4   38.8   568.7  0.00   0.0   824    17.72    835     3.6  0.39   3.7   0.000   0.130   31.5    50   19.8   33.9    0.00   347    1    100.0   15 
 9/08/22  12.45   30.6   30.8   30.3    46   17.6  12.9     N   3.22  27.4   NNE   30.5   31.6   31.6   37.8   568.7  0.00   0.0   815    17.52    860     3.7  0.40   3.9   0.000   0.127   31.6    49   19.6   33.9    0.00   351    1    100.0   15 
 9/08/22  13.00   30.8   30.9   30.6    45   17.5  11.3   NNW   2.82  22.5   NNW   30.8   31.7   31.7   38.1   568.7  0.00   0.0   842    18.11    863     3.8  0.41   3.9   0.000   0.130   31.7    47   19.0   33.8    0.66   351    1    100.0   15 
 9/08/22  13.15   31.1   31.1   30.7    44   17.4  11.3    NW   2.82  27.4    NW   31.1   31.8   31.8   38.3   568.7  0.00   0.0   844    18.15    868     3.8  0.41   3.9   0.000   0.133   31.8    46   18.8   33.7    0.00   349    1    100.0   15 
 9/08/22  13.30   31.0   31.4   30.9    44   17.3  12.9     N   3.22  25.7     N   30.9   31.8   31.7   37.9   568.7  0.00   0.0   794    17.07    879     3.7  0.40   4.0   0.000   0.132   31.9    46   18.9   33.9    0.00   350    1    100.0   15 
 9/08/22  13.45   31.1   31.3   30.9    44   17.4  12.9   NNE   3.22  25.7    NW   31.0   31.8   31.8   37.9   568.7  0.00   0.0   855    18.38    881     4.0  0.43   4.1   0.000   0.133   31.9    46   18.9   33.9    0.00   351    1    100.0   15 
 9/08/22  14.00   31.2   31.2   30.8    44   17.5  11.3   NNW   2.82  25.7   NNW   31.2   32.0   32.0   38.4   568.7  0.00   0.0   819    17.61    853     3.7  0.40   3.9   0.000   0.134   32.1    45   18.6   33.8    0.69   348    1    100.0   15 
 9/08/22  14.15   31.3   31.4   31.1    44   17.6  11.3   NNE   2.82  24.1     N   31.3   32.3   32.3   38.7   568.7  0.00   0.0   827    17.78    838     3.2  0.34   3.7   0.000   0.135   32.2    45   18.7   34.0    0.00   351    1    100.0   15 
 9/08/22  14.30   31.6   31.8   31.1    44   17.8  12.9     N   3.22  27.4   NNW   31.6   32.8   32.8   39.0   568.7  0.00   0.0   815    17.52    830     3.4  0.36   3.6   0.000   0.138   32.2    46   19.1   34.2    0.00   350    1    100.0   15 
 9/08/22  14.45   31.2   31.6   31.0    44   17.5  12.9   NNW   3.22  27.4   NNW   31.1   32.0   31.9   38.1   568.7  0.00   0.0   793    17.05    800     3.1  0.33   3.2   0.000   0.134   32.3    45   18.9   34.3    0.00   351    1    100.0   15 
 9/08/22  15.00   31.3   31.5   31.0    43   17.3  16.1   NNW   4.02  29.0   NNE   31.2   32.2   32.0   37.6   568.7  0.00   0.0   772    16.60    788     2.9  0.31   3.1   0.000   0.135   32.3    45   18.9   34.3    0.66   350    1    100.0   15 
 9/08/22  15.15   31.8   31.9   31.3    43   17.7  12.9     N   3.22  24.1   NNW   31.8   33.0   33.0   39.1   568.7  0.00   0.0   752    16.17    763     2.7  0.29   2.8   0.000   0.140   32.4    45   19.0   34.4    0.00   351    1    100.0   15 
 9/08/22  15.30   31.8   32.1   31.7    43   17.7  14.5   NNW   3.62  32.2     N   31.8   33.1   33.0   38.8   568.7  0.00   0.0   727    15.63    742     2.4  0.26   2.5   0.000   0.141   32.4    44   18.6   34.2    0.00   351    1    100.0   15 
 9/08/22  15.45   32.3   32.3   31.6    42   17.7  14.5   NNW   3.62  30.6   NNW   32.3   33.4   33.4   39.2   568.7  0.00   0.0   701    15.07    714     2.1  0.22   2.2   0.000   0.145   32.7    44   18.8   34.6    0.00   350    1    100.0   15 
 9/08/22  16.00   32.3   32.7   32.3    41   17.4   9.7   NNW   2.41  25.7   ENE   32.3   33.3   33.3   39.7   568.7  0.00   0.0   673    14.47    686     1.8  0.19   2.0   0.000   0.146   32.7    44   18.8   34.6    0.61   350    1    100.0   15 
 9/08/22  16.15   32.3   32.6   32.3    42   17.7  11.3    NW   2.82  22.5    NW   32.3   33.4   33.4   39.6   568.7  0.00   0.0   641    13.78    659     1.6  0.17   1.7   0.000   0.145   32.8    44   18.9   34.8    0.00   351    1    100.0   15 
 9/08/22  16.30   32.4   32.5   32.2    41   17.5  11.3    NW   2.82  25.7    NW   32.4   33.5   33.5   39.6   568.7  0.00   0.0   607    13.05    626     1.3  0.14   1.4   0.000   0.147   33.1    43   18.8   35.1    0.00   351    1    100.0   15 
 9/08/22  16.45   32.6   32.7   32.5    41   17.6  12.9    NW   3.22  27.4    NW   32.6   33.8   33.8   39.6   568.7  0.00   0.0   568    12.21    585     1.1  0.12   1.1   0.000   0.149   33.2    43   18.9   35.2    0.00   350    1    100.0   15 
 9/08/22  17.00   32.3   32.6   32.3    42   17.7  16.1    NW   4.02  29.0    NW   32.3   33.4   33.4   38.7   568.7  0.00   0.0   531    11.42    548     0.9  0.10   1.0   0.000   0.145   33.2    43   18.9   35.2    0.53   351    1    100.0   15 
 9/08/22  17.15   32.8   32.8   32.2    42   18.2  11.3   NNW   2.82  22.5    NW   32.8   34.3   34.3   40.2   568.7  0.00   0.0   491    10.56    506     0.8  0.09   0.8   0.000   0.150   33.3    44   19.4   35.7    0.00   349    1    100.0   15 
 9/08/22  17.30   32.6   32.9   32.6    43   18.4   9.7     N   2.41  24.1    NE   32.6   34.3   34.3   40.1   568.7  0.00   0.0   453     9.74    469     0.8  0.09   0.9   0.000   0.149   33.3    44   19.4   35.7    0.00   349    1    100.0   15 
 9/08/22  17.45   31.8   32.6   31.8    46   18.8  12.9   NNE   3.22  24.1    NE   31.8   33.7   33.7   39.1   568.7  0.00   0.0   414     8.90    434     0.1  0.01   0.6   0.000   0.141   33.4    44   19.5   35.9    0.00   351    1    100.0   15 
 9/08/22  18.00   31.4   31.9   31.4    48   19.1  14.5   NNE   3.62  24.1   ENE   31.3   33.2   33.1   37.8   568.7  0.00   0.0   347     7.46    390     0.0  0.00   0.7   0.000   0.136   33.3    45   19.7   35.9    0.41   348    1    100.0   15 
 9/08/22  18.15   31.6   31.6   31.4    47   18.9  12.9     N   3.22  22.5   NNE   31.6   33.4   33.4   38.0   568.7  0.00   0.0   308     6.62    348     0.0  0.00   0.5   0.000   0.138   33.2    45   19.6   35.8    0.00   349    1    100.0   15 
 9/08/22  18.30   31.6   31.6   31.3    48   19.2   8.0   NNE   2.01  20.9   NNE   31.6   33.6   33.6   38.1   568.7  0.00   0.0   261     5.61    302     0.0  0.00   0.0   0.000   0.138   33.1    46   19.9   35.8    0.00   351    1    100.0   15 
 9/08/22  18.45   30.9   31.6   30.9    52   19.9  11.3     N   2.82  22.5   NNE   30.9   33.1   33.1   37.3   568.7  0.00   0.0   245     5.27    262     0.0  0.00   0.0   0.000   0.131   33.1    47   20.2   36.0    0.00   350    1    100.0   15 
 9/08/22  19.00   30.9   31.1   30.8    52   19.9   8.0   NNE   2.01  20.9     N   30.9   33.2   33.2   36.3   568.7  0.00   0.0   169     3.63    211     0.0  0.00   0.0   0.000   0.131   32.9    47   20.1   35.7    0.25   351    1    100.0   15 
 9/08/22  19.15   30.3   30.9   30.3    55   20.2  14.5   NNE   3.62  27.4   NNE   30.1   32.7   32.4   34.9   568.7  0.00   0.0   149     3.20    172     0.0  0.00   0.0   0.000   0.124   32.8    48   20.3   35.7    0.00   351    1    100.0   15 
 9/08/22  19.30   30.1   30.3   30.0    58   20.9  12.9   NNE   3.22  24.1   NNE   29.9   32.8   32.7   34.4   568.7  0.00   0.0   104     2.24    125     0.0  0.00   0.0   0.000   0.122   32.7    49   20.6   35.7    0.00   350    1    100.0   15 
 9/08/22  19.45   29.6   30.0   29.6    61   21.2  14.5   NNE   3.62  25.7   NNE   29.2   32.3   32.0   31.4   568.7  0.00   0.0    35     0.75     46     0.0  0.00   0.0   0.000   0.117   32.6    50   20.8   35.7    0.00   350    1    100.0   15 
 9/08/22  20.00   29.3   29.6   29.3    63   21.6  12.9   NNE   3.22  24.1   NNE   29.2   32.3   32.2   31.6   568.7  0.00   0.0    27     0.58     32     0.0  0.00   0.0   0.000   0.115   32.6    52   21.4   36.3    0.15   350    1    100.0   15 
 9/08/22  20.15   29.1   29.3   29.1    65   21.9   9.7     N   2.41  20.9   NNE   29.1   32.2   32.2   31.4   568.7  0.00   0.0    15     0.32     21     0.0  0.00   0.0   0.000   0.112   32.4    54   21.9   36.6    0.00   350    1    100.0   15 
 9/08/22  20.30   28.9   29.1   28.8    68   22.4  11.3     N   2.82  22.5     N   28.9   32.3   32.3   31.4   568.7  0.00   0.0     5     0.11      9     0.0  0.00   0.0   0.000   0.110   32.3    55   22.1   36.6    0.00   352    1    100.0   15 
 9/08/22  20.45   28.7   28.9   28.6    69   22.4  11.3     N   2.82  22.5     N   28.7   32.0   32.0   31.1   568.7  0.00   0.0     0     0.00      0     0.0  0.00   0.0   0.000   0.108   32.3    57   22.7   37.1    0.00   351    1    100.0   15 
 9/08/22  21.00   28.5   28.7   28.5    70   22.5  11.3     N   2.82  22.5     N   28.5   31.8   31.8   30.8   568.7  0.00   0.0     0     0.00      0     0.0  0.00   0.0   0.000   0.106   32.2    57   22.6   36.7    0.08   351    1    100.0   15 
 9/08/22  21.15   28.3   28.5   28.3    70   22.3   9.7     N   2.41  20.9   NNW   28.3   31.3   31.3   30.4   568.7  0.00   0.0     0     0.00      0     0.0  0.00   0.0   0.000   0.104   32.2    58   22.9   37.0    0.00   350    1    100.0   15 
 9/08/22  21.30   28.3   28.3   28.2    71   22.5   9.7     N   2.41  22.5     N   28.3   31.4   31.4   30.4   568.7  0.00   0.0     0     0.00      0     0.0  0.00   0.0   0.000   0.104   32.2    58   22.9   37.0    0.00   350    1    100.0   15 
 9/08/22  21.45   28.2   28.2   28.2    71   22.4   8.0     N   2.01  19.3   NNW   28.2   31.2   31.2   30.2   568.7  0.00   0.0     0     0.00      0     0.0  0.00   0.0   0.000   0.102   32.2    58   22.9   37.0    0.00   352    1    100.0   15 
 9/08/22  22.00   28.1   28.2   28.1    72   22.6   8.0     N   2.01  16.1   NNW   28.1   31.2   31.2   30.3   568.7  0.00   0.0     0     0.00      0     0.0  0.00   0.0   0.000   0.102   32.1    59   23.0   37.0    0.08   351    1    100.0   15 
 9/08/22  22.15   27.9   28.1   27.9    72   22.4   6.4     N   1.61  17.7     N   27.9   30.8   30.8   29.9   568.7  0.00   0.0     0     0.00      0     0.0  0.00   0.0   0.000   0.100   32.1    60   23.3   37.2    0.00   348    1    100.0   15 
 9/08/22  22.30   27.8   27.9   27.8    73   22.5   4.8   NNE   1.21  11.3     N   27.8   30.7   30.7   29.8   568.7  0.00   0.0     0     0.00      0     0.0  0.00   0.0   0.000   0.099   32.1    60   23.3   37.2    0.00   348    1    100.0   15 
 9/08/22  22.45   27.8   27.9   27.8    73   22.5   6.4    NE   1.61  11.3    NE   27.8   30.7   30.7   29.8   568.7  0.00   0.0     0     0.00      0     0.0  0.00   0.0   0.000   0.099   32.1    60   23.3   37.2    0.00   350    1    100.0   15 
 9/08/22  23.00   27.5   27.8   27.5    74   22.4   3.2   NNE   0.80   8.0   NNE   27.5   30.1   30.1   29.2   568.7  0.00   0.0     0     0.00      0     0.0  0.00   0.0   0.000   0.095   31.9    60   23.2   37.0    0.05   350    1    100.0   15 
 9/08/22  23.15   27.4   27.6   27.4    75   22.6   3.2    NE   0.80   8.0    NE   27.4   30.0   30.0   29.1   568.7  0.00   0.0     0     0.00      0     0.0  0.00   0.0   0.000   0.094   31.9    61   23.5   37.3    0.00   349    1    100.0   15 
 9/08/22  23.30   27.1   27.4   27.1    75   22.2   0.0    NE   0.00   4.8    NE   27.1   29.4   29.4   28.4   568.7  0.00   0.0     0     0.00      0     0.0  0.00   0.0   0.000   0.091   31.8    61   23.4   37.0    0.00   351    1    100.0   15 
 9/08/22  23.45   26.8   27.1   26.8    76   22.2   0.0    NE   0.00   6.4    NE   26.8   29.1   29.1   28.1   568.7  0.00   0.0     0     0.00      0     0.0  0.00   0.0   0.000   0.089   31.8    61   23.4   37.0    0.00   351    1    100.0   15 
10/08/22  00.00   26.7   26.8   26.7    76   22.1   1.6    NE   0.40   4.8    NE   26.7   28.9   28.9   27.9   568.7  0.00   0.0     0     0.00      0     0.0  0.00   0.0   0.000   0.087   31.7    61   23.3   36.7    0.03   350    1    100.0   15 
10/08/22   0.15   26.7   26.7   26.6    76   22.1   1.6   NNE   0.40   6.4    NE   26.7   28.8   28.8   27.8   568.7  0.00   0.0     0     0.00      0     0.0  0.00   0.0   0.000   0.087   31.6    61   23.2   36.4    0.00   347    1    100.0   15 
10/08/22   0.30   26.4   26.7   26.4    75   21.7   0.0   NNE   0.00   4.8   NNE   26.4   28.3   28.3   27.3   568.7  0.00   0.0     0     0.00      0     0.0  0.00   0.0   0.000   0.084   31.5    61   23.1   36.1    0.00   350    1    100.0   15 
10/08/22   0.45   26.3   26.4   26.3    75   21.5   0.0   NNE   0.00   3.2   NNE   26.3   28.1   28.1   27.1   568.7  0.00   0.0     0     0.00      0     0.0  0.00   0.0   0.000   0.083   31.4    60   22.7   35.6    0.00   351    1    100.0   15 
10/08/22   1.00   26.5   26.5   26.3    75   21.7   0.0   NNE   0.00   1.6   NNE   26.5   28.4   28.4   27.4   568.7  0.00   0.0     0     0.00      0     0.0  0.00   0.0   0.000   0.085   31.4    60   22.7   35.6    0.03   349    1    100.0   15 
10/08/22   1.15   26.4   26.5   26.3    75   21.6   0.0   NNE   0.00   3.2   NNE   26.4   28.2   28.2   27.2   568.7  0.00   0.0     0     0.00      0     0.0  0.00   0.0   0.000   0.084   31.3    60   22.6   35.3    0.00   350    1    100.0   15 
10/08/22   1.30   26.2   26.4   26.2    76   21.6   3.2   NNE   0.80   4.8   NNE   26.2   27.9   27.9   26.9   568.7  0.00   0.0     0     0.00      0     0.0  0.00   0.0   0.000   0.082   31.2    60   22.5   35.1    0.00   350    1    100.0   15 
10/08/22   1.45   25.9   26.2   25.9    76   21.4   1.6   NNE   0.40   4.8   NNE   25.9   27.6   27.6   26.6   568.7  0.00   0.0     0     0.00      0     0.0  0.00   0.0   0.000   0.079   31.2    61   22.8   35.3    0.00   350    1    100.0   15 
10/08/22   2.00   25.4   25.9   25.4    77   21.1   0.0   ---   0.00   0.0   ---   25.4   27.1   27.1   26.1   568.7  0.00   0.0     0     0.00      0     0.0  0.00   0.0   0.000   0.074   31.0    60   22.3   34.8    0.03   349    1    100.0   15 
10/08/22   2.15   25.4   25.5   25.4    77   21.1   0.0   ---   0.00   0.0   ---   25.4   27.1   27.1   26.1   568.7  0.00   0.0     0     0.00      0     0.0  0.00   0.0   0.000   0.074   30.9    60   22.2   34.7    0.00   350    1    100.0   15 
10/08/22   2.30   25.1   25.4   25.1    75   20.4   1.6   NNE   0.40   6.4   NNE   25.1   26.5   26.5   25.4   568.7  0.00   0.0     0     0.00      0     0.0  0.00   0.0   0.000   0.071   30.8    60   22.1   34.5    0.00   351    1    100.0   15 
10/08/22   2.45   24.8   25.1   24.8    75   20.1   0.0   ---   0.00   0.0   ---   24.8   26.2   26.2   25.2   568.7  0.00   0.0     0     0.00      0     0.0  0.00   0.0   0.000   0.068   30.7    59   21.7   34.2    0.00   351    1    100.0   15 
10/08/22   3.00   24.7   24.8   24.7    74   19.8   0.0   ---   0.00   0.0   ---   24.7   26.0   26.0   24.9   568.7  0.00   0.0     0     0.00      0     0.0  0.00   0.0   0.000   0.067   30.6    59   21.6   34.0    0.03   346    1    100.0   15 
10/08/22   3.15   24.6   24.7   24.5    74   19.6   0.0   ---   0.00   0.0   ---   24.6   25.8   25.8   24.7   568.7  0.00   0.0     0     0.00      0     0.0  0.00   0.0   0.000   0.065   30.4    58   21.2   33.6    0.00   348    1    100.0   15 
10/08/22   3.30   24.2   24.6   24.2    74   19.2   0.0   ---   0.00   0.0   ---   24.2   25.4   25.4   24.2   568.7  0.00   0.0     0     0.00      0     0.0  0.00   0.0   0.000   0.061   30.2    58   21.0   33.1    0.00   352    1    100.0   15 
10/08/22   3.45   24.1   24.3   24.1    73   18.9   0.0   ---   0.00   0.0   ---   24.1   25.2   25.2   24.0   568.7  0.00   0.0     0     0.00      0     0.0  0.00   0.0   0.000   0.060   30.0    58   20.8   32.7    0.00   351    1    100.0   15 
10/08/22   4.00   23.7   24.1   23.7    73   18.5   0.0   ---   0.00   0.0   ---   23.7   24.7   24.7   23.6   568.7  0.00   0.0     0     0.00      0     0.0  0.00   0.0   0.000   0.056   30.0    57   20.6   32.4    0.03   350    1    100.0   15 
10/08/22   4.15   23.7   23.7   23.6    71   18.1   0.0   ---   0.00   0.0   ---   23.7   24.6   24.6   23.4   568.7  0.00   0.0     0     0.00      0     0.0  0.00   0.0   0.000   0.056   29.8    57   20.3   32.1    0.00   347    1    100.0   15 
10/08/22   4.30   23.4   23.7   23.4    72   18.1   0.0   ---   0.00   0.0   ---   23.4   24.4   24.4   23.2   568.7  0.00   0.0     0     0.00      0     0.0  0.00   0.0   0.000   0.053   29.8    56   20.1   31.8    0.00   349    1    100.0   15 
10/08/22   4.45   23.1   23.4   23.1    72   17.7   0.0   ---   0.00   0.0   ---   23.1   23.9   23.9   22.7   568.7  0.00   0.0     0     0.00      0     0.0  0.00   0.0   0.000   0.049   29.7    56   20.0   31.6    0.00   350    1    100.0   15 
10/08/22   5.00   22.4   23.1   22.4    74   17.5   0.0   ---   0.00   0.0   ---   22.4   23.0   23.0   21.8   568.7  0.00   0.0     0     0.00      0     0.0  0.00   0.0   0.000   0.042   29.6    55   19.6   31.3    0.03   348    1    100.0   15 
10/08/22   5.15   22.0   22.4   22.0    74   17.2   0.0   ---   0.00   0.0   ---   22.0   22.5   22.5   21.2   568.7  0.00   0.0     0     0.00      0     0.0  0.00   0.0   0.000   0.038   29.4    55   19.5   31.1    0.00   350    1    100.0   15 
10/08/22   5.30   21.9   22.1   21.9    73   16.8   0.0   ---   0.00   0.0   ---   21.9   22.3   22.3   21.0   568.7  0.00   0.0     0     0.00      0     0.0  0.00   0.0   0.000   0.037   29.3    54   19.1   30.8    0.00   350    1    100.0   15 
10/08/22   5.45   22.3   22.3   21.9    70   16.5   0.0   ---   0.00   0.0   ---   22.3   22.7   22.7   21.4   568.7  0.00   0.0     0     0.00      0     0.0  0.00   0.0   0.000   0.041   29.2    54   19.0   30.7    0.00   348    1    100.0   15 
10/08/22   6.00   23.7   23.7   22.3    64   16.5   1.6   NNE   0.40   8.0   NNE   23.7   24.3   24.3   23.1   568.7  0.00   0.0     0     0.00      0     0.0  0.00   0.0   0.000   0.056   29.2    53   18.7   30.6    0.03   350    1    100.0   15 
10/08/22   6.15   23.7   23.9   23.7    63   16.3   3.2   NNE   0.80   8.0   NNE   23.7   24.3   24.3   23.1   568.7  0.00   0.0     0     0.00      0     0.0  0.00   0.0   0.000   0.056   29.1    52   18.3   30.3    0.00   350    1    100.0   15 
10/08/22   6.30   23.7   23.8   23.7    63   16.2   0.0     N   0.00   8.0     N   23.7   24.3   24.3   23.1   568.7  0.00   0.0     7     0.15     11     0.0  0.00   0.0   0.000   0.056   29.0    52   18.1   30.2    0.00   351    1    100.0   15 
10/08/22   6.45   24.3   24.3   23.7    61   16.3   0.0   ---   0.00   0.0   ---   24.3   24.8   24.8   23.7   568.7  0.00   0.0    15     0.32     18     0.0  0.00   0.0   0.000   0.062   29.0    52   18.1   30.2    0.00   350    1    100.0   15 
10/08/22   7.00   23.8   24.3   23.8    63   16.4   0.0   ---   0.00   0.0   ---   23.8   24.4   24.4   24.2   568.7  0.00   0.0    22     0.47     25     0.0  0.00   0.0   0.000   0.057   29.0    52   18.1   30.2    0.03   351    1    100.0   15 
10/08/22   7.15   24.7   24.7   23.7    62   16.9   0.0    NW   0.00   8.0    NW   24.7   25.3   25.3   26.0   568.7  0.00   0.0    60     1.29     83     0.0  0.00   0.0   0.000   0.067   29.0    52   18.1   30.2    0.00   350    1    100.0   15 
10/08/22   7.30   25.2   25.2   24.7    61   17.1   0.0   ---   0.00   0.0   ---   25.2   25.7   25.7   27.4   568.7  0.00   0.0   107     2.30    128     0.0  0.00   0.0   0.000   0.071   29.0    53   18.5   30.3    0.00   348    1    100.0   15 
10/08/22   7.45   25.9   25.9   25.2    61   17.8   0.0   ---   0.00   0.0   ---   25.9   26.6   26.6   29.3   568.7  0.00   0.0   155     3.33    179     0.0  0.00   0.0   0.000   0.079   29.1    53   18.6   30.4    0.00   352    1    100.0   15 
10/08/22   8.00   26.9   26.9   25.9    59   18.2   0.0   NNE   0.00   8.0   NNE   26.9   27.6   27.6   31.2   568.7  0.00   0.0   209     4.49    237     0.0  0.00   0.0   0.000   0.089   29.2    53   18.7   30.6    0.10   349    1    100.0   15 
10/08/22   8.15   27.4   27.4   26.9    58   18.4   1.6   NNW   0.40   9.7    NE   27.4   28.3   28.3   32.6   568.7  0.00   0.0   262     5.63    279     0.0  0.00   0.0   0.000   0.095   29.3    53   18.8   30.7    0.00   349    1    100.0   15 
10/08/22   8.30   27.8   27.8   27.4    58   18.8   1.6     N   0.40  14.5     N   27.8   28.8   28.8   33.4   568.7  0.00   0.0   299     6.43    318     0.0  0.00   0.0   0.000   0.098   29.4    53   18.9   30.8    0.00   350    1    100.0   15 
10/08/22   8.45   28.2   28.2   27.8    54   18.0   1.6    NE   0.40  12.9   ENE   28.2   29.1   29.1   34.0   568.7  0.00   0.0   341     7.33    360     0.0  0.00   0.0   0.000   0.102   29.7    52   18.8   31.1    0.00   352    1    100.0   15 
10/08/22   9.00   28.6   28.6   28.2    52   17.7   3.2   NNE   0.80  17.7     N   28.6   29.5   29.5   34.7   568.7  0.00   0.0   380     8.17    397     0.0  0.00   0.0   0.000   0.106   29.8    51   18.6   31.1    0.23   349    1    100.0   15 
10/08/22   9.15   28.7   28.8   28.5    50   17.3   1.6     N   0.40  11.3   ENE   28.7   29.6   29.6   35.0   568.7  0.00   0.0   421     9.05    439     0.0  0.00   0.0   0.000   0.108   30.0    50   18.4   31.2    0.00   349    1    100.0   15 
10/08/22   9.30   28.9   28.9   28.7    50   17.4   4.8   NNE   1.21  19.3     N   28.9   29.9   29.9   35.6   568.7  0.00   0.0   466    10.02    513     0.0  0.00   0.0   0.000   0.110   30.1    49   18.2   31.3    0.00   351    1    100.0   15 
10/08/22   9.45   28.9   29.2   28.8    50   17.5   3.2   NNE   0.80  16.1   NNE   28.9   29.9   29.9   35.7   568.7  0.00   0.0   498    10.71    515     0.4  0.04   0.6   0.000   0.111   30.2    49   18.3   31.5    0.00   351    1    100.0   15 
10/08/22  10.00   29.2   29.2   28.9    51   18.0   8.0   NNW   2.01  19.3     N   29.2   30.3   30.3   36.2   568.7  0.00   0.0   536    11.53    552     0.7  0.07   0.7   0.000   0.113   30.4    48   18.2   31.8    0.00   349    1    100.0   15 
10/08/22  10.15   29.1   29.3   29.1    50   17.6   8.0   NNW   2.01  19.3    NE   29.1   30.1   30.1   36.1   568.7  0.00   0.0   575    12.36    592     0.8  0.09   0.9   0.000   0.112   30.6    49   18.6   32.1    0.36   350    1    100.0   15 
10/08/22  10.30   29.1   29.2   28.9    50   17.6  11.3     N   2.82  20.9     N   29.1   30.1   30.1   36.1   568.7  0.00   0.0   617    13.27    645     1.0  0.11   1.2   0.000   0.112   30.6    48   18.3   31.9    0.00   350    1    100.0   15 
10/08/22  10.45   29.1   29.2   28.9    53   18.5  11.3     N   2.82  22.5    NE   29.1   30.3   30.3   36.4   568.7  0.00   0.0   647    13.91    686     1.4  0.15   1.5   0.000   0.112   30.7    49   18.7   32.3    0.00   347    1    100.0   15 
10/08/22  11.00   28.7   29.2   28.7    55   18.7  11.3   NNE   2.82  22.5   NNE   28.7   29.9   29.9   36.2   568.7  0.00   0.0   685    14.73    696     1.4  0.15   1.8   0.000   0.108   30.8    49   18.8   32.4    0.48   352    1    100.0   15 
10/08/22  11.15   29.1   29.1   28.7    53   18.5  11.3   NNE   2.82  24.1    NE   29.1   30.3   30.3   36.6   568.7  0.00   0.0   709    15.25    722     1.5  0.16   2.1   0.000   0.112   30.8    49   18.8   32.4    0.00   351    1    100.0   15 
10/08/22  11.30   29.6   29.7   29.1    51   18.3  11.3     N   2.82  22.5   NNE   29.6   30.7   30.7   37.1   568.7  0.00   0.0   729    15.68    738     2.3  0.25   2.5   0.000   0.117   30.9    49   18.9   32.6    0.00   350    1    100.0   15 
10/08/22  11.45   29.9   29.9   29.4    50   18.3  11.3     N   2.82  24.1     N   29.9   31.1   31.1   37.4   568.7  0.00   0.0   750    16.13    759     2.6  0.28   2.7   0.000   0.120   31.0    48   18.7   32.5    0.00   350    1    100.0   15 
10/08/22  12.00   29.9   30.1   29.8    48   17.7  11.3   NNW   2.82  22.5     N   29.9   30.9   30.9   37.2   568.7  0.00   0.0   773    16.62    780     2.7  0.29   3.0   0.000   0.121   31.0    47   18.4   32.3    0.58   351    1    100.0   15 
10/08/22  12.15   30.4   30.4   29.9    48   18.1   8.0     N   2.01  19.3     N   30.4   31.7   31.7   38.3   568.7  0.00   0.0   789    16.97    800     2.9  0.31   3.2   0.000   0.126   31.2    47   18.5   32.6    0.00   350    1    100.0   15 
10/08/22  12.30   30.5   30.5   30.2    48   18.2   9.7   NNE   2.41  19.3   NNE   30.5   31.8   31.8   38.4   568.7  0.00   0.0   804    17.29    809     3.4  0.36   3.4   0.000   0.127   31.3    48   19.0   33.0    0.00   350    1    100.0   15 
10/08/22  12.45   30.6   30.7   30.4    46   17.7   8.0     N   2.01  19.3   NNE   30.6   31.7   31.7   38.3   568.7  0.00   0.0   814    17.50    819     3.5  0.38   3.6   0.000   0.128   31.4    47   18.7   33.1    0.00   350    1    100.0   15 
10/08/22  13.00   30.8   31.1   30.6    45   17.5   8.0     N   2.01  17.7   NNE   30.8   31.7   31.7   38.3   568.7  0.00   0.0   824    17.72    826     3.7  0.40   3.7   0.000   0.130   31.5    46   18.5   33.1    0.61   352    1    100.0   15 
10/08/22  13.15   31.1   31.1   30.8    45   17.7  11.3   NNE   2.82  20.9    NE   31.1   32.0   32.0   38.4   568.7  0.00   0.0   829    17.83    831     3.7  0.40   3.8   0.000   0.133   31.5    46   18.5   33.1    0.00   351    1    100.0   15 
10/08/22  13.30   31.2   31.2   30.7    44   17.5  12.9   NNE   3.22  22.5   NNE   31.1   32.0   31.9   38.2   568.7  0.00   0.0   829    17.83    830     3.7  0.40   3.7   0.000   0.134   31.6    45   18.2   33.2    0.00   350    1    100.0   15 
10/08/22  13.45   31.0   31.3   30.9    42   16.6  11.3   NNE   2.82  20.9   NNE   31.0   31.4   31.4   37.8   568.7  0.00   0.0   829    17.83    831     3.7  0.40   3.7   0.000   0.132   31.6    44   17.9   32.9    0.00   350    1    100.0   15 
10/08/22  14.00   31.9   31.9   31.0    40   16.7  11.3     N   2.82  22.5   NNE   31.9   32.6   32.6   38.9   568.7  0.00   0.0   826    17.76    828     3.7  0.40   3.7   0.000   0.142   31.7    44   18.0   33.2    0.69   350    1    100.0   15 
10/08/22  14.15   31.6   32.3   31.6    37   15.1  11.3   NNE   2.82  27.4    NE   31.6   31.6   31.6   37.8   568.7  0.00   0.0   818    17.59    823     3.6  0.39   3.6   0.000   0.138   31.8    42   17.3   32.8    0.00   352    1    100.0   15 
10/08/22  14.30   32.2   32.2   31.6    36   15.2   9.7   NNE   2.41  22.5   NNE   32.2   32.2   32.2   38.6   568.7  0.00   0.0   806    17.33    812     3.4  0.36   3.5   0.000   0.144   31.9    42   17.4   33.0    0.00   349    1    100.0   15 
10/08/22  14.45   32.2   32.3   32.1    35   14.8  11.3   NNE   2.82  25.7    NE   32.2   32.1   32.1   38.2   568.7  0.00   0.0   791    17.01    798     3.2  0.34   3.3   0.000   0.144   31.9    41   17.1   32.8    0.00   349    1    100.0   15 
10/08/22  15.00   32.6   32.7   32.3    35   15.2   8.0     N   2.01  20.9    NE   32.6   32.7   32.7   39.0   568.7  0.00   0.0   774    16.64    784     3.0  0.32   3.1   0.000   0.149   32.1    40   16.8   32.7    0.66   350    1    100.0   15 
10/08/22  15.15   32.5   32.8   32.4    34   14.6   9.7   NNE   2.41  22.5   NNE   32.5   32.4   32.4   38.7   568.7  0.00   0.0   753    16.19    763     2.8  0.30   2.9   0.000   0.148   32.2    39   16.5   32.7    0.00   350    1    100.0   15 
10/08/22  15.30   32.5   32.8   32.5    35   15.1  12.9   NNE   3.22  20.9   NNE   32.5   32.5   32.5   38.4   568.7  0.00   0.0   731    15.72    744     2.5  0.27   2.6   0.000   0.148   32.2    38   16.1   32.5    0.00   351    1    100.0   15 
10/08/22  15.45   32.7   32.9   32.3    36   15.7  11.3   NNE   2.82  20.9   NNE   32.7   33.0   33.0   39.1   568.7  0.00   0.0   704    15.14    717     2.2  0.24   2.3   0.000   0.150   32.3    40   17.0   33.1    0.00   349    1    100.0   15 
10/08/22  16.00   32.7   32.7   32.4    36   15.7  11.3   NNE   2.82  22.5   NNE   32.7   33.0   33.0   39.1   568.7  0.00   0.0   674    14.49    686     1.9  0.20   2.0   0.000   0.150   32.4    40   17.1   33.3    0.63   351    1    100.0   15 
10/08/22  16.15   32.7   32.9   32.7    37   16.1   9.7   NNE   2.41  20.9   NNE   32.7   33.1   33.1   39.3   568.7  0.00   0.0   639    13.74    661     1.7  0.18   1.8   0.000   0.149   32.6    40   17.2   33.4    0.00   352    1    100.0   15 
10/08/22  16.30   32.8   32.8   32.7    38   16.6  11.3   NNE   2.82  22.5     N   32.8   33.4   33.4   39.5   568.7  0.00   0.0   616    13.25    631     1.4  0.15   1.5   0.000   0.150   32.6    40   17.2   33.4    0.00   350    1    100.0   15 
10/08/22  16.45   32.0   32.8   32.0    41   17.1  12.9   NNE   3.22  25.7   NNE   32.0   32.8   32.8   38.6   568.7  0.00   0.0   566    12.17    598     1.2  0.13   1.3   0.000   0.142   32.7    42   18.1   34.1    0.00   350    1    100.0   15 
10/08/22  17.00   31.8   32.1   31.4    41   16.9  16.1   NNE   4.02  25.7    NE   31.7   32.6   32.4   37.7   568.7  0.00   0.0   523    11.25    548     1.0  0.11   1.1   0.000   0.140   32.7    42   18.1   34.1    0.53   349    1    100.0   15 
10/08/22  17.15   31.9   32.0   31.8    42   17.4  14.5   NNE   3.62  25.7   NNE   31.9   33.0   33.0   38.4   568.7  0.00   0.0   493    10.60    513     0.9  0.10   0.9   0.000   0.142   32.7    42   18.1   34.1    0.00   349    1    100.0   15 
10/08/22  17.30   31.8   31.9   31.7    43   17.7  16.1   NNE   4.02  29.0   NNE   31.8   33.1   33.0   38.0   568.7  0.00   0.0   442     9.50    462     0.6  0.06   0.8   0.000   0.141   32.7    43   18.5   34.4    0.00   346    1    100.0   15 
10/08/22  17.45   31.2   31.8   31.2    49   19.2  16.1   NNE   4.02  25.7   NNE   30.9   32.9   32.7   37.8   568.7  0.00   0.0   419     9.01    438     0.0  0.00   0.0   0.000   0.134   32.7    44   18.8   34.6    0.00   349    1    100.0   15 
10/08/22  18.00   30.9   31.2   30.9    49   18.9  16.1   NNE   4.02  27.4   NNE   30.6   32.6   32.3   37.0   568.7  0.00   0.0   371     7.98    397     0.0  0.00   0.0   0.000   0.131   32.7    46   19.5   35.1    0.46   350    1    100.0   15 
10/08/22  18.15   30.5   30.9   30.5    53   19.8  17.7   NNE   4.43  29.0   NNE   30.1   32.7   32.3   36.7   568.7  0.00   0.0   335     7.20    359     0.0  0.00   0.0   0.000   0.127   32.6    47   19.8   35.1    0.00   348    1    100.0   15 
10/08/22  18.30   30.4   30.6   30.3    52   19.5  14.5   NNE   3.62  30.6   NNE   30.2   32.4   32.2   36.5   568.7  0.00   0.0   278     5.98    308     0.0  0.00   0.0   0.000   0.126   32.3    47   19.6   34.7    0.00   349    1    100.0   15 
10/08/22  18.45   30.4   30.5   30.3    50   18.8  16.1   NNE   4.02  27.4    NE   30.1   32.1   31.7   35.3   568.7  0.00   0.0   233     5.01    265     0.0  0.00   0.0   0.000   0.126   32.2    47   19.4   34.4    0.00   351    1    100.0   15 
10/08/22  19.00   30.9   30.9   30.4    41   16.1  12.9   NNE   3.22  24.1    NE   30.8   31.2   31.1   33.9   568.7  0.00   0.0   171     3.68    221     0.0  0.00   0.0   0.000   0.131   32.1    44   18.3   33.6    0.30   351    1    100.0   15 
10/08/22  19.15   31.1   31.2   30.9    40   15.9  11.3     N   2.82  22.5    NE   31.1   31.1   31.1   33.2   568.7  0.00   0.0   129     2.77    174     0.0  0.00   0.0   0.000   0.133   32.1    43   17.9   33.4    0.00   351    1    100.0   15 
10/08/22  19.30   30.7   31.1   30.7    44   17.0  11.3   NNE   2.82  22.5    NE   30.7   31.4   31.4   32.7   568.7  0.00   0.0    82     1.76    111     0.0  0.00   0.0   0.000   0.128   32.1    42   17.5   33.2    0.00   351    1    100.0   15 
10/08/22  19.45   30.0   30.7   30.0    48   17.8  14.5   NNE   3.62  24.1    NE   29.7   31.0   30.7   29.9   568.7  0.00   0.0    23     0.49     37     0.0  0.00   0.0   0.000   0.122   32.1    44   18.3   33.6    0.00   348    1    100.0   15 
10/08/22  20.00   29.3   30.0   29.3    58   20.2  14.5   NNE   3.62  25.7     N   29.0   31.4   31.1   30.3   568.7  0.00   0.0    14     0.30     18     0.0  0.00   0.0   0.000   0.115   32.1    47   19.3   34.2    0.18   351    1    100.0   15 
10/08/22  20.15   29.3   29.3   29.3    56   19.6  14.5   NNE   3.62  27.4   NNE   29.0   31.1   30.7   29.8   568.7  0.00   0.0     9     0.19     12     0.0  0.00   0.0   0.000   0.115   32.1    48   19.7   34.4    0.00   350    1    100.0   15 
10/08/22  20.30   29.1   29.3   29.1    61   20.8  14.5     N   3.62  29.0     N   28.7   31.4   31.0   30.1   568.7  0.00   0.0     1     0.02      5     0.0  0.00   0.0   0.000   0.112   31.9    50   20.2   34.7    0.00   352    1    100.0   15 
10/08/22  20.45   28.7   29.1   28.7    66   21.7  12.9     N   3.22  27.4     N   28.5   31.4   31.3   30.4   568.7  0.00   0.0     0     0.00      0     0.0  0.00   0.0   0.000   0.108   31.8    53   21.1   35.1    0.00   349    1    100.0   15 
10/08/22  21.00   28.4   28.7   28.4    68   22.0  14.5     N   3.62  27.4     N   28.0   31.3   30.8   29.9   568.7  0.00   0.0     0     0.00      0     0.0  0.00   0.0   0.000   0.105   31.8    55   21.7   35.6    0.10   350    1    100.0   15 
10/08/22  21.15   28.3   28.4   28.2    68   21.8  16.1     N   4.02  27.4     N   27.6   30.9   30.2   29.4   568.7  0.00   0.0     0     0.00      0     0.0  0.00   0.0   0.000   0.104   31.7    57   22.2   35.8    0.00   351    1    100.0   15 
10/08/22  21.30   28.3   28.3   28.2    66   21.3  14.5     N   3.62  25.7   NNW   27.8   30.6   30.1   29.2   568.7  0.00   0.0     0     0.00      0     0.0  0.00   0.0   0.000   0.104   31.6    56   21.8   35.3    0.00   350    1    100.0   15 
10/08/22  21.45   28.3   28.3   28.2    65   21.1  14.5     N   3.62  25.7     N   27.9   30.5   30.1   29.2   568.7  0.00   0.0     0     0.00      0     0.0  0.00   0.0   0.000   0.104   31.5    55   21.4   34.8    0.00   352    1    100.0   15 
10/08/22  22.00   28.5   28.5   28.3    62   20.5  12.9     N   3.22  27.4     N   28.3   30.4   30.3   29.3   568.7  0.00   0.0     0     0.00      0     0.0  0.00   0.0   0.000   0.106   31.5    54   21.1   34.7    0.10   350    1    100.0   15 
10/08/22  22.15   28.7   28.7   28.5    58   19.6  12.9     N   3.22  25.7   WNW   28.5   30.3   30.1   29.1   568.7  0.00   0.0     0     0.00      0     0.0  0.00   0.0   0.000   0.108   31.4    52   20.3   34.0    0.00   350    1    100.0   15 
10/08/22  22.30   28.7   28.8   28.7    60   20.1  12.9     N   3.22  27.4   NNW   28.5   30.5   30.3   29.3   568.7  0.00   0.0     0     0.00      0     0.0  0.00   0.0   0.000   0.108   31.3    51   19.9   33.6    0.00   349    1    100.0   15 
10/08/22  22.45   28.5   28.7   28.4    64   21.0  12.9   NNE   3.22  25.7   NNE   28.3   30.7   30.6   29.6   568.7  0.00   0.0     0     0.00      0     0.0  0.00   0.0   0.000   0.106   31.3    53   20.6   33.9    0.00   349    1    100.0   15 
10/08/22  23.00   28.3   28.5   28.3    66   21.3  11.3     N   2.82  22.5     N   28.3   30.6   30.6   29.6   568.7  0.00   0.0     0     0.00      0     0.0  0.00   0.0   0.000   0.104   31.3    54   20.9   34.2    0.10   351    1    100.0   15 
10/08/22  23.15   28.1   28.3   28.1    67   21.4   6.4    NE   1.61  17.7     N   28.1   30.4   30.4   29.5   568.7  0.00   0.0     0     0.00      0     0.0  0.00   0.0   0.000   0.102   31.3    55   21.2   34.3    0.00   350    1    100.0   15 
10/08/22  23.30   27.9   28.1   27.9    68   21.5   4.8   NNE   1.21  16.1   NNE   27.9   30.2   30.2   29.3   568.7  0.00   0.0     0     0.00      0     0.0  0.00   0.0   0.000   0.100   31.3    55   21.2   34.3    0.00   349    1    100.0   15 
10/08/22  23.45   27.6   27.9   27.6    69   21.4   3.2    NE   0.80   8.0   NNE   27.6   29.7   29.7   28.8   568.7  0.00   0.0     0     0.00      0     0.0  0.00   0.0   0.000   0.097   31.3    56   21.5   34.6    0.00   349    1    100.0   15 
11/08/22  00.00   27.4   27.7   27.4    69   21.2   0.0    NE   0.00   4.8    NE   27.4   29.3   29.3   28.4   568.7  0.00   0.0     0     0.00      0     0.0  0.00   0.0   0.000   0.094   31.0    57   21.5   34.2    0.05   350    1    100.0   15 
11/08/22   0.15   27.0   27.4   27.0    69   20.8   1.6    NE   0.40   6.4    NE   27.0   28.7   28.7   27.7   568.7  0.00   0.0     0     0.00      0     0.0  0.00   0.0   0.000   0.090   31.0    56   21.2   34.0    0.00   349    1    100.0   15 
11/08/22   0.30   26.6   27.0   26.6    69   20.5   0.0   NNE   0.00   6.4    NE   26.6   28.0   28.0   26.9   568.7  0.00   0.0     0     0.00      0     0.0  0.00   0.0   0.000   0.086   31.0    56   21.2   34.0    0.00   350    1    100.0   15 
11/08/22   0.45   25.9   26.6   25.9    65   18.9   0.0   NNE   0.00   6.4   NNE   25.9   26.8   26.8   25.7   568.7  0.00   0.0     0     0.00      0     0.0  0.00   0.0   0.000   0.079   30.9    54   20.5   33.4    0.00   351    1    100.0   15 
11/08/22   1.00   25.3   25.9   25.3    64   18.0   3.2   NNE   0.80   8.0   NNE   25.3   26.1   26.1   24.9   568.7  0.00   0.0     0     0.00      0     0.0  0.00   0.0   0.000   0.073   30.8    52   19.8   32.9    0.05   348    1    100.0   15 
11/08/22   1.15   25.2   25.3   25.2    63   17.6   1.6   NNE   0.40   6.4   NNE   25.2   25.8   25.8   24.6   568.7  0.00   0.0     0     0.00      0     0.0  0.00   0.0   0.000   0.071   30.6    50   19.0   32.3    0.00   349    1    100.0   15 
11/08/22   1.30   25.3   25.3   25.1    61   17.2   1.6   NNE   0.40   6.4   NNE   25.3   25.8   25.8   24.6   568.7  0.00   0.0     0     0.00      0     0.0  0.00   0.0   0.000   0.072   30.4    50   18.8   32.1    0.00   350    1    100.0   15 
11/08/22   1.45   24.7   25.3   24.7    62   16.9   1.6   NNE   0.40   6.4   NNE   24.7   25.2   25.2   23.9   568.7  0.00   0.0     0     0.00      0     0.0  0.00   0.0   0.000   0.066   30.3    49   18.4   31.7    0.00   349    1    100.0   15 
11/08/22   2.00   24.8   24.8   24.5    60   16.5   0.0    NE   0.00   4.8    NE   24.8   25.2   25.2   24.0   568.7  0.00   0.0     0     0.00      0     0.0  0.00   0.0   0.000   0.067   30.2    48   18.0   31.4    0.05   349    1    100.0   15 
11/08/22   2.15   24.7   24.9   24.7    60   16.4   0.0   ---   0.00   0.0   ---   24.7   25.1   25.1   23.8   568.7  0.00   0.0     0     0.00      0     0.0  0.00   0.0   0.000   0.066   30.1    48   17.9   31.2    0.00   351    1    100.0   15 
11/08/22   2.30   24.4   24.7   24.4    59   15.9   0.0   ---   0.00   0.0   ---   24.4   24.7   24.7   23.4   568.7  0.00   0.0     0     0.00      0     0.0  0.00   0.0   0.000   0.063   30.0    47   17.5   30.8    0.00   351    1    100.0   15 
11/08/22   2.45   24.2   24.4   24.2    61   16.2   1.6    NE   0.40   6.4    NE   24.2   24.7   24.7   23.5   568.7  0.00   0.0     0     0.00      0     0.0  0.00   0.0   0.000   0.061   30.0    47   17.5   30.8    0.00   348    1    100.0   15 
11/08/22   3.00   23.9   24.2   23.8    61   15.9   1.6    NE   0.40   6.4    NE   23.9   24.4   24.4   23.2   568.7  0.00   0.0     0     0.00      0     0.0  0.00   0.0   0.000   0.058   29.8    47   17.3   30.6    0.05   349    1    100.0   15 
11/08/22   3.15   24.2   24.2   23.8    60   15.9   0.0   ---   0.00   0.0   ---   24.2   24.6   24.6   23.3   568.7  0.00   0.0     0     0.00      0     0.0  0.00   0.0   0.000   0.061   29.7    47   17.2   30.4    0.00   351    1    100.0   15 
11/08/22   3.30   24.1   24.3   24.0    60   15.8   3.2   NNE   0.80   6.4    NE   24.1   24.5   24.5   23.2   568.7  0.00   0.0     0     0.00      0     0.0  0.00   0.0   0.000   0.060   29.6    46   16.7   30.2    0.00   349    1    100.0   15 
11/08/22   3.45   24.5   24.6   23.9    58   15.7   3.2     N   0.80   6.4   NNE   24.5   24.8   24.8   23.5   568.7  0.00   0.0     0     0.00      0     0.0  0.00   0.0   0.000   0.064   29.4    46   16.6   30.1    0.00   350    1    100.0   15 
11/08/22   4.00   24.4   24.6   24.3    59   15.9   1.6     N   0.40   6.4     N   24.4   24.7   24.7   23.4   568.7  0.00   0.0     0     0.00      0     0.0  0.00   0.0   0.000   0.063   29.4    47   17.0   30.2    0.05   348    1    100.0   15 
11/08/22   4.15   24.6   24.7   24.3    58   15.8   0.0   ---   0.00   0.0   ---   24.6   24.9   24.9   23.7   568.7  0.00   0.0     0     0.00      0     0.0  0.00   0.0   0.000   0.065   29.4    47   17.0   30.2    0.00   350    1    100.0   15 
11/08/22   4.30   25.1   25.1   24.6    56   15.7   0.0   ---   0.00   0.0   ---   25.1   25.3   25.3   24.0   568.7  0.00   0.0     0     0.00      0     0.0  0.00   0.0   0.000   0.070   29.4    47   17.0   30.2    0.00   352    1    100.0   15 
11/08/22   4.45   25.3   25.3   25.1    56   15.9   0.0   NNE   0.00   4.8   NNE   25.3   25.6   25.6   24.3   568.7  0.00   0.0     0     0.00      0     0.0  0.00   0.0   0.000   0.072   29.4    47   17.0   30.2    0.00   350    1    100.0   15 
11/08/22   5.00   25.1   25.3   25.0    57   15.9   3.2   NNE   0.80   4.8   NNE   25.1   25.3   25.3   24.1   568.7  0.00   0.0     0     0.00      0     0.0  0.00   0.0   0.000   0.070   29.4    47   17.0   30.2    0.05   351    1    100.0   15 
11/08/22   5.15   25.2   25.4   25.1    56   15.8   0.0   NNE   0.00   3.2   NNE   25.2   25.4   25.4   24.2   568.7  0.00   0.0     0     0.00      0     0.0  0.00   0.0   0.000   0.071   29.4    46   16.6   30.1    0.00   350    1    100.0   15 
11/08/22   5.30   24.1   25.2   24.1    59   15.6   0.0   ---   0.00   0.0   ---   24.1   24.5   24.5   23.2   568.7  0.00   0.0     0     0.00      0     0.0  0.00   0.0   0.000   0.060   29.3    47   16.9   30.1    0.00   351    1    100.0   15 
11/08/22   5.45   24.5   24.5   24.0    58   15.7   0.0   ---   0.00   0.0   ---   24.5   24.8   24.8   23.5   568.7  0.00   0.0     0     0.00      0     0.0  0.00   0.0   0.000   0.064   29.2    46   16.4   29.9    0.00   350    1    100.0   15 
11/08/22   6.00   23.7   24.5   23.7    61   15.7   1.6     N   0.40   8.0     N   23.7   24.2   24.2   22.9   568.7  0.00   0.0     0     0.00      0     0.0  0.00   0.0   0.000   0.056   29.1    47   16.6   29.9    0.05   350    1    100.0   15 
11/08/22   6.15   24.3   24.3   23.7    60   16.0   6.4     N   1.61   9.7     N   24.3   24.7   24.7   23.4   568.7  0.00   0.0     1     0.02      5     0.0  0.00   0.0   0.000   0.062   29.0    47   16.5   29.8    0.00   349    1    100.0   15 
11/08/22   6.30   24.6   24.6   24.3    61   16.5   4.8     N   1.21   9.7     N   24.6   25.0   25.0   23.8   568.7  0.00   0.0     6     0.13     11     0.0  0.00   0.0   0.000   0.065   28.9    48   16.8   29.7    0.00   352    1    100.0   15 
11/08/22   6.45   24.6   24.6   24.4    62   16.8   3.2   NNE   0.80   6.4     N   24.6   25.1   25.1   24.1   568.7  0.00   0.0    16     0.34     21     0.0  0.00   0.0   0.000   0.065   28.9    48   16.8   29.7    0.00   348    1    100.0   15 
11/08/22   7.00   25.4   25.4   24.5    62   17.6   4.8    NE   1.21  11.3   NNE   25.4   26.1   26.1   25.9   568.7  0.00   0.0    26     0.56     32     0.0  0.00   0.0   0.000   0.074   29.0    49   17.2   29.9    0.05   350    1    100.0   15 
11/08/22   7.15   25.6   25.6   25.4    63   18.0   4.8   NNE   1.21  11.3   NNE   25.6   26.3   26.3   26.5   568.7  0.00   0.0    38     0.82     54     0.0  0.00   0.0   0.000   0.076   29.0    50   17.5   30.0    0.00   351    1    100.0   15 
11/08/22   7.30   25.7   25.7   25.6    62   17.8   6.4   NNE   1.61  14.5   NNE   25.7   26.3   26.3   27.1   568.7  0.00   0.0    63     1.35     81     0.0  0.00   0.0   0.000   0.076   29.1    51   17.9   30.2    0.00   351    1    100.0   15 
11/08/22   7.45   25.8   25.8   25.7    63   18.3   4.8   NNE   1.21  11.3   NNE   25.8   26.6   26.6   27.7   568.7  0.00   0.0    82     1.76    104     0.0  0.00   0.0   0.000   0.078   29.1    52   18.3   30.3    0.00   351    1    100.0   15 
11/08/22   8.00   25.8   25.8   25.8    63   18.3   4.8     N   1.21  11.3   NNE   25.8   26.6   26.6   27.4   568.7  0.00   0.0    75     1.61     86     0.0  0.00   0.0   0.000   0.078   29.2    52   18.4   30.4    0.08   351    1    100.0   15 
11/08/22   8.15   26.1   26.1   25.8    61   18.0   4.8   NNE   1.21   9.7    NE   26.1   26.8   26.8   27.6   568.7  0.00   0.0    74     1.59     95     0.0  0.00   0.0   0.000   0.081   29.2    52   18.4   30.4    0.00   349    1    100.0   15 
11/08/22   8.30   26.2   26.2   26.1    61   18.1   3.2   NNE   0.80   8.0   ENE   26.2   26.8   26.8   28.0   568.7  0.00   0.0    99     2.13    113     0.0  0.00   0.0   0.000   0.082   29.3    52   18.5   30.6    0.00   351    1    100.0   15 
11/08/22   8.45   26.6   26.6   26.1    60   18.2   4.8   NNE   1.21   9.7     N   26.6   27.3   27.3   29.8   568.7  0.00   0.0   184     3.96    283     0.0  0.00   0.0   0.000   0.086   29.4    52   18.6   30.7    0.00   352    1    100.0   15 
11/08/22   9.00   26.9   26.9   26.6    56   17.4   3.2     N   0.80  11.3   NNE   26.9   27.4   27.4   29.7   568.7  0.00   0.0   173     3.72    202     0.0  0.00   0.0   0.000   0.090   29.4    51   18.2   30.6    0.13   351    1    100.0   15 
11/08/22   9.15   27.3   27.3   26.9    54   17.2   3.2     N   0.80   9.7     N   27.3   27.8   27.8   30.9   568.7  0.00   0.0   234     5.03    376     0.0  0.00   0.0   0.000   0.094   29.6    50   18.0   30.6    0.00   350    1    100.0   15 
11/08/22   9.30   27.9   27.9   27.3    56   18.3   8.0     N   2.01  19.3   NNE   27.9   28.8   28.8   34.4   568.7  0.00   0.0   457     9.83    504     0.0  0.00   0.0   0.000   0.100   29.7    50   18.1   30.8    0.00   348    1    100.0   15 
11/08/22   9.45   27.9   27.9   27.7    54   17.7  11.3     N   2.82  19.3   NNE   27.9   28.6   28.6   34.4   568.7  0.00   0.0   525    11.29    543     0.0  0.00   0.0   0.000   0.100   29.8    50   18.2   30.9    0.00   351    1    100.0   15 
11/08/22  10.00   28.1   28.2   27.8    52   17.3  11.3   NNE   2.82  19.3   NNE   28.1   28.7   28.7   34.7   568.7  0.00   0.0   562    12.08    587     0.3  0.03   0.6   0.000   0.101   29.9    49   18.0   30.9    0.36   350    1    100.0   15 
11/08/22  10.15   28.3   28.4   28.1    57   19.0  11.3     N   2.82  22.5     N   28.3   29.6   29.6   35.7   568.7  0.00   0.0   626    13.46    656     0.4  0.04   0.8   0.000   0.104   30.0    50   18.4   31.2    0.00   349    1    100.0   15 
11/08/22  10.30   28.0   28.4   28.0    54   17.8  12.9   NNE   3.22  25.7    NE   27.8   28.8   28.6   34.4   568.7  0.00   0.0   611    13.14    636     0.8  0.09   1.0   0.000   0.101   30.1    50   18.5   31.4    0.00   351    1    100.0   15 
11/08/22  10.45   28.2   28.4   27.9    55   18.3  12.9   NNE   3.22  24.1    NE   28.1   29.2   29.1   34.8   568.7  0.00   0.0   611    13.14    654     1.1  0.12   1.3   0.000   0.103   30.2    50   18.6   31.7    0.00   351    1    100.0   15 
11/08/22  11.00   28.8   28.8   28.1    53   18.2   9.7     N   2.41  22.5   NNW   28.8   29.9   29.9   36.3   568.7  0.00   0.0   677    14.56    708     1.5  0.16   1.7   0.000   0.109   30.2    50   18.6   31.7    0.48   349    1    100.0   15 
11/08/22  11.15   28.8   28.8   28.6    52   17.9  11.3     N   2.82  22.5    NW   28.8   29.9   29.9   36.2   568.7  0.00   0.0   715    15.37    772     1.8  0.19   2.0   0.000   0.109   30.3    49   18.4   31.7    0.00   350    1    100.0   15 
11/08/22  11.30   29.2   29.4   28.8    46   16.4  11.3     N   2.82  24.1   NNE   29.2   29.8   29.8   36.1   568.7  0.00   0.0   775    16.66    795     1.7  0.18   2.4   0.000   0.113   30.4    48   18.2   31.8    0.00   351    1    100.0   15 
11/08/22  11.45   29.4   29.6   29.2    46   16.6  12.9     N   3.22  25.7   NNE   29.3   30.1   30.0   36.1   568.7  0.00   0.0   789    16.97    796     2.5  0.27   2.7   0.000   0.116   30.6    46   17.6   31.6    0.00   351    1    100.0   15 
11/08/22  12.00   29.7   29.7   29.5    48   17.5  11.3     N   2.82  24.1   NNE   29.7   30.6   30.6   36.9   568.7  0.00   0.0   806    17.33    816     2.8  0.30   2.9   0.000   0.119   30.7    46   17.7   31.7    0.61   352    1    100.0   15 
11/08/22  12.15   29.7   29.8   29.6    47   17.2  12.9     N   3.22  22.5     N   29.6   30.4   30.3   36.4   568.7  0.00   0.0   821    17.65    831     3.0  0.32   3.1   0.000   0.118   30.7    46   17.7   31.7    0.00   351    1    100.0   15 
11/08/22  12.30   30.0   30.0   29.4    47   17.5  11.3   NNE   2.82  25.7     N   30.0   30.8   30.8   37.2   568.7  0.00   0.0   841    18.08    853     3.2  0.34   3.3   0.000   0.122   30.8    45   17.5   31.7    0.00   351    1    100.0   15 
11/08/22  12.45   30.3   30.5   30.0    43   16.3  11.3   NNE   2.82  27.4   NNE   30.3   30.8   30.8   37.0   568.7  0.00   0.0   867    18.64    875     3.5  0.38   3.5   0.000   0.124   30.9    45   17.6   31.8    0.00   350    1    100.0   15 
11/08/22  13.00   30.1   30.5   30.0    42   15.7  12.9   NNE   3.22  25.7    NE   29.9   30.4   30.3   36.4   568.7  0.00   0.0   843    18.13    875     3.3  0.35   3.5   0.000   0.122   31.0    44   17.3   31.8    0.69   349    1    100.0   15 
11/08/22  13.15   30.7   30.7   30.1    40   15.5  12.9   NNE   3.22  24.1   NNE   30.6   30.8   30.8   36.9   568.7  0.00   0.0   797    17.14    838     3.3  0.35   3.4   0.000   0.128   31.2    43   17.1   31.8    0.00   349    1    100.0   15 
11/08/22  13.30   31.1   31.1   30.6    41   16.3  12.9   NNE   3.22  24.1     N   31.1   31.3   31.3   37.4   568.7  0.00   0.0   833    17.91    875     3.4  0.36   3.6   0.000   0.133   31.3    43   17.2   32.1    0.00   350    1    100.0   15 
11/08/22  13.45   30.2   31.2   30.2    42   15.9  16.1   NNE   4.02  29.0   NNE   29.8   30.6   30.2   35.8   568.7  0.00   0.0   841    18.08    867     3.4  0.36   3.5   0.000   0.124   31.4    42   16.9   32.1    0.00   350    1    100.0   15 
11/08/22  14.00   30.3   30.4   30.2    43   16.3  16.1   NNE   4.02  25.7   NNE   29.9   30.8   30.4   36.1   568.7  0.00   0.0   822    17.68    846     3.2  0.34   3.3   0.000   0.124   31.4    43   17.3   32.3    0.69   352    1    100.0   15 
11/08/22  14.15   30.3   30.4   30.2    43   16.3  16.1   NNE   4.02  27.4   NNE   29.9   30.8   30.4   36.0   568.7  0.00   0.0   836    17.98    846     3.2  0.34   3.3   0.000   0.124   31.4    43   17.3   32.3    0.00   350    1    100.0   15 
11/08/22  14.30   31.1   31.1   30.3    41   16.3  12.9   NNE   3.22  24.1   NNE   31.0   31.3   31.2   37.3   568.7  0.00   0.0   806    17.33    826     2.9  0.31   3.1   0.000   0.133   31.5    42   17.0   32.3    0.00   350    1    100.0   15 
11/08/22  14.45   31.0   31.1   30.7    42   16.6   9.7   NNE   2.41  20.9   NNE   31.0   31.4   31.4   37.9   568.7  0.00   0.0   761    16.36    784     2.5  0.27   2.7   0.000   0.132   31.6    43   17.5   32.7    0.00   350    1    100.0   15 
11/08/22  15.00   31.4   31.4   31.0    43   17.3   9.7    NE   2.41  20.9    NE   31.4   32.3   32.3   38.7   568.7  0.00   0.0   753    16.19    786     1.7  0.18   2.7   0.000   0.136   31.6    42   17.1   32.6    0.63   346    1    100.0   15 
11/08/22  15.15   31.3   31.6   31.2    45   17.9   8.0   NNE   2.01  20.9   NNE   31.3   32.4   32.4   38.9   568.7  0.00   0.0   719    15.46    742     2.4  0.26   2.5   0.000   0.135   31.7    43   17.6   32.9    0.00   350    1    100.0   15 
11/08/22  15.30   31.3   31.3   31.2    41   16.5   8.0    NE   2.01  19.3   NNE   31.3   31.7   31.7   38.0   568.7  0.00   0.0   725    15.59    738     2.3  0.25   2.4   0.000   0.135   31.8    44   18.1   33.3    0.00   350    1    100.0   15 
11/08/22  15.45   31.7   31.9   31.3    42   17.2   3.2    NE   0.80  17.7    NE   31.7   32.7   32.7   39.0   568.7  0.00   0.0   695    14.94    712     2.1  0.22   2.2   0.000   0.139   31.8    43   17.7   33.1    0.00   349    1    100.0   15 
11/08/22  16.00   31.8   32.1   31.6    37   15.3   9.7     N   2.41  22.5   NNE   31.8   31.8   31.8   38.0   568.7  0.00   0.0   661    14.21    675     1.8  0.19   2.0   0.000   0.140   31.9    42   17.4   33.0    0.56   350    1    100.0   15 
11/08/22  16.15   32.3   32.3   31.7    38   16.2  11.3     N   2.82  20.9     N   32.3   32.7   32.7   38.8   568.7  0.00   0.0   630    13.55    645     1.5  0.16   1.6   0.000   0.145   32.1    41   17.1   32.9    0.00   350    1    100.0   15 
11/08/22  16.30   32.2   32.3   32.1    38   16.1  12.9   NNE   3.22  22.5   NNE   32.2   32.6   32.6   38.3   568.7  0.00   0.0   597    12.84    612     1.3  0.14   1.3   0.000   0.145   32.1    42   17.5   33.2    0.00   349    1    100.0   15 
11/08/22  16.45   32.7   32.7   32.3    33   14.3   8.0    NW   2.01  22.5   WNW   32.7   32.5   32.5   38.4   568.7  0.00   0.0   566    12.17    578     1.1  0.12   1.2   0.000   0.149   32.2    42   17.6   33.3    0.00   347    1    100.0   15 
11/08/22  17.00   32.6   32.6   32.3    35   15.2   8.0    NW   2.01  27.4    NW   32.6   32.7   32.7   38.6   568.7  0.00   0.0   534    11.48    552     0.9  0.10   1.0   0.000   0.149   32.4    40   17.1   33.3    0.51   350    1    100.0   15 
11/08/22  17.15   32.3   32.8   32.3    34   14.5   6.4    NW   1.61  22.5   WNW   32.3   32.2   32.2   37.2   568.7  0.00   0.0   392     8.43    517     0.7  0.07   0.9   0.000   0.146   32.4    40   17.1   33.3    0.00   349    1    100.0   15 
11/08/22  17.30   32.7   32.7   32.3    34   14.8   4.8   NNW   1.21  14.5    NE   32.7   32.6   32.6   38.1   568.7  0.00   0.0   431     9.27    448     0.4  0.04   0.6   0.000   0.149   32.6    40   17.2   33.4    0.00   348    1    100.0   15 
11/08/22  17.45   32.4   32.8   32.3    35   15.0   6.4    NW   1.61  22.5    NW   32.4   32.4   32.4   37.9   568.7  0.00   0.0   409     8.79    431     0.0  0.00   0.0   0.000   0.147   32.6    39   16.8   33.3    0.00   349    1    100.0   15 
11/08/22  18.00   32.0   32.4   32.0    34   14.2   9.7   NNW   2.41  20.9   NNW   32.0   31.7   31.7   36.8   568.7  0.00   0.0   365     7.85    387     0.0  0.00   0.0   0.000   0.142   32.6    39   16.8   33.3    0.36   350    1    100.0   15 
11/08/22  18.15   31.7   32.1   31.6    38   15.6  12.9   NNE   3.22  25.7   NNE   31.7   31.8   31.8   36.4   568.7  0.00   0.0   321     6.90    343     0.0  0.00   0.0   0.000   0.139   32.4    39   16.7   33.1    0.00   351    1    100.0   15 
11/08/22  18.30   31.4   31.6   31.3    40   16.2  12.9   NNE   3.22  29.0   NNE   31.4   31.8   31.8   36.0   568.7  0.00   0.0   277     5.96    299     0.0  0.00   0.0   0.000   0.137   32.4    41   17.5   33.5    0.00   351    1    100.0   15 
11/08/22  18.45   31.2   31.4   31.2    37   14.8  12.9     N   3.22  20.9   NNW   31.1   30.8   30.8   34.4   568.7  0.00   0.0   235     5.05    253     0.0  0.00   0.0   0.000   0.134   32.3    39   16.6   32.9    0.00   351    1    100.0   15 
11/08/22  19.00   30.9   31.2   30.9    37   14.6  12.9     N   3.22  22.5    NE   30.9   30.6   30.6   33.6   568.7  0.00   0.0   192     4.13    214     0.0  0.00   0.0   0.000   0.131   32.2    38   16.1   32.5    0.33   349    1    100.0   15 
11/08/22  19.15   30.7   30.9   30.7    38   14.8  11.3     N   2.82  22.5     N   30.7   30.6   30.6   32.9   568.7  0.00   0.0   142     3.05    165     0.0  0.00   0.0   0.000   0.129   32.1    38   16.0   32.4    0.00   350    1    100.0   15 
11/08/22  19.30   30.4   30.7   30.4    37   14.1  11.3     N   2.82  20.9    NW   30.4   30.3   30.3   31.5   568.7  0.00   0.0    91     1.96    118     0.0  0.00   0.0   0.000   0.126   32.1    38   16.0   32.4    0.00   349    1    100.0   15 
11/08/22  19.45   29.9   30.4   29.9    39   14.4  11.3     N   2.82  20.9   NNW   29.9   29.9   29.9   28.9   568.7  0.00   0.0    30     0.65     33     0.0  0.00   0.0   0.000   0.120   32.1    39   16.4   32.6    0.00   350    1    100.0   15 
11/08/22  20.00   29.7   29.9   29.7    38   13.9   9.7     N   2.41  20.9     N   29.7   29.6   29.6   28.4   568.7  0.00   0.0    22     0.47     26     0.0  0.00   0.0   0.000   0.119   31.9    39   16.3   32.4    0.18   351    1    100.0   15 
11/08/22  20.15   29.4   29.7   29.4    41   14.8  11.3     N   2.82  22.5     N   29.4   29.6   29.6   28.4   568.7  0.00   0.0    12     0.26     16     0.0  0.00   0.0   0.000   0.116   31.8    39   16.2   32.2    0.00   349    1    100.0   15 
11/08/22  20.30   29.0   29.4   28.9    44   15.5  11.3     N   2.82  22.5   NNE   29.0   29.5   29.5   28.2   568.7  0.00   0.0     3     0.06      9     0.0  0.00   0.0   0.000   0.111   31.7    40   16.5   32.3    0.00   350    1    100.0   15 
11/08/22  20.45   28.8   29.0   28.7    46   16.0  12.9   NNW   3.22  20.9   NNE   28.6   29.4   29.2   27.9   568.7  0.00   0.0     0     0.00      0     0.0  0.00   0.0   0.000   0.109   31.6    41   16.8   32.3    0.00   351    1    100.0   15 
11/08/22  21.00   28.5   28.8   28.5    51   17.4  12.9     N   3.22  22.5     N   28.3   29.3   29.2   28.0   568.7  0.00   0.0     0     0.00      0     0.0  0.00   0.0   0.000   0.106   31.5    43   17.4   32.5    0.00   351    1    100.0   15 
11/08/22  21.15   28.4   28.6   28.4    52   17.6  12.9     N   3.22  25.7   NNW   28.2   29.2   29.1   27.9   568.7  0.00   0.0     0     0.00      0     0.0  0.00   0.0   0.000   0.105   31.4    45   18.0   32.7    0.13   350    1    100.0   15 
11/08/22  21.30   28.3   28.4   28.2    53   17.8  14.5     N   3.62  25.7     N   27.8   29.2   28.7   27.7   568.7  0.00   0.0     0     0.00      0     0.0  0.00   0.0   0.000   0.104   31.3    45   17.9   32.4    0.00   352    1    100.0   15 
11/08/22  21.45   28.2   28.3   28.2    54   18.0  12.9     N   3.22  24.1   NNW   28.0   29.1   28.9   27.8   568.7  0.00   0.0     0     0.00      0     0.0  0.00   0.0   0.000   0.102   31.2    45   17.8   32.2    0.00   351    1    100.0   15 
11/08/22  22.00   28.2   28.2   28.1    53   17.7  11.3     N   2.82  22.5     N   28.2   29.0   29.0   27.8   568.7  0.00   0.0     0     0.00      0     0.0  0.00   0.0   0.000   0.102   31.0    46   18.0   32.1    0.13   350    1    100.0   15 
11/08/22  22.15   28.1   28.2   28.1    55   18.2  12.9     N   3.22  22.5     N   27.9   29.1   28.9   27.8   568.7  0.00   0.0     0     0.00      0     0.0  0.00   0.0   0.000   0.102   30.9    46   17.9   32.0    0.00   351    1    100.0   15 
11/08/22  22.30   28.1   28.2   28.1    55   18.2  12.9   NNW   3.22  25.7   NNW   27.9   29.0   28.8   27.7   568.7  0.00   0.0     0     0.00      0     0.0  0.00   0.0   0.000   0.101   30.9    47   18.3   32.2    0.00   351    1    100.0   15 
11/08/22  22.45   27.9   28.1   27.9    56   18.4  12.9     N   3.22  24.1     N   27.8   28.9   28.7   27.6   568.7  0.00   0.0     0     0.00      0     0.0  0.00   0.0   0.000   0.100   30.8    48   18.5   32.2    0.00   351    1    100.0   15 
11/08/22  23.00   27.8   28.0   27.8    58   18.8  11.3   NNW   2.82  22.5   NNW   27.8   28.8   28.8   27.7   568.7  0.00   0.0     0     0.00      0     0.0  0.00   0.0   0.000   0.098   30.9    48   18.6   32.3    0.13   350    1    100.0   15 
11/08/22  23.15   27.8   27.8   27.7    59   19.0  12.9   NNW   3.22  22.5   NNW   27.6   28.9   28.7   27.7   568.7  0.00   0.0     0     0.00      0     0.0  0.00   0.0   0.000   0.098   30.9    49   18.9   32.6    0.00   350    1    100.0   15 
11/08/22  23.30   27.6   27.8   27.6    62   19.7  11.3   NNW   2.82  20.9     N   27.6   28.9   28.9   27.8   568.7  0.00   0.0     0     0.00      0     0.0  0.00   0.0   0.000   0.097   30.8    50   19.2   32.6    0.00   351    1    100.0   15 
11/08/22  23.45   27.6   27.7   27.6    64   20.1  12.9   NNW   3.22  24.1     N   27.4   29.1   28.9   27.9   568.7  0.00   0.0     0     0.00      0     0.0  0.00   0.0   0.000   0.096   30.8    51   19.5   32.8    0.00   351    1    100.0   15 
12/08/22  00.00   27.4   27.6   27.4    65   20.3  14.5     N   3.62  24.1     N   26.9   29.0   28.4   27.5   568.7  0.00   0.0     0     0.00      0     0.0  0.00   0.0   0.000   0.095   30.8    53   20.1   33.1    0.10   351    1    100.0   15 
12/08/22   0.15   27.4   27.6   27.3    68   21.0  14.5     N   3.62  30.6   NNE   26.8   29.2   28.7   27.7   568.7  0.00   0.0     0     0.00      0     0.0  0.00   0.0   0.000   0.094   30.7    54   20.3   33.2    0.00   349    1    100.0   15 
12/08/22   0.30   27.2   27.4   27.2    69   21.0  14.5     N   3.62  24.1   NNW   26.6   28.9   28.4   27.4   568.7  0.00   0.0     0     0.00      0     0.0  0.00   0.0   0.000   0.092   30.7    55   20.6   33.4    0.00   348    1    100.0   15 
12/08/22   0.45   27.1   27.2   27.1    71   21.4  12.9     N   3.22  25.7   NNE   26.9   29.1   28.8   27.9   568.7  0.00   0.0     0     0.00      0     0.0  0.00   0.0   0.000   0.091   30.6    57   21.1   33.6    0.00   337    1     98.5   15 
12/08/22   1.00   26.9   27.1   26.8    71   21.2  12.9     N   3.22  24.1     N   26.7   28.7   28.4   27.5   568.7  0.00   0.0     0     0.00      0     0.0  0.00   0.0   0.000   0.089   30.6    58   21.4   33.8    0.08   335    1     98.0   15 
12/08/22   1.15   26.7   26.9   26.7    71   21.0  11.3     N   2.82  20.9   NNW   26.7   28.4   28.4   27.3   568.7  0.00   0.0     0     0.00      0     0.0  0.00   0.0   0.000   0.087   30.4    58   21.2   33.6    0.00   351    1    100.0   15 
12/08/22   1.30   26.7   26.7   26.6    70   20.7  12.9   NNW   3.22  22.5   NNE   26.4   28.2   27.9   26.9   568.7  0.00   0.0     0     0.00      0     0.0  0.00   0.0   0.000   0.087   30.4    58   21.2   33.6    0.00   351    1    100.0   15 
12/08/22   1.45   26.4   26.7   26.4    69   20.2   8.0   NNW   2.01  20.9   NNW   26.4   27.7   27.7   26.7   568.7  0.00   0.0     0     0.00      0     0.0  0.00   0.0   0.000   0.084   30.3    57   20.9   33.2    0.00   350    1    100.0   15 
12/08/22   2.00   26.2   26.4   26.2    69   20.1   8.0   NNE   2.01  16.1   NNE   26.2   27.5   27.5   26.4   568.7  0.00   0.0     0     0.00      0     0.0  0.00   0.0   0.000   0.082   30.1    57   20.7   32.7    0.08   350    1    100.0   15 
12/08/22   2.15   26.1   26.2   26.1    69   20.0   4.8   NNE   1.21   9.7   NNE   26.1   27.3   27.3   26.2   568.7  0.00   0.0     0     0.00      0     0.0  0.00   0.0   0.000   0.081   30.1    57   20.7   32.7    0.00   351    1    100.0   15 
12/08/22   2.30   25.9   26.2   25.8    68   19.5   1.6   NNE   0.40  11.3    NE   25.9   26.9   26.9   25.8   568.7  0.00   0.0     0     0.00      0     0.0  0.00   0.0   0.000   0.079   30.1    57   20.7   32.7    0.00   348    1    100.0   15 
12/08/22   2.45   25.6   25.8   25.6    68   19.3   0.0   NNE   0.00   3.2   NNE   25.6   26.6   26.6   25.5   568.7  0.00   0.0     0     0.00      0     0.0  0.00   0.0   0.000   0.076   30.1    56   20.4   32.5    0.00   348    1    100.0   15 
12/08/22   3.00   25.2   25.7   25.2    69   19.1   1.6   NNE   0.40   6.4   NNE   25.2   26.2   26.2   25.1   568.7  0.00   0.0     0     0.00      0     0.0  0.00   0.0   0.000   0.072   30.1    55   20.1   32.3    0.05   347    1    100.0   15 
12/08/22   3.15   24.8   25.2   24.8    68   18.5   1.6     N   0.40   6.4   NNE   24.8   25.7   25.7   24.6   568.7  0.00   0.0     0     0.00      0     0.0  0.00   0.0   0.000   0.068   30.0    55   20.0   32.1    0.00   352    1    100.0   15 
12/08/22   3.30   24.2   24.8   24.2    64   16.9   0.0     N   0.00   3.2     N   24.2   24.8   24.8   23.6   568.7  0.00   0.0     0     0.00      0     0.0  0.00   0.0   0.000   0.061   30.0    54   19.7   31.9    0.00   350    1    100.0   15 
12/08/22   3.45   24.3   24.3   24.1    59   15.8   1.6     N   0.40   8.0     N   24.3   24.7   24.7   23.3   568.7  0.00   0.0     0     0.00      0     0.0  0.00   0.0   0.000   0.062   29.9    51   18.7   31.2    0.00   348    1    100.0   15 
12/08/22   4.00   23.9   24.3   23.9    57   14.9   1.6   NNE   0.40   4.8   NNE   23.9   24.3   24.3   22.9   568.7  0.00   0.0     0     0.00      0     0.0  0.00   0.0   0.000   0.058   29.9    49   18.0   30.9    0.05   350    1    100.0   15 
12/08/22   4.15   23.5   23.9   23.5    57   14.5   1.6   NNE   0.40   4.8   NNE   23.5   23.8   23.8   22.4   568.7  0.00   0.0     0     0.00      0     0.0  0.00   0.0   0.000   0.054   29.8    48   17.6   30.7    0.00   349    1    100.0   15 
12/08/22   4.30   22.3   23.5   22.3    59   13.9   1.6   NNE   0.40   4.8   NNE   22.3   22.2   22.2   20.8   568.7  0.00   0.0     0     0.00      0     0.0  0.00   0.0   0.000   0.041   29.7    47   17.2   30.4    0.00   350    1    100.0   15 
12/08/22   4.45   21.7   22.3   21.7    60   13.6   0.0   NNE   0.00   4.8   NNE   21.7   21.4   21.4   20.0   568.7  0.00   0.0     0     0.00      0     0.0  0.00   0.0   0.000   0.035   29.6    46   16.7   30.2    0.00   351    1    100.0   15 
12/08/22   5.00   21.5   21.8   21.5    59   13.1   0.0   NNE   0.00   3.2   NNE   21.5   21.1   21.1   19.7   568.7  0.00   0.0     0     0.00      0     0.0  0.00   0.0   0.000   0.033   29.4    45   16.3   30.0    0.05   348    1    100.0   15 
12/08/22   5.15   21.4   21.5   21.3    59   13.0   1.6   NNE   0.40   4.8   NNE   21.4   20.9   20.9   19.5   568.7  0.00   0.0     0     0.00      0     0.0  0.00   0.0   0.000   0.032   29.3    44   15.8   29.8    0.00   350    1    100.0   15 
12/08/22   5.30   20.9   21.3   20.9    60   12.9   1.6   NNE   0.40   6.4   NNE   20.9   20.6   20.6   19.1   568.7  0.00   0.0     0     0.00      0     0.0  0.00   0.0   0.000   0.027   29.1    43   15.3   29.5    0.00   349    1    100.0   15 
12/08/22   5.45   20.8   20.9   20.7    58   12.3   1.6    NE   0.40   4.8   NNE   20.8   20.3   20.3   18.8   568.7  0.00   0.0     0     0.00      0     0.0  0.00   0.0   0.000   0.026   29.0    43   15.2   29.4    0.00   351    1    100.0   15 
12/08/22   6.00   20.4   20.9   20.4    61   12.7   1.6    NE   0.40   4.8    NE   20.4   20.2   20.2   18.7   568.7  0.00   0.0     0     0.00      0     0.0  0.00   0.0   0.000   0.022   28.7    43   14.9   28.9    0.05   350    1    100.0   15 
12/08/22   6.15   20.4   20.4   20.4    60   12.4   1.6    NE   0.40   4.8    NE   20.4   20.2   20.2   18.7   568.7  0.00   0.0     0     0.00      0     0.0  0.00   0.0   0.000   0.022   28.3    43   14.6   28.4    0.00   350    1    100.0   15 
12/08/22   6.30   20.7   20.7   20.4    58   12.1   3.2    NE   0.80   6.4    NE   20.7   20.2   20.2   18.8   568.7  0.00   0.0     6     0.13     14     0.0  0.00   0.0   0.000   0.024   28.1    43   14.4   28.1    0.00   351    1    100.0   15 
12/08/22   6.45   21.1   21.1   20.7    58   12.5   1.6    NE   0.40   4.8    NE   21.1   20.5   20.5   19.4   568.7  0.00   0.0    28     0.60     40     0.0  0.00   0.0   0.000   0.028   28.0    43   14.3   27.9    0.00   350    1    100.0   15 
12/08/22   7.00   20.9   21.1   20.9    59   12.6   0.0   ---   0.00   0.0   ---   20.9   20.5   20.5   20.9   568.7  0.00   0.0    55     1.18     67     0.0  0.00   0.0   0.000   0.027   27.9    43   14.2   27.8    0.03   349    1    100.0   15 
12/08/22   7.15   21.9   21.9   20.9    58   13.3   1.6   NNE   0.40   6.4   NNE   21.9   21.6   21.6   23.2   568.7  0.00   0.0   106     2.28    141     0.0  0.00   0.0   0.000   0.037   27.9    44   14.5   27.8    0.00   348    1    100.0   15 
12/08/22   7.30   23.7   23.7   21.9    57   14.7   3.2   NNE   0.80   6.4   NNE   23.7   24.1   24.1   27.1   568.7  0.00   0.0   180     3.87    216     0.0  0.00   0.0   0.000   0.056   27.9    44   14.5   27.8    0.00   351    1    100.0   15 
12/08/22   7.45   26.0   26.0   23.7    50   14.8   0.0   ---   0.00   0.0   ---   26.0   26.1   26.1   29.5   568.7  0.00   0.0   200     4.30    237     0.0  0.00   0.0   0.000   0.080   28.1    46   15.4   28.3    0.00   350    1    100.0   15 
12/08/22   8.00   26.8   26.8   26.0    48   14.9   0.0   ---   0.00   0.0   ---   26.8   26.8   26.8   30.7   568.7  0.00   0.0   241     5.18    338     0.0  0.00   0.0   0.000   0.089   28.3    47   15.9   28.8    0.13   350    1    100.0   15 
12/08/22   8.15   27.9   27.9   26.8    41   13.4   0.0   ---   0.00   0.0   ---   27.9   27.6   27.6   32.6   568.7  0.00   0.0   340     7.31    352     0.0  0.00   0.0   0.000   0.100   28.4    44   15.0   28.7    0.00   349    1    100.0   15 
12/08/22   8.30   28.6   28.6   27.9    37   12.4   0.0   ---   0.00   0.0   ---   28.6   28.2   28.2   32.8   568.7  0.00   0.0   316     6.79    336     0.0  0.00   0.0   0.000   0.106   28.7    43   14.9   28.9    0.00   351    1    100.0   15 
12/08/22   8.45   28.9   29.1   28.6    37   12.7   0.0     S   0.00   1.6     S   28.9   28.7   28.7   33.4   568.7  0.00   0.0   338     7.27    357     0.0  0.00   0.0   0.000   0.110   28.9    43   15.1   29.3    0.00   351    1    100.0   15 
12/08/22   9.00   29.3   29.3   28.9    38   13.5   0.0   ---   0.00   0.0   ---   29.3   29.2   29.2   34.3   568.7  0.00   0.0   397     8.54    506     0.0  0.00   0.0   0.000   0.114   29.0    42   14.8   29.3    0.23   348    1    100.0   15 
12/08/22   9.15   29.1   29.6   29.1    37   12.9   1.6     N   0.40   9.7     N   29.1   28.9   28.9   32.7   568.7  0.00   0.0   300     6.45    527     0.0  0.00   0.0   0.000   0.112   29.2    42   15.0   29.5    0.00   350    1    100.0   15 
12/08/22   9.30   28.7   29.2   28.7    37   12.5   3.2   NNE   0.80   9.7   NNW   28.7   28.4   28.4   31.9   568.7  0.00   0.0   291     6.26    592     0.0  0.00   0.0   0.000   0.108   29.4    41   14.8   29.6    0.00   350    1    100.0   15 
12/08/22   9.45   28.7   28.7   28.6    39   13.4   1.6     N   0.40   9.7     N   28.7   28.7   28.7   32.3   568.7  0.00   0.0   305     6.56    603     0.0  0.00   0.0   0.000   0.108   29.7    41   15.0   29.8    0.00   351    1    100.0   15 
12/08/22  10.00   29.2   29.3   28.8    38   13.4   6.4   NNE   1.61  17.7     N   29.2   29.1   29.1   35.1   568.7  0.00   0.0   619    13.31    686     0.3  0.03   0.7   0.000   0.113   29.9    41   15.2   30.1    0.30   350    1    100.0   15 
12/08/22  10.15   28.7   29.2   28.7    40   13.8   8.0   NNW   2.01  17.7    NW   28.7   28.8   28.8   32.3   568.7  0.00   0.0   323     6.95    691     0.2  0.02   0.8   0.000   0.108   30.0    41   15.3   30.2    0.00   350    1    100.0   15 
12/08/22  10.30   29.4   29.5   28.7    40   14.4   8.0   NNW   2.01  20.9     N   29.4   29.5   29.5   35.7   568.7  0.00   0.0   678    14.58    701     1.0  0.11   1.1   0.000   0.116   30.1    41   15.4   30.3    0.00   351    1    100.0   15 
12/08/22  10.45   29.9   29.9   29.4    39   14.5   3.2    NE   0.80  20.9    NE   29.9   29.9   29.9   36.1   568.7  0.00   0.0   656    14.11    677     1.0  0.11   1.4   0.000   0.121   30.2    42   15.9   30.6    0.00   351    1    100.0   15 
12/08/22  11.00   29.3   30.0   29.2    41   14.7   3.2   NNE   0.80  17.7    NE   29.3   29.5   29.5   35.7   568.7  0.00   0.0   686    14.75    700     1.2  0.13   1.7   0.000   0.115   30.3    41   15.6   30.6    0.46   350    1    100.0   15 
12/08/22  11.15   30.0   30.0   29.3    39   14.5   0.0     N   0.00   9.7   NNE   30.0   30.0   30.0   36.2   568.7  0.00   0.0   711    15.29    744     1.9  0.20   2.1   0.000   0.122   30.4    42   16.1   30.9    0.00   350    1    100.0   15 
12/08/22  11.30   30.6   30.7   30.0    40   15.5   0.0   ---   0.00   0.0   ---   30.6   30.8   30.8   37.1   568.7  0.00   0.0   690    14.84    868     2.1  0.22   2.7   0.000   0.128   30.6    43   16.6   31.2    0.00   351    1    100.0   15 
12/08/22  11.45   29.3   30.6   29.3    43   15.5   1.6     S   0.40   8.0   SSE   29.3   29.7   29.7   33.2   568.7  0.00   0.0   343     7.38    378     1.3  0.14   1.6   0.000   0.115   30.6    44   16.9   31.3    0.00   349    1    100.0   15 
12/08/22  12.00   29.2   29.3   29.1    44   15.7   0.0     S   0.00   6.4     S   29.2   29.7   29.7   31.8   568.7  0.00   0.0   229     4.92    309     0.1  0.01   0.7   0.000   0.113   30.4    43   16.5   31.0    0.33   351    1    100.0   15 
12/08/22  12.15   28.9   29.2   28.9    44   15.5   0.0   ---   0.00   0.0   ---   28.9   29.4   29.4   30.9   568.7  0.00   0.0   183     3.94    214     0.0  0.00   0.0   0.000   0.111   30.4    43   16.5   31.0    0.00   350    1    100.0   15 
12/08/22  12.30   28.8   28.9   28.7    45   15.7   0.0     S   0.00   6.4     S   28.8   29.4   29.4   31.5   568.7  0.00   0.0   226     4.86    341     0.1  0.01   0.5   0.000   0.109   30.3    43   16.4   30.9    0.00   350    1    100.0   15 
12/08/22  12.45   29.4   29.4   28.8    43   15.5   0.0   WSW   0.00   8.0    SW   29.4   29.8   29.8   33.2   568.7  0.00   0.0   336     7.22    410     0.9  0.10   1.5   0.000   0.115   30.3    44   16.7   31.0    0.00   350    1    100.0   15 
12/08/22  13.00   29.4   29.6   29.3    45   16.3   0.0    SW   0.00   3.2    SW   29.4   30.0   30.0   33.7   568.7  0.00   0.0   359     7.72    441     1.3  0.14   2.1   0.000   0.116   30.4    44   16.8   31.2    0.20   351    1    100.0   15 
12/08/22  13.15   29.4   29.8   29.4    47   16.9   0.0    SE   0.00   6.4    SE   29.4   30.1   30.1   34.0   568.7  0.00   0.0   374     8.04    450     1.6  0.17   2.7   0.000   0.115   30.6    45   17.3   31.4    0.00   351    1    100.0   15 
12/08/22  13.30   29.8   29.8   29.3    45   16.6   0.0   SSE   0.00   8.0   SSE   29.8   30.4   30.4   37.0   568.7  0.00   0.0   797    17.14    863     2.5  0.27   3.1   0.000   0.120   30.8    44   17.1   31.6    0.00   350    1    100.0   15 
12/08/22  13.45   30.0   30.3   29.8    44   16.4   3.2     S   0.80   9.7     S   30.0   30.5   30.5   37.1   568.7  0.00   0.0   789    16.97    821     2.9  0.31   3.1   0.000   0.122   31.0    45   17.7   31.9    0.00   350    1    100.0   15 
12/08/22  14.00   30.0   30.1   29.3    47   17.5   3.2     S   0.80  11.3     S   30.0   30.8   30.8   35.2   568.7  0.00   0.0   425     9.14    773     2.1  0.22   2.7   0.000   0.122   31.0    45   17.7   31.9    0.41   350    1    100.0   15 
12/08/22  14.15   30.0   30.1   29.8    44   16.4   3.2   SSE   0.80  11.3   SSE   30.0   30.5   30.5   36.9   568.7  0.00   0.0   742    15.96    789     2.6  0.28   2.8   0.000   0.122   31.4    44   17.7   32.4    0.00   350    1    100.0   15 
12/08/22  14.30   30.6   30.6   30.1    44   17.0   1.6     S   0.40   9.7     S   30.6   31.4   31.4   37.7   568.7  0.00   0.0   700    15.05    796     2.5  0.27   2.7   0.000   0.128   31.6    44   17.9   32.9    0.00   349    1    100.0   15 
12/08/22  14.45   30.7   30.7   30.4    47   18.1   3.2    SE   0.80   9.7   SSE   30.7   31.9   31.9   38.2   568.7  0.00   0.0   696    14.97    796     2.1  0.22   2.6   0.000   0.128   31.7    44   18.0   33.2    0.00   351    1    100.0   15 
12/08/22  15.00   30.3   30.7   30.2    45   17.0   0.0    SE   0.00   4.8   SSE   30.3   31.0   31.0   37.3   568.7  0.00   0.0   704    15.14    768     2.2  0.24   2.4   0.000   0.124   31.8    43   17.7   33.1    0.48   351    1    100.0   15 
12/08/22  15.15   30.7   31.0   30.2    40   15.5   1.6   SSE   0.40   6.4   NNE   30.7   30.8   30.8   37.2   568.7  0.00   0.0   742    15.96    777     2.3  0.25   2.3   0.000   0.128   31.9    44   18.2   33.4    0.00   350    1    100.0   15 
12/08/22  15.30   31.4   31.6   30.7    33   13.2   3.2   NNE   0.80  17.7     N   31.4   30.6   30.6   36.8   568.7  0.00   0.0   726    15.61    747     2.3  0.25   2.3   0.000   0.136   31.9    42   17.4   33.0    0.00   350    1    100.0   15 
12/08/22  15.45   31.3   31.3   31.2    34   13.5   8.0    NE   2.01  16.1   NNE   31.3   30.6   30.6   36.7   568.7  0.00   0.0   694    14.92    703     2.0  0.21   2.2   0.000   0.135   31.9    39   16.3   32.4    0.00   351    1    100.0   15 
12/08/22  16.00   31.2   31.4   31.2    34   13.4   4.8    NE   1.21  16.1    NE   31.2   30.4   30.4   36.5   568.7  0.00   0.0   661    14.21    677     1.8  0.19   1.8   0.000   0.134   31.9    39   16.3   32.4    0.53   351    1    100.0   15 
12/08/22  16.15   31.1   31.4   31.1    34   13.3   8.0     N   2.01  17.7     N   31.1   30.3   30.3   36.3   568.7  0.00   0.0   634    13.63    645     1.5  0.16   1.7   0.000   0.133   31.9    38   15.9   32.2    0.00   351    1    100.0   15 
12/08/22  16.30   31.6   31.7   31.1    33   13.4   3.2     N   0.80  17.7   NNW   31.6   30.9   30.9   36.9   568.7  0.00   0.0   594    12.77    617     1.2  0.13   1.2   0.000   0.138   32.1    38   16.0   32.4    0.00   348    1    100.0   15 
12/08/22  16.45   31.1   31.6   31.1    35   13.8   8.0     N   2.01  16.1   NNE   31.1   30.4   30.4   36.3   568.7  0.00   0.0   549    11.81    568     1.1  0.12   1.2   0.000   0.133   32.1    38   16.0   32.4    0.00   351    1    100.0   15 
12/08/22  17.00   31.1   31.2   30.9    35   13.8   6.4     N   1.61  16.1   NNE   31.1   30.4   30.4   36.2   568.7  0.00   0.0   519    11.16    534     0.9  0.10   0.9   0.000   0.133   32.1    38   16.0   32.4    0.46   351    1    100.0   15 
12/08/22  17.15   30.9   31.1   30.7    36   14.1   6.4   NNE   1.61  16.1    NE   30.9   30.4   30.4   36.2   568.7  0.00   0.0   483    10.39    499     0.8  0.09   0.8   0.000   0.131   32.2    38   16.1   32.5    0.00   351    1    100.0   15 
12/08/22  17.30   30.7   30.9   30.7    37   14.3   1.6   NNE   0.40  12.9   NNE   30.7   30.4   30.4   36.1   568.7  0.00   0.0   445     9.57    464     0.4  0.04   0.7   0.000   0.128   32.2    38   16.1   32.5    0.00   351    1    100.0   15 
12/08/22  17.45   30.7   30.9   30.6    36   13.9   1.6    NE   0.40   9.7    NE   30.7   30.3   30.3   35.7   568.7  0.00   0.0   402     8.64    424     0.0  0.00   0.0   0.000   0.129   32.2    38   16.1   32.5    0.00   350    1    100.0   15 
12/08/22  18.00   30.7   30.8   30.6    37   14.3   1.6   NNE   0.40   8.0     N   30.7   30.4   30.4   35.6   568.7  0.00   0.0   359     7.72    378     0.0  0.00   0.0   0.000   0.128   32.2    38   16.1   32.5    0.33   350    1    100.0   15 
12/08/22  18.15   30.8   31.0   30.7    38   14.8   1.6    NE   0.40   9.7     N   30.8   30.7   30.7   35.5   568.7  0.00   0.0   317     6.82    338     0.0  0.00   0.0   0.000   0.130   32.1    39   16.4   32.6    0.00   351    1    100.0   15 
12/08/22  18.30   30.6   30.8   30.6    42   16.2   1.6   NNE   0.40   8.0   NNE   30.6   31.1   31.1   35.6   568.7  0.00   0.0   276     5.93    295     0.0  0.00   0.0   0.000   0.127   31.9    39   16.3   32.4    0.00   351    1    100.0   15 
12/08/22  18.45   30.1   30.6   30.0    41   15.4   1.6    NE   0.40   9.7    NE   30.1   30.3   30.3   34.2   568.7  0.00   0.0   235     5.05    255     0.0  0.00   0.0   0.000   0.122   31.9    41   17.1   32.8    0.00   347    1    100.0   15 
12/08/22  19.00   30.3   30.3   29.9    42   15.9   0.0     N   0.00   8.0     N   30.3   30.7   30.7   33.9   568.7  0.00   0.0   192     4.13    213     0.0  0.00   0.0   0.000   0.124   31.8    42   17.3   32.8    0.20   350    1    100.0   15 
12/08/22  19.15   29.8   30.3   29.8    45   16.6   0.0    NE   0.00   4.8   NNE   29.8   30.4   30.4   32.8   568.7  0.00   0.0   143     3.07    167     0.0  0.00   0.0   0.000   0.120   31.8    41   17.0   32.7    0.00   350    1    100.0   15 
12/08/22  19.30   29.7   29.8   29.6    46   16.8   0.0   NNE   0.00   6.4   NNE   29.7   30.3   30.3   31.7   568.7  0.00   0.0    89     1.91    118     0.0  0.00   0.0   0.000   0.118   31.7    42   17.2   32.7    0.00   352    1    100.0   15 
12/08/22  19.45   29.2   29.7   29.2    48   17.0   0.0   ---   0.00   0.0   ---   29.2   30.0   30.0   29.1   568.7  0.00   0.0    29     0.62     33     0.0  0.00   0.0   0.000   0.113   31.7    43   17.6   32.9    0.00   347    1    100.0   15 
12/08/22  20.00   28.6   29.1   28.6    47   16.1   0.0   ---   0.00   0.0   ---   28.6   29.1   29.1   28.1   568.7  0.00   0.0    20     0.43     25     0.0  0.00   0.0   0.000   0.106   31.6    43   17.5   32.7    0.05   351    1    100.0   15 
12/08/22  20.15   28.0   28.6   28.0    46   15.3   0.0   ---   0.00   0.0   ---   28.0   28.2   28.2   26.9   568.7  0.00   0.0    10     0.22     12     0.0  0.00   0.0   0.000   0.101   31.5    42   17.0   32.3    0.00   349    1    100.0   15 
12/08/22  20.30   27.3   28.0   27.3    46   14.6   0.0   ---   0.00   0.0   ---   27.3   27.2   27.2   25.8   568.7  0.00   0.0     2     0.04      7     0.0  0.00   0.0   0.000   0.093   31.3    41   16.5   31.7    0.00   350    1    100.0   15 
12/08/22  20.45   26.8   27.3   26.8    46   14.2   0.0   ---   0.00   0.0   ---   26.8   26.7   26.7   25.3   568.7  0.00   0.0     0     0.00      0     0.0  0.00   0.0   0.000   0.089   31.2    41   16.4   31.4    0.00   351    1    100.0   15 
12/08/22  21.00   26.2   26.8   26.2    50   15.0   0.0   ---   0.00   0.0   ---   26.2   26.3   26.3   24.9   568.7  0.00   0.0     0     0.00      0     0.0  0.00   0.0   0.000   0.082   31.0    41   16.2   31.3    0.03   351    1    100.0   15 
12/08/22  21.15   25.7   26.2   25.7    51   14.8   0.0   ---   0.00   0.0   ---   25.7   25.8   25.8   24.4   568.7  0.00   0.0     0     0.00      0     0.0  0.00   0.0   0.000   0.077   30.9    42   16.5   31.3    0.00   350    1    100.0   15 
12/08/22  21.30   25.3   25.7   25.3    53   15.0   0.0   ---   0.00   0.0   ---   25.3   25.4   25.4   24.1   568.7  0.00   0.0     0     0.00      0     0.0  0.00   0.0   0.000   0.072   30.8    42   16.4   31.2    0.00   351    1    100.0   15 
12/08/22  21.45   24.5   25.3   24.5    56   15.1   0.0   ---   0.00   0.0   ---   24.5   24.7   24.7   23.4   568.7  0.00   0.0     0     0.00      0     0.0  0.00   0.0   0.000   0.064   30.7    43   16.7   31.3    0.00   351    1    100.0   15 
12/08/22  22.00   24.1   24.5   24.1    57   15.1   0.0   ---   0.00   0.0   ---   24.1   24.4   24.4   23.1   568.7  0.00   0.0     0     0.00      0     0.0  0.00   0.0   0.000   0.060   30.4    43   16.5   31.0    0.05   351    1    100.0   15 
12/08/22  22.15   24.2   24.2   24.1    57   15.1   0.0   ---   0.00   0.0   ---   24.2   24.5   24.5   23.2   568.7  0.00   0.0     0     0.00      0     0.0  0.00   0.0   0.000   0.061   30.2    43   16.3   30.7    0.00   351    1    100.0   15 
12/08/22  22.30   24.8   24.8   24.2    56   15.5   0.0   ---   0.00   0.0   ---   24.8   25.1   25.1   23.7   568.7  0.00   0.0     0     0.00      0     0.0  0.00   0.0   0.000   0.068   30.0    43   16.1   30.4    0.00   351    1    100.0   15 
12/08/22  22.45   25.6   25.6   24.8    58   16.7   0.0   NNE   0.00   9.7   NNE   25.6   25.9   25.9   24.7   568.7  0.00   0.0     0     0.00      0     0.0  0.00   0.0   0.000   0.075   29.9    44   16.3   30.4    0.00   352    1    100.0   15 
12/08/22  23.00   26.9   26.9   25.6    56   17.4   9.7   NNE   2.41  17.7   NNE   26.9   27.4   27.4   26.2   568.7  0.00   0.0     0     0.00      0     0.0  0.00   0.0   0.000   0.089   30.1    45   16.9   30.8    0.05   350    1    100.0   15 
12/08/22  23.15   27.0   27.1   26.9    57   17.8   4.8    NE   1.21  17.7   NNE   27.0   27.6   27.6   26.4   568.7  0.00   0.0     0     0.00      0     0.0  0.00   0.0   0.000   0.090   30.2    47   17.7   31.2    0.00   349    1    100.0   15 
12/08/22  23.30   27.0   27.1   26.8    56   17.5   0.0   NNE   0.00   6.4   NNE   27.0   27.6   27.6   26.3   568.7  0.00   0.0     0     0.00      0     0.0  0.00   0.0   0.000   0.090   30.3    47   17.8   31.4    0.00   350    1    100.0   15 
12/08/22  23.45   26.7   27.2   26.7    58   17.8   0.0   NNE   0.00   8.0     N   26.7   27.3   27.3   26.1   568.7  0.00   0.0     0     0.00      0     0.0  0.00   0.0   0.000   0.087   30.3    47   17.8   31.4    0.00   351    1    100.0   15 
13/08/22  00.00   26.7   26.7   26.4    60   18.3   1.6   NNW   0.40   9.7   NNW   26.7   27.4   27.4   26.2   568.7  0.00   0.0     0     0.00      0     0.0  0.00   0.0   0.000   0.087   30.3    48   18.1   31.6    0.05   349    1    100.0   15 
13/08/22   0.15   26.5   26.7   26.5    61   18.4   0.0   NNW   0.00   8.0   NNW   26.5   27.3   27.3   26.1   568.7  0.00   0.0     0     0.00      0     0.0  0.00   0.0   0.000   0.085   30.3    49   18.4   31.7    0.00   347    1    100.0   15 
13/08/22   0.30   26.7   26.8   26.5    61   18.6   0.0     N   0.00   8.0     N   26.7   27.6   27.6   26.4   568.7  0.00   0.0     0     0.00      0     0.0  0.00   0.0   0.000   0.087   30.3    49   18.4   31.7    0.00   349    1    100.0   15 
13/08/22   0.45   26.8   26.8   26.7    61   18.7   1.6    NW   0.40   9.7     N   26.8   27.7   27.7   26.6   568.7  0.00   0.0     0     0.00      0     0.0  0.00   0.0   0.000   0.089   30.3    50   18.7   31.8    0.00   351    1    100.0   15 
13/08/22   1.00   26.6   26.8   26.6    63   19.0   1.6   NNW   0.40  11.3    NW   26.6   27.6   27.6   26.4   568.7  0.00   0.0     0     0.00      0     0.0  0.00   0.0   0.000   0.086   30.3    50   18.7   31.8    0.05   351    1    100.0   15 
13/08/22   1.15   26.3   26.7   26.3    66   19.5   0.0   NNW   0.00   9.7   NNW   26.3   27.4   27.4   26.3   568.7  0.00   0.0     0     0.00      0     0.0  0.00   0.0   0.000   0.083   30.2    51   19.0   31.8    0.00   349    1    100.0   15 
13/08/22   1.30   26.1   26.4   26.1    67   19.5   0.0     N   0.00   6.4     N   26.1   27.2   27.2   26.1   568.7  0.00   0.0     0     0.00      0     0.0  0.00   0.0   0.000   0.081   30.2    53   19.6   32.2    0.00   350    1    100.0   15 
13/08/22   1.45   26.2   26.2   26.1    61   18.1   1.6   NNE   0.40   8.0   NNE   26.2   26.9   26.9   25.8   568.7  0.00   0.0     0     0.00      0     0.0  0.00   0.0   0.000   0.082   30.2    53   19.6   32.2    0.00   351    1    100.0   15 
13/08/22   2.00   25.9   26.3   25.9    56   16.5   0.0    NE   0.00   6.4    NE   25.9   26.3   26.3   25.1   568.7  0.00   0.0     0     0.00      0     0.0  0.00   0.0   0.000   0.079   30.1    51   18.9   31.6    0.05   350    1    100.0   15 
13/08/22   2.15   25.8   25.9   25.7    54   15.8   0.0   ---   0.00   0.0   ---   25.8   26.0   26.0   24.7   568.7  0.00   0.0     0     0.00      0     0.0  0.00   0.0   0.000   0.078   30.0    48   17.8   31.0    0.00   351    1    100.0   15 
13/08/22   2.30   25.7   25.8   25.6    54   15.7   0.0     N   0.00   3.2     N   25.7   25.9   25.9   24.6   568.7  0.00   0.0     0     0.00      0     0.0  0.00   0.0   0.000   0.076   29.9    47   17.4   30.7    0.00   350    1    100.0   15 
13/08/22   2.45   25.2   25.6   25.2    55   15.5   0.0   ---   0.00   0.0   ---   25.2   25.4   25.4   24.1   568.7  0.00   0.0     0     0.00      0     0.0  0.00   0.0   0.000   0.072   29.8    47   17.3   30.6    0.00   351    1    100.0   15 
13/08/22   3.00   24.6   25.2   24.6    57   15.5   0.0   ---   0.00   0.0   ---   24.6   24.9   24.9   23.6   568.7  0.00   0.0     0     0.00      0     0.0  0.00   0.0   0.000   0.065   29.7    46   16.8   30.3    0.05   351    1    100.0   15 
13/08/22   3.15   24.5   24.6   24.4    57   15.4   0.0   ---   0.00   0.0   ---   24.5   24.8   24.8   23.4   568.7  0.00   0.0     0     0.00      0     0.0  0.00   0.0   0.000   0.064   29.6    46   16.7   30.2    0.00   350    1    100.0   15 
13/08/22   3.30   24.0   24.5   23.9    60   15.8   0.0   NNW   0.00   8.0   NNW   24.0   24.5   24.5   23.2   568.7  0.00   0.0     0     0.00      0     0.0  0.00   0.0   0.000   0.059   29.6    46   16.7   30.2    0.00   351    1    100.0   15 
13/08/22   3.45   24.1   24.2   23.9    60   15.9   0.0   ---   0.00   0.0   ---   24.1   24.6   24.6   23.2   568.7  0.00   0.0     0     0.00      0     0.0  0.00   0.0   0.000   0.060   29.4    47   17.0   30.2    0.00   351    1    100.0   15 
13/08/22   4.00   23.9   24.1   23.8    60   15.7   0.0   ---   0.00   0.0   ---   23.9   24.4   24.4   23.1   568.7  0.00   0.0     0     0.00      0     0.0  0.00   0.0   0.000   0.058   29.3    47   16.9   30.1    0.05   350    1    100.0   15 
13/08/22   4.15   24.2   24.3   23.9    59   15.6   0.0    NE   0.00   4.8    NE   24.2   24.6   24.6   23.2   568.7  0.00   0.0     0     0.00      0     0.0  0.00   0.0   0.000   0.061   29.3    47   16.9   30.1    0.00   348    1    100.0   15 
13/08/22   4.30   23.7   24.2   23.7    60   15.4   0.0   ---   0.00   0.0   ---   23.7   24.1   24.1   22.8   568.7  0.00   0.0     0     0.00      0     0.0  0.00   0.0   0.000   0.056   29.3    47   16.9   30.1    0.00   349    1    100.0   15 
13/08/22   4.45   23.9   23.9   23.5    59   15.4   0.0   ---   0.00   0.0   ---   23.9   24.3   24.3   23.0   568.7  0.00   0.0     0     0.00      0     0.0  0.00   0.0   0.000   0.058   29.2    47   16.7   29.9    0.00   350    1    100.0   15 
13/08/22   5.00   23.9   23.9   23.8    59   15.4   0.0   ---   0.00   0.0   ---   23.9   24.4   24.4   23.1   568.7  0.00   0.0     0     0.00      0     0.0  0.00   0.0   0.000   0.058   29.1    47   16.6   29.9    0.05   346    1    100.0   15 
13/08/22   5.15   24.3   24.3   23.9    59   15.8   0.0   ESE   0.00   3.2   ESE   24.3   24.7   24.7   23.4   568.7  0.00   0.0     0     0.00      0     0.0  0.00   0.0   0.000   0.063   28.9    47   16.4   29.7    0.00   350    1    100.0   15 
13/08/22   5.30   24.5   24.6   24.4    58   15.7   1.6   ESE   0.40   8.0   ESE   24.5   24.8   24.8   23.4   568.7  0.00   0.0     0     0.00      0     0.0  0.00   0.0   0.000   0.064   28.8    47   16.3   29.5    0.00   349    1    100.0   15 
13/08/22   5.45   24.2   24.6   24.2    60   15.9   0.0   ---   0.00   0.0   ---   24.2   24.6   24.6   23.3   568.7  0.00   0.0     0     0.00      0     0.0  0.00   0.0   0.000   0.061   28.9    47   16.4   29.7    0.00   351    1    100.0   15 
13/08/22   6.00   23.8   24.2   23.8    59   15.3   0.0   ---   0.00   0.0   ---   23.8   24.3   24.3   22.9   568.7  0.00   0.0     0     0.00      0     0.0  0.00   0.0   0.000   0.057   29.0    47   16.5   29.8    0.05   351    1    100.0   15 
13/08/22   6.15   23.6   23.8   23.6    61   15.6   0.0   ---   0.00   0.0   ---   23.6   24.1   24.1   22.7   568.7  0.00   0.0     0     0.00      0     0.0  0.00   0.0   0.000   0.054   28.9    47   16.4   29.7    0.00   350    1    100.0   15 
13/08/22   6.30   22.9   23.6   22.8    62   15.2   0.0   ---   0.00   0.0   ---   22.9   23.2   23.2   21.9   568.7  0.00   0.0     2     0.04     11     0.0  0.00   0.0   0.000   0.047   28.9    47   16.4   29.7    0.00   352    1    100.0   15 
13/08/22   6.45   22.8   22.9   22.8    63   15.4   0.0   ---   0.00   0.0   ---   22.8   23.2   23.2   22.0   568.7  0.00   0.0    15     0.32     19     0.0  0.00   0.0   0.000   0.047   28.9    47   16.4   29.7    0.00   351    1    100.0   15 
13/08/22   7.00   23.3   23.3   22.8    63   15.9   0.0   NNW   0.00   8.0   NNW   23.3   23.9   23.9   23.7   568.7  0.00   0.0    26     0.56     37     0.0  0.00   0.0   0.000   0.052   28.8    48   16.7   29.6    0.03   350    1    100.0   15 
13/08/22   7.15   23.8   23.8   23.3    61   15.9   1.6    NW   0.40   9.7    NW   23.8   24.4   24.4   24.4   568.7  0.00   0.0    33     0.71     42     0.0  0.00   0.0   0.000   0.057   28.7    48   16.6   29.4    0.00   349    1    100.0   15 
13/08/22   7.30   24.1   24.1   23.8    61   16.1   0.0   ---   0.00   0.0   ---   24.1   24.6   24.6   25.2   568.7  0.00   0.0    59     1.27    107     0.0  0.00   0.0   0.000   0.060   28.8    48   16.7   29.6    0.00   352    1    100.0   15 
13/08/22   7.45   24.6   24.6   24.1    60   16.3   0.0   WNW   0.00   8.0   WNW   24.6   25.0   25.0   27.0   568.7  0.00   0.0   125     2.69    155     0.0  0.00   0.0   0.000   0.065   28.6    49   16.8   29.3    0.00   349    1    100.0   15 
13/08/22   8.00   25.7   25.7   24.6    56   16.2   0.0   ---   0.00   0.0   ---   25.7   26.0   26.0   29.1   568.7  0.00   0.0   187     4.02    216     0.0  0.00   0.0   0.000   0.076   28.6    49   16.8   29.3    0.08   348    1    100.0   15 
13/08/22   8.15   26.0   26.1   25.6    56   16.5   0.0   ---   0.00   0.0   ---   26.0   26.4   26.4   29.7   568.7  0.00   0.0   204     4.39    250     0.0  0.00   0.0   0.000   0.080   28.8    49   17.0   29.6    0.00   351    1    100.0   15 
13/08/22   8.30   26.1   26.2   25.9    55   16.3   0.0   ---   0.00   0.0   ---   26.1   26.4   26.4   30.6   568.7  0.00   0.0   274     5.89    301     0.0  0.00   0.0   0.000   0.080   28.9    49   17.1   29.8    0.00   351    1    100.0   15 
13/08/22   8.45   25.9   26.1   25.9    59   17.3   1.6   NNE   0.40  12.9   NNE   25.9   26.4   26.4   31.1   568.7  0.00   0.0   318     6.84    330     0.0  0.00   0.0   0.000   0.079   29.1    49   17.3   30.1    0.00   351    1    100.0   15 
13/08/22   9.00   25.4   25.9   25.3    64   18.1   4.8   NNE   1.21  16.1     N   25.4   26.1   26.1   31.1   568.7  0.00   0.0   362     7.78    381     0.0  0.00   0.0   0.000   0.073   29.2    51   18.0   30.3    0.20   351    1    100.0   15 
13/08/22   9.15   25.5   25.5   25.2    64   18.2   3.2   NNE   0.80  12.9     N   25.5   26.2   26.2   31.5   568.7  0.00   0.0   402     8.64    446     0.0  0.00   0.0   0.000   0.075   29.3    52   18.5   30.6    0.00   351    1    100.0   15 
13/08/22   9.30   25.7   25.7   25.4    64   18.4   3.2   NNE   0.80  11.3   NNE   25.7   26.5   26.5   32.0   568.7  0.00   0.0   443     9.53    469     0.0  0.00   0.0   0.000   0.077   29.3    52   18.5   30.6    0.00   351    1    100.0   15 
13/08/22   9.45   25.8   25.8   25.7    65   18.7   1.6   NNE   0.40   9.7   NNE   25.8   26.6   26.6   32.3   568.7  0.00   0.0   485    10.43    506     0.0  0.00   0.0   0.000   0.078   29.4    53   18.9   30.8    0.00   352    1    100.0   15 
13/08/22  10.00   25.9   26.0   25.8    64   18.6   0.0    NE   0.00   6.4   NNE   25.9   26.7   26.7   32.3   568.7  0.00   0.0   486    10.45    536     0.1  0.01   0.5   0.000   0.079   29.4    53   18.9   30.8    0.30   350    1    100.0   15 
13/08/22  10.15   26.6   26.6   25.8    65   19.5   0.0   SSW   0.00  11.3   SSW   26.6   27.7   27.7   33.8   568.7  0.00   0.0   557    11.98    571     0.8  0.09   0.9   0.000   0.086   29.6    53   19.0   31.0    0.00   351    1    100.0   15 
13/08/22  10.30   26.7   27.0   26.7    64   19.3   1.6     S   0.40   9.7   SSE   26.7   27.8   27.8   33.9   568.7  0.00   0.0   601    12.92    617     0.8  0.09   1.1   0.000   0.087   29.3    55   19.4   30.9    0.00   349    1    100.0   15 
13/08/22  10.45   26.7   26.8   26.4    64   19.3   1.6     S   0.40  11.3   SSE   26.7   27.7   27.7   34.0   568.7  0.00   0.0   639    13.74    661     1.2  0.13   2.2   0.000   0.087   29.1    56   19.4   30.8    0.00   352    1    100.0   15 
13/08/22  11.00   26.9   27.2   26.7    63   19.2   3.2     S   0.80  11.3   SSE   26.9   27.9   27.9   34.4   568.7  0.00   0.0   696    14.97    749     1.5  0.16   1.8   0.000   0.089   29.0    56   19.3   30.6    0.41   350    1    100.0   15 
13/08/22  11.15   27.3   27.3   26.8    63   19.7   1.6   SSE   0.40   9.7    SE   27.3   28.6   28.6   35.2   568.7  0.00   0.0   735    15.80    751     1.9  0.20   2.1   0.000   0.094   29.1    56   19.4   30.8    0.00   347    1    100.0   15 
13/08/22  11.30   27.4   27.7   27.3    55   17.6   1.6   NNE   0.40  14.5   NNE   27.4   28.1   28.1   34.5   568.7  0.00   0.0   776    16.69    814     2.3  0.25   2.5   0.000   0.095   29.4    53   18.9   30.8    0.00   350    1    100.0   15 
13/08/22  11.45   27.4   27.7   27.4    60   18.9   1.6   NNE   0.40  11.3    NE   27.4   28.4   28.4   35.0   568.7  0.00   0.0   799    17.18    812     2.7  0.29   2.9   0.000   0.094   29.7    53   19.1   31.2    0.00   351    1    100.0   15 
13/08/22  12.00   27.9   28.0   26.9    58   18.9   4.8     E   1.21  16.1    SE   27.9   29.1   29.1   35.6   568.7  0.00   0.0   828    17.80    851     3.0  0.32   3.0   0.000   0.100   29.9    53   19.3   31.6    0.51   351    1    100.0   15 
13/08/22  12.15   27.4   27.9   27.2    60   18.9   4.8     S   1.21  14.5     S   27.4   28.4   28.4   34.8   568.7  0.00   0.0   682    14.66    872     2.2  0.24   3.0   0.000   0.094   29.8    53   19.2   31.3    0.00   348    1    100.0   15 
13/08/22  12.30   26.9   27.6   26.9    61   18.8   1.6   SSW   0.40  17.7   SSW   26.9   27.9   27.9   31.2   568.7  0.00   0.0   314     6.75    406     1.3  0.14   3.2   0.000   0.090   29.7    53   19.1   31.2    0.00   350    1    100.0   15 
13/08/22  12.45   27.2   27.2   26.9    64   19.8   1.6     S   0.40  11.3     S   27.2   28.5   28.5   35.1   568.7  0.00   0.0   857    18.43    954     2.8  0.30   3.5   0.000   0.093   29.7    54   19.4   31.3    0.00   350    1    100.0   15 
13/08/22  13.00   26.8   27.4   26.8    64   19.4   1.6    SE   0.40  14.5    SE   26.8   27.9   27.9   32.3   568.7  0.00   0.0   416     8.95   1037     1.4  0.15   3.6   0.000   0.089   29.9    55   19.9   31.8    0.38   350    1    100.0   15 
13/08/22  13.15   27.2   27.2   26.7    61   19.0   1.6     S   0.40   9.7   SSW   27.2   28.3   28.3   31.9   568.7  0.00   0.0   348     7.48    965     1.8  0.19   3.7   0.000   0.093   29.8    55   19.8   31.7    0.00   350    1    100.0   15 
13/08/22  13.30   27.7   27.7   27.2    62   19.7   1.6     S   0.40  11.3   SSW   27.7   29.1   29.1   34.7   568.7  0.00   0.0   562    12.08    967     2.5  0.27   3.6   0.000   0.097   29.9    54   19.6   31.7    0.00   351    1    100.0   15 
13/08/22  13.45   27.2   27.8   27.2    62   19.3   4.8   SSW   1.21  16.1   SSW   27.2   28.3   28.3   34.8   568.7  0.00   0.0   858    18.45    877     3.4  0.36   3.5   0.000   0.092   29.9    55   19.9   31.8    0.00   350    1    100.0   15 
13/08/22  14.00   27.7   27.7   27.1    62   19.7   3.2   SSW   0.80  16.1   SSW   27.7   29.1   29.1   35.8   568.7  0.00   0.0   801    17.22    918     3.1  0.33   3.5   0.000   0.097   29.9    55   19.9   31.8    0.46   351    1    100.0   15 
13/08/22  14.15   27.2   27.7   27.2    63   19.6   3.2   SSW   0.80  14.5     S   27.2   28.4   28.4   34.6   568.7  0.00   0.0   637    13.70    882     2.5  0.27   3.3   0.000   0.093   29.9    56   20.2   32.1    0.00   350    1    100.0   15 
13/08/22  14.30   27.7   27.9   27.2    62   19.8   0.0     S   0.00  11.3     S   27.7   29.1   29.1   33.8   568.7  0.00   0.0   449     9.65    777     2.0  0.21   2.9   0.000   0.098   29.9    55   19.9   31.8    0.00   350    1    100.0   15 
13/08/22  14.45   27.4   28.0   27.4    62   19.5   3.2   SSW   0.80  19.3   SSW   27.4   28.7   28.7   34.0   568.7  0.00   0.0   508    10.92    865     2.2  0.24   3.0   0.000   0.095   30.1    55   20.1   32.3    0.00   351    1    100.0   15 
13/08/22  15.00   27.8   28.0   27.3    62   19.8   3.2   SSW   0.80  17.7    SW   27.8   29.2   29.2   35.7   568.7  0.00   0.0   709    15.25    768     2.4  0.26   2.7   0.000   0.098   30.3    54   20.0   32.6    0.41   349    1    100.0   15 
13/08/22  15.15   26.9   27.9   26.9    61   18.8   4.8   SSW   1.21  22.5   SSW   26.9   27.9   27.9   34.1   568.7  0.00   0.0   652    14.02    814     2.0  0.21   2.5   0.000   0.090   30.4    53   19.8   32.6    0.00   351    1    100.0   15 
13/08/22  15.30   26.9   27.2   26.8    62   19.0   4.8    SW   1.21  19.3    SW   26.9   27.9   27.9   32.0   568.7  0.00   0.0   372     8.00    826     0.9  0.10   2.0   0.000   0.090   30.2    53   19.6   32.2    0.00   351    1    100.0   15 
13/08/22  15.45   27.1   27.2   26.7    60   18.7   1.6    SW   0.40  16.1     W   27.1   28.0   28.0   30.7   568.7  0.00   0.0   251     5.40    357     0.1  0.01   0.8   0.000   0.091   30.1    53   19.5   31.9    0.00   349    1    100.0   15 
13/08/22  16.00   27.1   27.4   27.1    60   18.6   3.2   SSW   0.80  19.3     S   27.1   27.9   27.9   31.7   568.7  0.00   0.0   331     7.12    371     0.4  0.04   1.4   0.000   0.091   30.1    52   19.2   31.8    0.30   351    1    100.0   15 
13/08/22  16.15   28.0   28.1   27.0    57   18.7   1.6   SSW   0.40  14.5   SSW   28.0   29.1   29.1   34.6   568.7  0.00   0.0   501    10.77    717     0.7  0.07   1.1   0.000   0.101   30.2    52   19.3   32.0    0.00   351    1    100.0   15 
13/08/22  16.30   27.9   28.1   27.6    57   18.6   1.6    SW   0.40  14.5   SSW   27.9   29.0   29.0   32.7   568.7  0.00   0.0   312     6.71    390     0.0  0.00   0.5   0.000   0.100   30.2    51   19.0   31.8    0.00   350    1    100.0   15 
13/08/22  16.45   28.2   28.2   27.8    56   18.6   1.6    SW   0.40  14.5    SW   28.2   29.2   29.2   35.1   568.7  0.00   0.0   507    10.90    677     0.3  0.03   0.6   0.000   0.102   30.3    51   19.1   32.1    0.00   349    1    100.0   15 
13/08/22  17.00   27.9   28.2   27.8    55   18.1   4.8   SSW   1.21  19.3    SW   27.9   28.8   28.8   34.8   568.7  0.00   0.0   509    10.94    591     0.0  0.00   0.0   0.000   0.100   30.4    50   18.8   32.1    0.33   348    1    100.0   15 
13/08/22  17.15   28.2   28.3   27.9    56   18.6   3.2    SW   0.80  19.3   WSW   28.2   29.2   29.2   35.3   568.7  0.00   0.0   498    10.71    513     0.0  0.00   0.0   0.000   0.102   30.6    50   19.0   32.3    0.00   352    1    100.0   15 
13/08/22  17.30   28.3   28.3   28.1    57   19.0   3.2    SW   0.80  11.3   SSW   28.3   29.6   29.6   35.4   568.7  0.00   0.0   441     9.48    469     0.0  0.00   0.0   0.000   0.104   30.7    50   19.1   32.4    0.00   350    1    100.0   15 
13/08/22  17.45   28.3   28.8   28.3    58   19.2   1.6   SSW   0.40  11.3   SSW   28.3   29.6   29.6   35.2   568.7  0.00   0.0   403     8.67    420     0.0  0.00   0.0   0.000   0.104   30.8    51   19.5   32.8    0.00   351    1    100.0   15 
13/08/22  18.00   28.1   28.6   28.1    59   19.3   1.6    SW   0.40  14.5    SW   28.1   29.4   29.4   34.8   568.7  0.00   0.0   362     7.78    381     0.0  0.00   0.0   0.000   0.102   30.8    51   19.5   32.8    0.30   349    1    100.0   15 
13/08/22  18.15   27.8   28.1   27.7    61   19.6   3.2    SW   0.80  16.1   WSW   27.8   29.1   29.1   34.2   568.7  0.00   0.0   317     6.82    339     0.0  0.00   0.0   0.000   0.098   30.7    52   19.7   32.8    0.00   350    1    100.0   15 
13/08/22  18.30   27.5   27.8   27.5    61   19.3   3.2    SW   0.80  17.7    SW   27.5   28.7   28.7   30.8   568.7  0.00   0.0   131     2.82    271     0.0  0.00   0.0   0.000   0.095   30.4    52   19.5   32.4    0.00   350    1    100.0   15 
13/08/22  18.45   27.6   27.7   27.5    62   19.7   1.6    SW   0.40   9.7   WSW   27.6   28.9   28.9   31.8   568.7  0.00   0.0   158     3.40    225     0.0  0.00   0.0   0.000   0.097   30.2    53   19.6   32.2    0.00   350    1    100.0   15 
13/08/22  19.00   27.3   27.6   27.2    63   19.6   3.2    SW   0.80  16.1   WSW   27.3   28.5   28.5   32.0   568.7  0.00   0.0   192     4.13    213     0.0  0.00   0.0   0.000   0.093   30.1    54   19.8   32.1    0.15   350    1    100.0   15 
13/08/22  19.15   26.9   27.3   26.9    64   19.5   3.2    SW   0.80  16.1   SSW   26.9   28.1   28.1   30.6   568.7  0.00   0.0   143     3.07    167     0.0  0.00   0.0   0.000   0.089   29.9    54   19.6   31.7    0.00   350    1    100.0   15 
13/08/22  19.30   26.9   26.9   26.8    64   19.5   0.0   WSW   0.00  11.3   WSW   26.9   28.1   28.1   29.4   568.7  0.00   0.0    85     1.83    114     0.0  0.00   0.0   0.000   0.089   29.8    55   19.8   31.7    0.00   350    1    100.0   15 
13/08/22  19.45   26.5   26.9   26.5    65   19.4   0.0    SW   0.00   4.8   SSW   26.5   27.6   27.6   26.7   568.7  0.00   0.0    25     0.54     28     0.0  0.00   0.0   0.000   0.085   29.8    55   19.8   31.7    0.00   351    1    100.0   15 
13/08/22  20.00   26.4   26.5   26.3    65   19.3   0.0   ---   0.00   0.0   ---   26.4   27.4   27.4   26.5   568.7  0.00   0.0    18     0.39     21     0.0  0.00   0.0   0.000   0.084   29.8    55   19.8   31.7    0.05   348    1    100.0   15 
13/08/22  20.15   26.2   26.4   26.2    65   19.1   0.0   ---   0.00   0.0   ---   26.2   27.1   27.1   26.1   568.7  0.00   0.0     8     0.17     12     0.0  0.00   0.0   0.000   0.082   29.8    55   19.8   31.7    0.00   349    1    100.0   15 
13/08/22  20.30   25.8   26.2   25.8    66   19.0   0.0   ---   0.00   0.0   ---   25.8   26.8   26.8   25.7   568.7  0.00   0.0     1     0.02      5     0.0  0.00   0.0   0.000   0.078   29.7    55   19.7   31.4    0.00   349    1    100.0   15 
13/08/22  20.45   25.1   25.8   25.1    63   17.5   0.0   ---   0.00   0.0   ---   25.1   25.7   25.7   24.4   568.7  0.00   0.0     0     0.00      0     0.0  0.00   0.0   0.000   0.070   29.7    55   19.7   31.4    0.00   351    1    100.0   15 
13/08/22  21.00   24.7   25.1   24.7    63   17.2   0.0   ---   0.00   0.0   ---   24.7   25.2   25.2   24.0   568.7  0.00   0.0     0     0.00      0     0.0  0.00   0.0   0.000   0.066   29.7    52   18.8   31.1    0.00   350    1    100.0   15 
13/08/22  21.15   24.3   24.7   24.3    68   18.0   0.0   ---   0.00   0.0   ---   24.3   25.2   25.2   24.1   568.7  0.00   0.0     0     0.00      0     0.0  0.00   0.0   0.000   0.063   29.4    52   18.6   30.7    0.00   349    1    100.0   15 
13/08/22  21.30   24.7   24.7   24.3    70   18.9   0.0     N   0.00   9.7   NNE   24.7   25.8   25.8   24.6   568.7  0.00   0.0     0     0.00      0     0.0  0.00   0.0   0.000   0.067   29.3    55   19.4   30.9    0.00   348    1    100.0   15 
13/08/22  21.45   25.0   25.1   24.7    70   19.1   0.0     N   0.00   1.6     N   25.0   26.1   26.1   24.9   568.7  0.00   0.0     0     0.00      0     0.0  0.00   0.0   0.000   0.069   29.3    56   19.6   31.1    0.00   350    1    100.0   15 
13/08/22  22.00   24.9   25.1   24.9    70   19.0   1.6   NNW   0.40   8.0     N   24.9   25.9   25.9   24.8   568.7  0.00   0.0     0     0.00      0     0.0  0.00   0.0   0.000   0.068   29.3    57   19.9   31.2    0.03   351    1    100.0   15 
13/08/22  22.15   24.0   24.9   24.0    64   16.8   0.0     N   0.00   4.8     N   24.0   24.7   24.7   23.4   568.7  0.00   0.0     0     0.00      0     0.0  0.00   0.0   0.000   0.059   29.2    57   19.8   31.1    0.00   350    1    100.0   15 
13/08/22  22.30   23.6   24.0   23.6    62   15.9   0.0    NW   0.00   3.2    NW   23.6   24.2   24.2   22.9   568.7  0.00   0.0     0     0.00      0     0.0  0.00   0.0   0.000   0.055   29.1    51   17.9   30.2    0.00   349    1    100.0   15 
13/08/22  22.45   23.8   23.8   23.2    69   17.8   0.0   ---   0.00   0.0   ---   23.8   24.7   24.7   23.6   568.7  0.00   0.0     0     0.00      0     0.0  0.00   0.0   0.000   0.057   29.2    50   17.7   30.2    0.00   350    1    100.0   15 
13/08/22  23.00   24.3   24.4   23.8    69   18.2   0.0     N   0.00   6.4     N   24.3   25.2   25.2   24.1   568.7  0.00   0.0     0     0.00      0     0.0  0.00   0.0   0.000   0.062   29.3    52   18.5   30.6    0.03   351    1    100.0   15 
13/08/22  23.15   24.1   24.3   24.1    70   18.3   0.0     N   0.00   3.2     N   24.1   25.1   25.1   23.9   568.7  0.00   0.0     0     0.00      0     0.0  0.00   0.0   0.000   0.060   29.4    53   18.9   30.8    0.00   351    1    100.0   15 
13/08/22  23.30   23.8   24.1   23.8    70   18.0   0.0     N   0.00   3.2     N   23.8   24.8   24.8   23.6   568.7  0.00   0.0     0     0.00      0     0.0  0.00   0.0   0.000   0.057   29.4    54   19.2   30.9    0.00   351    1    100.0   15 
13/08/22  23.45   23.9   23.9   23.8    70   18.1   0.0   NNE   0.00   6.4   NNE   23.9   24.8   24.8   23.7   568.7  0.00   0.0     0     0.00      0     0.0  0.00   0.0   0.000   0.058   29.4    54   19.2   30.9    0.00   350    1    100.0   15 
14/08/22  00.00   24.1   24.1   23.9    70   18.2   0.0   NNE   0.00   3.2   NNE   24.1   25.0   25.0   23.8   568.7  0.00   0.0     0     0.00      0     0.0  0.00   0.0   0.000   0.060   29.3    54   19.1   30.8    0.03   351    1    100.0   15 
14/08/22   0.15   24.1   24.1   24.0    69   18.1   0.0    NE   0.00   1.6    NE   24.1   25.0   25.0   23.8   568.7  0.00   0.0     0     0.00      0     0.0  0.00   0.0   0.000   0.060   29.2    54   19.0   30.7    0.00   348    1    100.0   15 
14/08/22   0.30   24.2   24.3   24.1    68   17.9   0.0   ---   0.00   0.0   ---   24.2   25.1   25.1   23.9   568.7  0.00   0.0     0     0.00      0     0.0  0.00   0.0   0.000   0.061   29.1    54   18.9   30.5    0.00   351    1    100.0   15 
14/08/22   0.45   23.8   24.2   23.8    69   17.7   0.0   ---   0.00   0.0   ---   23.8   24.7   24.7   23.4   568.7  0.00   0.0     0     0.00      0     0.0  0.00   0.0   0.000   0.057   29.0    54   18.8   30.4    0.00   349    1    100.0   15 
14/08/22   1.00   22.6   23.7   22.6    68   16.4   0.0   ---   0.00   0.0   ---   22.6   23.0   23.0   21.7   568.7  0.00   0.0     0     0.00      0     0.0  0.00   0.0   0.000   0.044   29.0    52   18.1   30.2    0.03   349    1    100.0   15 
14/08/22   1.15   22.3   22.6   22.2    69   16.3   0.0   ---   0.00   0.0   ---   22.3   22.7   22.7   21.4   568.7  0.00   0.0     0     0.00      0     0.0  0.00   0.0   0.000   0.041   28.7    52   17.8   29.7    0.00   347    1    100.0   15 
14/08/22   1.30   21.8   22.3   21.8    68   15.7   0.0   ---   0.00   0.0   ---   21.8   22.0   22.0   20.7   568.7  0.00   0.0     0     0.00      0     0.0  0.00   0.0   0.000   0.036   28.7    51   17.5   29.6    0.00   350    1    100.0   15 
14/08/22   1.45   21.3   21.8   21.3    68   15.2   0.0   ---   0.00   0.0   ---   21.3   21.3   21.3   20.0   568.7  0.00   0.0     0     0.00      0     0.0  0.00   0.0   0.000   0.031   28.6    51   17.4   29.4    0.00   347    1    100.0   15 
14/08/22   2.00   21.1   21.3   21.1    71   15.6   0.0   ---   0.00   0.0   ---   21.1   21.2   21.2   19.9   568.7  0.00   0.0     0     0.00      0     0.0  0.00   0.0   0.000   0.029   28.4    50   17.0   29.2    0.03   351    1    100.0   15 
14/08/22   2.15   20.9   21.1   20.9    72   15.7   0.0   ---   0.00   0.0   ---   20.9   21.2   21.2   19.9   568.7  0.00   0.0     0     0.00      0     0.0  0.00   0.0   0.000   0.027   28.3    51   17.2   29.1    0.00   352    1    100.0   15 
14/08/22   2.30   21.8   21.8   20.9    72   16.5   0.0   ---   0.00   0.0   ---   21.8   22.1   22.1   20.8   568.7  0.00   0.0     0     0.00      0     0.0  0.00   0.0   0.000   0.036   28.2    52   17.4   29.0    0.00   351    1    100.0   15 
14/08/22   2.45   22.0   22.0   21.7    74   17.2   0.0   ---   0.00   0.0   ---   22.0   22.5   22.5   21.3   568.7  0.00   0.0     0     0.00      0     0.0  0.00   0.0   0.000   0.038   28.2    53   17.7   29.1    0.00   350    1    100.0   15 
14/08/22   3.00   22.7   22.7   22.1    76   18.3   0.0   ---   0.00   0.0   ---   22.7   23.6   23.6   22.4   568.7  0.00   0.0     0     0.00      0     0.0  0.00   0.0   0.000   0.046   28.2    54   18.0   29.2    0.03   348    1    100.0   15 
14/08/22   3.15   23.1   23.1   22.8    76   18.6   0.0   ---   0.00   0.0   ---   23.1   24.0   24.0   22.8   568.7  0.00   0.0     0     0.00      0     0.0  0.00   0.0   0.000   0.049   28.3    56   18.7   29.5    0.00   348    1    100.0   15 
14/08/22   3.30   22.8   23.1   22.8    75   18.2   0.0   ---   0.00   0.0   ---   22.8   23.7   23.7   22.5   568.7  0.00   0.0     0     0.00      0     0.0  0.00   0.0   0.000   0.047   28.3    57   19.0   29.6    0.00   351    1    100.0   15 
14/08/22   3.45   22.1   22.8   22.1    77   17.8   0.0   ---   0.00   0.0   ---   22.1   22.7   22.7   21.5   568.7  0.00   0.0     0     0.00      0     0.0  0.00   0.0   0.000   0.039   28.2    57   18.9   29.4    0.00   349    1    100.0   15 
14/08/22   4.00   22.3   22.3   21.8    76   17.8   0.0   NNE   0.00   1.6   NNE   22.3   22.9   22.9   21.7   568.7  0.00   0.0     0     0.00      0     0.0  0.00   0.0   0.000   0.041   28.0    58   19.0   29.2    0.03   349    1    100.0   15 
14/08/22   4.15   22.0   22.3   22.0    75   17.4   0.0   ---   0.00   0.0   ---   22.0   22.5   22.5   21.3   568.7  0.00   0.0     0     0.00      0     0.0  0.00   0.0   0.000   0.038   28.0    58   19.0   29.2    0.00   348    1    100.0   15 
14/08/22   4.30   21.8   21.9   21.7    71   16.3   0.0    NW   0.00   8.0    NW   21.8   22.1   22.1   20.8   568.7  0.00   0.0     0     0.00      0     0.0  0.00   0.0   0.000   0.036   28.0    57   18.7   29.1    0.00   348    1    100.0   15 
14/08/22   4.45   24.6   24.6   21.8    55   14.9   3.2   NNW   0.80  14.5   NNW   24.6   24.7   24.7   23.3   568.7  0.00   0.0     0     0.00      0     0.0  0.00   0.0   0.000   0.065   27.9    54   17.7   28.6    0.00   350    1    100.0   15 
14/08/22   5.00   24.8   25.0   24.6    52   14.3   0.0    NW   0.00   4.8    NW   24.8   24.8   24.8   23.4   568.7  0.00   0.0     0     0.00      0     0.0  0.00   0.0   0.000   0.067   27.8    51   16.8   28.3    0.03   350    1    100.0   15 
14/08/22   5.15   23.3   24.8   23.3    57   14.3   0.0   ---   0.00   0.0   ---   23.3   23.6   23.6   22.2   568.7  0.00   0.0     0     0.00      0     0.0  0.00   0.0   0.000   0.052   27.9    50   16.5   28.3    0.00   350    1    100.0   15 
14/08/22   5.30   23.1   23.3   22.6    56   13.9   0.0   ---   0.00   0.0   ---   23.1   23.2   23.2   21.8   568.7  0.00   0.0     0     0.00      0     0.0  0.00   0.0   0.000   0.050   27.7    49   16.0   27.9    0.00   351    1    100.0   15 
14/08/22   5.45   22.9   23.6   22.9    56   13.7   0.0   NNW   0.00   3.2   NNW   22.9   23.0   23.0   21.6   568.7  0.00   0.0     0     0.00      0     0.0  0.00   0.0   0.000   0.048   27.7    48   15.7   27.9    0.00   350    1    100.0   15 
14/08/22   6.00   21.2   22.9   21.2    62   13.6   0.0   NNW   0.00   1.6   NNW   21.2   20.8   20.8   19.4   568.7  0.00   0.0     0     0.00      0     0.0  0.00   0.0   0.000   0.030   27.6    48   15.6   27.7    0.05   351    1    100.0   15 
14/08/22   6.15   21.6   21.6   21.0    59   13.2   0.0   NNE   0.00   1.6   NNE   21.6   21.2   21.2   19.7   568.7  0.00   0.0     0     0.00      0     0.0  0.00   0.0   0.000   0.034   27.5    48   15.5   27.6    0.00   351    1    100.0   15 
14/08/22   6.30   20.8   21.6   20.8    61   13.0   0.0   ---   0.00   0.0   ---   20.8   20.5   20.5   19.1   568.7  0.00   0.0     5     0.11      9     0.0  0.00   0.0   0.000   0.026   27.4    47   15.1   27.3    0.00   351    1    100.0   15 
14/08/22   6.45   19.8   20.9   19.8    63   12.6   0.0   ---   0.00   0.0   ---   19.8   19.8   19.8   18.4   568.7  0.00   0.0    12     0.26     16     0.0  0.00   0.0   0.000   0.016   27.1    47   14.8   26.9    0.00   348    1    100.0   15 
14/08/22   7.00   19.9   19.9   19.7    62   12.4   0.0   ---   0.00   0.0   ---   19.9   19.9   19.9   19.3   568.7  0.00   0.0    18     0.39     19     0.0  0.00   0.0   0.000   0.017   27.0    46   14.4   26.8    0.03   347    1    100.0   15 
14/08/22   7.15   19.9   19.9   19.8    64   12.9   0.0   ---   0.00   0.0   ---   19.9   19.9   19.9   20.4   568.7  0.00   0.0    57     1.23    114     0.0  0.00   0.0   0.000   0.016   26.9    47   14.6   26.8    0.00   349    1    100.0   15 
14/08/22   7.30   20.4   20.4   19.8    62   12.9   0.0   ---   0.00   0.0   ---   20.4   20.3   20.3   21.7   568.7  0.00   0.0    99     2.13    120     0.0  0.00   0.0   0.000   0.022   26.8    47   14.5   26.7    0.00   350    1    100.0   15 
14/08/22   7.45   21.5   21.5   20.4    62   13.9   0.0   ---   0.00   0.0   ---   21.5   21.3   21.3   23.7   568.7  0.00   0.0   149     3.20    176     0.0  0.00   0.0   0.000   0.033   26.9    47   14.6   26.8    0.00   350    1    100.0   15 
14/08/22   8.00   22.6   22.6   21.6    61   14.7   0.0   ---   0.00   0.0   ---   22.6   22.7   22.7   26.1   568.7  0.00   0.0   202     4.34    229     0.0  0.00   0.0   0.000   0.044   27.0    48   15.1   26.9    0.00   349    1    100.0   15 
14/08/22   8.15   24.5   24.5   22.6    57   15.4   0.0   ---   0.00   0.0   ---   24.5   24.8   24.8   28.9   568.7  0.00   0.0   258     5.55    278     0.0  0.00   0.0   0.000   0.064   27.2    49   15.5   27.2    0.08   349    1    100.0   15 
14/08/22   8.30   26.4   26.4   24.5    52   15.7   0.0   ---   0.00   0.0   ---   26.4   26.6   26.6   31.1   568.7  0.00   0.0   297     6.39    320     0.0  0.00   0.0   0.000   0.084   27.2    50   15.8   27.3    0.00   351    1    100.0   15 
14/08/22   8.45   27.1   27.1   26.4    48   15.1   1.6    SE   0.40   8.0   SSE   27.1   27.0   27.0   31.9   568.7  0.00   0.0   343     7.38    362     0.0  0.00   0.0   0.000   0.091   27.4    49   15.7   27.5    0.00   350    1    100.0   15 
14/08/22   9.00   27.3   27.3   27.0    50   15.9   1.6   SSE   0.40   9.7    SE   27.3   27.4   27.4   32.6   568.7  0.00   0.0   384     8.26    403     0.0  0.00   0.0   0.000   0.093   27.5    49   15.8   27.7    0.23   349    1    100.0   15 
14/08/22   9.15   27.4   27.4   27.3    49   15.8   0.0   SSW   0.00   6.4    SE   27.4   27.6   27.6   32.9   568.7  0.00   0.0   423     9.10    438     0.0  0.00   0.0   0.000   0.095   27.6    49   15.9   27.8    0.00   350    1    100.0   15 
14/08/22   9.30   27.6   27.6   27.4    48   15.6   1.6     S   0.40   8.0    SE   27.6   27.7   27.7   33.2   568.7  0.00   0.0   463     9.96    483     0.0  0.00   0.0   0.000   0.096   27.7    48   15.7   27.9    0.00   350    1    100.0   15 
14/08/22   9.45   27.7   27.7   27.6    50   16.3   1.6   SSE   0.40   9.7    SE   27.7   27.9   27.9   33.7   568.7  0.00   0.0   502    10.79    517     0.1  0.01   0.5   0.000   0.097   27.9    49   16.2   28.2    0.00   349    1    100.0   15 
14/08/22  10.00   27.8   27.9   27.7    50   16.4   1.6     S   0.40   8.0   SSW   27.8   28.1   28.1   33.9   568.7  0.00   0.0   537    11.55    555     0.6  0.06   0.7   0.000   0.098   28.0    50   16.6   28.4    0.33   350    1    100.0   15 
14/08/22  10.15   27.9   27.9   27.4    51   16.9   3.2     S   0.80  11.3     S   27.9   28.4   28.4   34.4   568.7  0.00   0.0   574    12.34    589     0.8  0.09   1.0   0.000   0.100   28.1    49   16.4   28.6    0.00   350    1    100.0   15 
14/08/22  10.30   28.0   28.1   27.9    51   16.9   3.2   SSE   0.80   9.7    SE   28.0   28.6   28.6   34.7   568.7  0.00   0.0   605    13.01    617     1.1  0.12   1.2   0.000   0.101   28.2    49   16.5   28.7    0.00   351    1    100.0   15 
14/08/22  10.45   27.9   28.1   27.6    51   16.8   3.2     S   0.80  14.5     S   27.9   28.4   28.4   34.5   568.7  0.00   0.0   628    13.50    640     1.3  0.14   1.3   0.000   0.100   28.3    50   16.9   29.0    0.00   349    1    100.0   15 
14/08/22  11.00   28.1   28.2   27.8    51   17.0   3.2     S   0.80  11.3     S   28.1   28.6   28.6   34.9   568.7  0.00   0.0   679    14.60    717     1.6  0.17   1.8   0.000   0.101   28.4    50   17.0   29.2    0.43   351    1    100.0   15 
14/08/22  11.15   27.8   28.2   27.8    52   17.1   6.4     S   1.61  17.7     S   27.8   28.4   28.4   34.8   568.7  0.00   0.0   751    16.15    823     1.8  0.19   2.0   0.000   0.099   28.7    50   17.2   29.6    0.00   351    1    100.0   15 
14/08/22  11.30   27.6   27.9   27.6    55   17.8   4.8     S   1.21  11.3   SSW   27.6   28.3   28.3   34.2   568.7  0.00   0.0   615    13.22    744     1.6  0.17   2.1   0.000   0.097   28.8    50   17.3   29.7    0.00   350    1    100.0   15 
14/08/22  11.45   27.7   27.9   27.6    54   17.5   3.2   SSE   0.80   9.7   SSE   27.7   28.3   28.3   32.4   568.7  0.00   0.0   399     8.58    499     1.1  0.12   1.8   0.000   0.097   28.9    51   17.7   30.0    0.00   351    1    100.0   15 
14/08/22  12.00   27.6   27.7   27.3    53   17.1   4.8   SSE   1.21  11.3   SSE   27.6   28.1   28.1   32.8   568.7  0.00   0.0   463     9.96    888     1.4  0.15   2.5   0.000   0.096   28.9    51   17.7   30.0    0.41   350    1    100.0   15 
14/08/22  12.15   27.6   27.7   27.5    52   16.8   1.6     S   0.40   9.7     S   27.6   27.9   27.9   31.9   568.7  0.00   0.0   385     8.28    522     0.9  0.10   2.3   0.000   0.096   29.0    50   17.5   30.0    0.00   350    1    100.0   15 
14/08/22  12.30   27.1   27.5   27.1    53   16.7   1.6     S   0.40   8.0     S   27.1   27.4   27.4   29.4   568.7  0.00   0.0   216     4.64    338     0.1  0.01   0.6   0.000   0.091   28.9    50   17.4   29.9    0.00   349    1    100.0   15 
14/08/22  12.45   27.4   27.5   27.0    51   16.4   1.6     S   0.40   8.0     S   27.4   27.7   27.7   31.6   568.7  0.00   0.0   375     8.06    468     0.9  0.10   1.7   0.000   0.095   28.9    49   17.1   29.8    0.00   349    1    100.0   15 
14/08/22  13.00   27.3   27.4   27.2    52   16.6   0.0     S   0.00   8.0     S   27.3   27.7   27.7   31.6   568.7  0.00   0.0   377     8.11    469     1.0  0.11   1.5   0.000   0.094   28.9    49   17.1   29.8    0.23   351    1    100.0   15 
14/08/22  13.15   27.7   27.8   27.4    48   15.7   0.0     S   0.00   6.4     S   27.7   27.8   27.8   30.1   568.7  0.00   0.0   241     5.18    464     0.3  0.03   1.6   0.000   0.097   28.9    48   16.8   29.7    0.00   349    1    100.0   15 
14/08/22  13.30   27.6   27.7   27.4    50   16.2   0.0     S   0.00   9.7   SSW   27.6   27.8   27.8   31.1   568.7  0.00   0.0   326     7.01    434     0.7  0.07   1.6   0.000   0.096   29.0    48   16.9   29.8    0.00   351    1    100.0   15 
14/08/22  13.45   28.1   28.2   27.6    50   16.7   4.8    SE   1.21  11.3    SE   28.1   28.7   28.7   34.5   568.7  0.00   0.0   609    13.10    696     3.0  0.32   4.3   0.000   0.102   29.2    49   17.4   30.1    0.00   349    1    100.0   15 
14/08/22  14.00   28.1   28.4   28.0    51   17.0   4.8   SSE   1.21  11.3    SE   28.1   28.6   28.6   34.7   568.7  0.00   0.0   640    13.76   1060     2.6  0.28   4.3   0.000   0.101   29.6    49   17.7   30.5    0.33   349    1    100.0   15 
14/08/22  14.15   27.2   28.1   27.2    57   18.0   3.2    NE   0.80   9.7    SE   27.2   27.9   27.9   29.8   568.7  0.00   0.0   207     4.45    322     0.2  0.02   1.1   0.000   0.093   29.6    50   18.0   30.6    0.00   351    1    100.0   15 
14/08/22  14.30   27.9   27.9   27.2    51   16.8   0.0   SSW   0.00   6.4   SSW   27.9   28.4   28.4   30.7   568.7  0.00   0.0   238     5.12    318     0.1  0.01   0.7   0.000   0.100   29.7    49   17.8   30.7    0.00   350    1    100.0   15 
14/08/22  14.45   28.6   28.6   27.8    49   16.8   1.6     S   0.40   8.0   SSW   28.6   29.3   29.3   34.6   568.7  0.00   0.0   525    11.29    884     1.8  0.19   3.0   0.000   0.106   29.7    48   17.5   30.6    0.00   350    1    100.0   15 
14/08/22  15.00   29.1   29.2   28.5    51   17.9   3.2   SSE   0.80  11.3   SSE   29.1   30.2   30.2   36.7   568.7  0.00   0.0   791    17.01    803     2.7  0.29   2.8   0.000   0.112   30.0    48   17.8   31.0    0.30   351    1    100.0   15 
14/08/22  15.15   28.7   29.1   28.2    54   18.4   4.8    SE   1.21  16.1    SE   28.7   29.9   29.9   36.3   568.7  0.00   0.0   706    15.18    824     2.2  0.24   2.6   0.000   0.108   30.2    49   18.3   31.5    0.00   350    1    100.0   15 
14/08/22  15.30   28.5   28.6   28.4    52   17.7   3.2    SE   0.80  11.3   ESE   28.5   29.4   29.4   35.8   568.7  0.00   0.0   728    15.65    744     2.2  0.24   2.3   0.000   0.106   30.4    49   18.5   31.9    0.00   350    1    100.0   15 
14/08/22  15.45   28.6   28.8   28.6    52   17.8   3.2    SE   0.80  11.3   SSE   28.6   29.6   29.6   36.0   568.7  0.00   0.0   690    14.84    707     1.9  0.20   2.0   0.000   0.107   30.7    48   18.4   32.1    0.00   349    1    100.0   15 
14/08/22  16.00   28.4   28.7   28.3    54   18.2   3.2   SSE   0.80  11.3   SSE   28.4   29.5   29.5   35.8   568.7  0.00   0.0   659    14.17    675     1.5  0.16   1.7   0.000   0.105   30.8    48   18.5   32.2    0.48   350    1    100.0   15 
14/08/22  16.15   28.4   28.5   28.3    54   18.2   4.8    SE   1.21  14.5   ESE   28.4   29.4   29.4   35.7   568.7  0.00   0.0   629    13.53    642     1.2  0.13   1.3   0.000   0.105   31.0    49   19.0   32.7    0.00   351    1    100.0   15 
14/08/22  16.30   28.7   28.8   28.3    55   18.8   3.2   SSE   0.80  12.9   SSE   28.7   30.1   30.1   36.3   568.7  0.00   0.0   599    12.88    613     0.9  0.10   1.0   0.000   0.108   31.2    49   19.2   32.9    0.00   351    1    100.0   15 
14/08/22  16.45   28.3   28.7   28.2    56   18.7   6.4    SE   1.61  14.5    SE   28.3   29.4   29.4   35.6   568.7  0.00   0.0   564    12.13    582     0.7  0.07   0.8   0.000   0.104   31.2    49   19.2   32.9    0.00   351    1    100.0   15 
14/08/22  17.00   28.3   28.4   28.2    57   19.0   3.2    SE   0.80  11.3   SSE   28.3   29.6   29.6   35.7   568.7  0.00   0.0   528    11.35    545     0.5  0.05   0.6   0.000   0.104   31.2    50   19.5   33.1    0.41   351    1    100.0   15 
14/08/22  17.15   28.5   28.8   28.3    56   18.9   0.0   SSE   0.00   9.7   SSE   28.5   29.8   29.8   35.8   568.7  0.00   0.0   487    10.47    503     0.0  0.00   0.5   0.000   0.106   31.3    50   19.6   33.4    0.00   352    1    100.0   15 
14/08/22  17.30   28.4   28.6   28.2    60   19.9   3.2    SE   0.80  14.5    SE   28.4   30.1   30.1   35.6   568.7  0.00   0.0   401     8.62    468     0.0  0.00   0.0   0.000   0.105   31.3    51   19.9   33.6    0.00   351    1    100.0   15 
14/08/22  17.45   28.8   28.9   28.4    57   19.4   0.0   SSE   0.00   9.7    SE   28.8   30.4   30.4   35.8   568.7  0.00   0.0   373     8.02    381     0.0  0.00   0.0   0.000   0.109   31.2    51   19.8   33.3    0.00   348    1    100.0   15 
14/08/22  18.00   28.9   28.9   28.6    55   19.0   0.0   ---   0.00   0.0   ---   28.9   30.4   30.4   35.4   568.7  0.00   0.0   323     6.95    362     0.0  0.00   0.0   0.000   0.111   31.0    50   19.4   32.8    0.28   349    1    100.0   15 
14/08/22  18.15   28.6   29.0   28.6    56   18.9   0.0   ---   0.00   0.0   ---   28.6   29.9   29.9   34.6   568.7  0.00   0.0   285     6.13    320     0.0  0.00   0.0   0.000   0.106   30.9    50   19.3   32.7    0.00   349    1    100.0   15 
14/08/22  18.30   29.1   29.2   28.6    43   15.2   0.0   SSW   0.00   9.7   SSW   29.1   29.4   29.4   33.7   568.7  0.00   0.0   263     5.66    285     0.0  0.00   0.0   0.000   0.112   30.8    47   18.2   32.1    0.00   351    1    100.0   15 
14/08/22  18.45   28.8   29.1   28.7    56   19.1   0.0     S   0.00   6.4     S   28.8   30.3   30.3   34.4   568.7  0.00   0.0   231     4.97    244     0.0  0.00   0.0   0.000   0.109   30.7    49   18.7   32.3    0.00   350    1    100.0   15 
14/08/22  19.00   28.3   28.7   28.2    54   18.1   0.0     S   0.00   6.4   SSW   28.3   29.2   29.2   32.3   568.7  0.00   0.0   173     3.72    197     0.0  0.00   0.0   0.000   0.104   30.6    49   18.6   32.1    0.18   348    1    100.0   15 
14/08/22  19.15   28.3   28.4   28.3    55   18.4   0.0   ---   0.00   0.0   ---   28.3   29.4   29.4   31.7   568.7  0.00   0.0   132     2.84    158     0.0  0.00   0.0   0.000   0.104   30.4    49   18.5   31.9    0.00   350    1    100.0   15 
14/08/22  19.30   28.1   28.3   28.1    57   18.7   0.0   ---   0.00   0.0   ---   28.1   29.2   29.2   30.4   568.7  0.00   0.0    80     1.72    107     0.0  0.00   0.0   0.000   0.101   30.4    49   18.5   31.9    0.00   350    1    100.0   15 
14/08/22  19.45   27.6   28.0   27.6    56   18.0   0.0   ---   0.00   0.0   ---   27.6   28.4   28.4   27.6   568.7  0.00   0.0    33     0.71     39     0.0  0.00   0.0   0.000   0.097   30.3    49   18.4   31.7    0.00   349    1    100.0   15 
14/08/22  20.00   27.6   27.6   27.5    60   19.1   0.0   ---   0.00   0.0   ---   27.6   28.7   28.7   27.8   568.7  0.00   0.0    22     0.47     26     0.0  0.00   0.0   0.000   0.096   30.2    50   18.6   31.7    0.05   351    1    100.0   15 
14/08/22  20.15   27.1   27.6   27.1    59   18.4   0.0   ---   0.00   0.0   ---   27.1   27.9   27.9   26.8   568.7  0.00   0.0     5     0.11     14     0.0  0.00   0.0   0.000   0.091   30.2    51   19.0   31.8    0.00   351    1    100.0   15 
14/08/22  20.30   26.8   27.1   26.8    61   18.6   0.0   ---   0.00   0.0   ---   26.8   27.6   27.6   26.4   568.7  0.00   0.0     0     0.00      0     0.0  0.00   0.0   0.000   0.088   30.1    51   18.9   31.6    0.00   350    1    100.0   15 
14/08/22  20.45   26.6   26.8   26.5    64   19.2   0.0   ---   0.00   0.0   ---   26.6   27.6   27.6   26.4   568.7  0.00   0.0     0     0.00      0     0.0  0.00   0.0   0.000   0.086   30.0    52   19.1   31.6    0.00   351    1    100.0   15 
14/08/22  21.00   25.8   26.6   25.8    61   17.7   0.0   ---   0.00   0.0   ---   25.8   26.4   26.4   25.2   568.7  0.00   0.0     0     0.00      0     0.0  0.00   0.0   0.000   0.078   29.9    53   19.3   31.6    0.00   349    1    100.0   15 
14/08/22  21.15   25.4   25.8   25.4    63   17.9   0.0   ---   0.00   0.0   ---   25.4   26.1   26.1   24.9   568.7  0.00   0.0     0     0.00      0     0.0  0.00   0.0   0.000   0.074   29.9    51   18.7   31.2    0.00   348    1    100.0   15 
14/08/22  21.30   24.8   25.4   24.8    66   18.0   0.0   ---   0.00   0.0   ---   24.8   25.6   25.6   24.4   568.7  0.00   0.0     0     0.00      0     0.0  0.00   0.0   0.000   0.067   29.8    52   18.9   31.2    0.00   352    1    100.0   15 
14/08/22  21.45   23.3   24.7   23.3    60   15.1   0.0   ---   0.00   0.0   ---   23.3   23.7   23.7   22.3   568.7  0.00   0.0     0     0.00      0     0.0  0.00   0.0   0.000   0.052   29.7    51   18.5   30.9    0.00   350    1    100.0   15 
14/08/22  22.00   23.1   23.3   23.1    57   14.1   0.0   ---   0.00   0.0   ---   23.1   23.3   23.3   21.9   568.7  0.00   0.0     0     0.00      0     0.0  0.00   0.0   0.000   0.050   29.3    47   16.9   30.1    0.05   349    1    100.0   15 
14/08/22  22.15   22.9   23.2   22.8    55   13.4   0.0   ---   0.00   0.0   ---   22.9   23.0   23.0   21.6   568.7  0.00   0.0     0     0.00      0     0.0  0.00   0.0   0.000   0.048   29.2    45   16.1   29.8    0.00   350    1    100.0   15 
14/08/22  22.30   22.7   23.1   22.7    55   13.2   0.0   ---   0.00   0.0   ---   22.7   22.6   22.6   21.2   568.7  0.00   0.0     0     0.00      0     0.0  0.00   0.0   0.000   0.045   29.0    44   15.5   29.5    0.00   350    1    100.0   15 
14/08/22  22.45   22.3   22.7   22.3    57   13.4   0.0   ---   0.00   0.0   ---   22.3   22.2   22.2   20.8   568.7  0.00   0.0     0     0.00      0     0.0  0.00   0.0   0.000   0.042   28.9    44   15.4   29.4    0.00   350    1    100.0   15 
14/08/22  23.00   22.5   22.6   22.3    55   13.0   0.0   ---   0.00   0.0   ---   22.5   22.4   22.4   20.9   568.7  0.00   0.0     0     0.00      0     0.0  0.00   0.0   0.000   0.043   28.8    44   15.3   29.2    0.05   349    1    100.0   15 
14/08/22  23.15   22.3   22.5   22.3    60   14.2   0.0   ---   0.00   0.0   ---   22.3   22.3   22.3   20.9   568.7  0.00   0.0     0     0.00      0     0.0  0.00   0.0   0.000   0.042   28.7    45   15.6   29.2    0.00   347    1    100.0   15 
14/08/22  23.30   22.4   22.6   22.3    60   14.3   0.0   ---   0.00   0.0   ---   22.4   22.5   22.5   21.1   568.7  0.00   0.0     0     0.00      0     0.0  0.00   0.0   0.000   0.043   28.6    45   15.5   28.9    0.00   350    1    100.0   15 
14/08/22  23.45   22.5   22.6   22.4    63   15.1   0.0   ---   0.00   0.0   ---   22.5   22.7   22.7   21.4   568.7  0.00   0.0     0     0.00      0     0.0  0.00   0.0   0.000   0.043   28.6    46   15.8   29.1    0.00   349    1    100.0   15 
15/08/22  00.00   22.7   22.7   22.4    59   14.2   0.0   ---   0.00   0.0   ---   22.7   22.8   22.8   21.4   568.7  0.00   0.0     0     0.00      0     0.0  0.00   0.0   0.000   0.045   28.4    46   15.7   28.9    0.05   350    1    100.0   15 
15/08/22   0.15   22.9   22.9   22.6    60   14.7   0.0   ---   0.00   0.0   ---   22.9   23.2   23.2   21.8   568.7  0.00   0.0     0     0.00      0     0.0  0.00   0.0   0.000   0.047   28.2    46   15.5   28.5    0.00   348    1    100.0   15 
15/08/22   0.30   23.7   23.7   22.9    63   16.2   0.0   ---   0.00   0.0   ---   23.7   24.3   24.3   23.0   568.7  0.00   0.0     0     0.00      0     0.0  0.00   0.0   0.000   0.056   28.1    46   15.4   28.3    0.00   349    1    100.0   15 
15/08/22   0.45   24.6   24.6   23.7    67   18.1   0.0   ---   0.00   0.0   ---   24.6   25.4   25.4   24.3   568.7  0.00   0.0     0     0.00      0     0.0  0.00   0.0   0.000   0.065   27.9    49   16.2   28.2    0.00   349    1    100.0   15 
15/08/22   1.00   25.3   25.3   24.6    70   19.4   0.0   ---   0.00   0.0   ---   25.3   26.4   26.4   25.3   568.7  0.00   0.0     0     0.00      0     0.0  0.00   0.0   0.000   0.072   28.0    53   17.5   28.7    0.03   351    1    100.0   15 
15/08/22   1.15   26.2   26.2   25.3    71   20.5   0.0   SSW   0.00   8.0    SW   26.2   27.6   27.6   26.6   568.7  0.00   0.0     0     0.00      0     0.0  0.00   0.0   0.000   0.082   28.1    58   19.1   29.3    0.00   350    1    100.0   15 
15/08/22   1.30   26.6   26.6   26.2    71   20.9   1.6   SSW   0.40  14.5     S   26.6   28.1   28.1   27.1   568.7  0.00   0.0     0     0.00      0     0.0  0.00   0.0   0.000   0.086   28.2    60   19.7   29.7    0.00   351    1    100.0   15 
15/08/22   1.45   26.2   26.6   26.2    70   20.3   0.0   SSW   0.00   8.0   SSW   26.2   27.6   27.6   26.5   568.7  0.00   0.0     0     0.00      0     0.0  0.00   0.0   0.000   0.082   28.3    60   19.8   29.8    0.00   350    1    100.0   15 
© www.elbaexplorer.com